Darstellungsparameter: Aktuell verwendete Einstellungen:
Skalierung der Graphiken ... ?
xyx+y,   Skalierungsfaktor:      Skalierung: Modus: x, Faktor: 1
Darstellungszeitraum ... ?
Vom - - bis: - -   Zeitraum: 14.04.2010 - 13.10.2010
Min/Max/Avg-Anzeige ... ?
Zeige MMA aktuell
Zeige MMA Monat
Zeige MMA alles
Zeige --A aktuell
Zeige --A Monat
Zeige --A alles
Keine MMA-Anzeige
MMA:
Average (ber die Originaldaten)
MMA-Basis: 14.04.2010 - 13.10.2010
Quicknavigation für Darstellung... ?
Tage:      1T, 2T, 3T, 5T -1T -2T -3T -5T +1T +2T +3T +5T
Wochen: 1W, 2W, 3W -1W -2W -3W +1W +2W +3W
Monate: 1M, 3M, 6M -1M -3M -6M +1M +3M +6M
Jahre:    1J, 3J, 5J, 10J -1J -3J -5J -10J +1J +3J +5J +10J
Nutze für die Darstellung ... ?
Originaldaten oder Mittelwerte auf ...
Stundenbasis Tagesbasis Wochenbasis
Monatsbasis Jahresbasis      Datenbasis: Original-Daten
Darstellen als:
Statistik (Auto) Statistik J:M      Darstellung:
Zur Graphik,    zurück zur Übersicht aller Sensoren.
 
Tabellarische Datenbersicht: ?
 
Sensor: Nr:Datum:Temp:Abs-Feuchte:Windchill:Wind:
Aussen-T/F 1 14-04-2010 00:00:02 11.6 C 5.2 g/m*3 11.6 C 0 km/h
2 14-04-2010 00:12:02 11.5 C 5.16 g/m*3 11.5 C 0 km/h
3 14-04-2010 00:24:02 11.3 C 5.2 g/m*3 11.3 C 0 km/h
4 14-04-2010 00:36:02 11.4 C 5.23 g/m*3 11.4 C 0 km/h
5 14-04-2010 00:48:02 11.2 C 5.17 g/m*3 11.2 C 0 km/h
6 14-04-2010 01:00:02 11.1 C 5.14 g/m*3 11.1 C 0 km/h
7 14-04-2010 01:12:02 11 C 5.2 g/m*3 11 C 0 km/h
8 14-04-2010 01:24:03 11 C 5 g/m*3 11 C 0 km/h
9 14-04-2010 01:36:02 10.9 C 5.17 g/m*3 10.9 C 0 km/h
10 14-04-2010 01:48:03 10.9 C 5.07 g/m*3 10.9 C 0 km/h
11 14-04-2010 02:00:03 10.7 C 5.01 g/m*3 10.7 C 0 km/h
12 14-04-2010 02:12:02 10.7 C 5.01 g/m*3 10.7 C 0 km/h
13 14-04-2010 02:24:03 10.6 C 5.08 g/m*3 10.6 C 0 km/h
14 14-04-2010 02:36:02 10.4 C 5.11 g/m*3 10.4 C 0 km/h
15 14-04-2010 02:48:02 10.1 C 5.01 g/m*3 10.1 C 0 km/h
16 14-04-2010 03:00:02 9.8 C 5.1 g/m*3 9.8 C 0 km/h
17 14-04-2010 03:12:01 9.5 C 5.01 g/m*3 9.5 C 0 km/h
18 14-04-2010 03:24:01 9.3 C 5.03 g/m*3 9.3 C 0 km/h
19 14-04-2010 03:36:01 9 C 5.03 g/m*3 9 C 0 km/h
20 14-04-2010 03:48:01 8.8 C 5.05 g/m*3 8.8 C 0 km/h
21 14-04-2010 04:00:01 8.8 C 5.14 g/m*3 8.8 C 0 km/h
22 14-04-2010 04:12:01 8.5 C 5.12 g/m*3 8.5 C 0 km/h
23 14-04-2010 04:24:02 8.3 C 5.23 g/m*3 8.3 C 0 km/h
24 14-04-2010 04:36:01 8.3 C 5.23 g/m*3 8.3 C 0 km/h
25 14-04-2010 04:48:01 8.4 C 5.26 g/m*3 8.4 C 0 km/h
Sensor: Nr:Datum:Temp:Abs-Feuchte:Windchill:Wind:
Aussen-T/F 26 14-04-2010 05:00:01 8.5 C 5.29 g/m*3 8.5 C 0 km/h
27 14-04-2010 05:12:01 8.4 C 5.34 g/m*3 8.4 C 0 km/h
28 14-04-2010 05:24:02 8.3 C 5.31 g/m*3 8.3 C 0 km/h
29 14-04-2010 05:36:01 8.1 C 5.33 g/m*3 8.1 C 0 km/h
30 14-04-2010 05:48:02 7.8 C 5.3 g/m*3 7.8 C 0 km/h
31 14-04-2010 06:00:02 7.8 C 5.3 g/m*3 7.8 C 0 km/h
32 14-04-2010 06:12:01 7.9 C 5.26 g/m*3 7.9 C 0 km/h
33 14-04-2010 06:24:02 7.7 C 5.11 g/m*3 7.7 C 0 km/h
34 14-04-2010 06:36:01 7.4 C 5.01 g/m*3 7.4 C 0 km/h
35 14-04-2010 06:48:02 7.1 C 4.99 g/m*3 7.1 C 0 km/h
36 14-04-2010 07:00:02 7 C 4.96 g/m*3 7 C 0 km/h
37 14-04-2010 07:12:01 6.9 C 5 g/m*3 6.9 C 0 km/h
38 14-04-2010 07:24:01 6.8 C 5.05 g/m*3 6.8 C 0 km/h
39 14-04-2010 07:36:02 7.2 C 5.18 g/m*3 7.2 C 0 km/h
40 14-04-2010 07:48:01 7.5 C 5.2 g/m*3 7.5 C 0 km/h
41 14-04-2010 08:00:01 7.5 C 5.2 g/m*3 7.5 C 0 km/h
42 14-04-2010 08:12:01 7.6 C 5.32 g/m*3 7.6 C 0 km/h
43 14-04-2010 08:24:01 7.8 C 5.39 g/m*3 7.8 C 0 km/h
44 14-04-2010 08:36:02 8 C 5.21 g/m*3 8 C 0 km/h
45 14-04-2010 08:48:02 8.2 C 5.11 g/m*3 8.2 C 0 km/h
46 14-04-2010 09:00:02 8.4 C 5.17 g/m*3 8.4 C 0 km/h
47 14-04-2010 09:12:01 8.4 C 5.09 g/m*3 8.4 C 0 km/h
48 14-04-2010 09:24:01 8.6 C 5.16 g/m*3 8.6 C 0 km/h
49 14-04-2010 09:36:02 9.1 C 5.15 g/m*3 9.1 C 0 km/h
50 14-04-2010 09:48:01 9.5 C 5.19 g/m*3 9.5 C 0 km/h
Sensor: Nr:Datum:Temp:Abs-Feuchte:Windchill:Wind:
Aussen-T/F 51 14-04-2010 10:00:01 9.9 C 5.14 g/m*3 9.9 C 0 km/h
52 14-04-2010 10:12:01 10.5 C 5.14 g/m*3 10.5 C 0 km/h
53 14-04-2010 10:24:01 11 C 5 g/m*3 11 C 0 km/h
54 14-04-2010 10:36:02 11.5 C 5.16 g/m*3 11.5 C 0 km/h
55 14-04-2010 10:48:01 11.7 C 4.81 g/m*3 11.7 C 0 km/h
56 14-04-2010 11:00:01 11.9 C 4.87 g/m*3 11.9 C 0 km/h
57 14-04-2010 11:12:02 12.8 C 4.93 g/m*3 12.8 C 0 km/h
58 14-04-2010 11:24:01 13.1 C 4.68 g/m*3 13.1 C 0 km/h
59 14-04-2010 11:36:01 13.5 C 4.91 g/m*3 13.5 C 0 km/h
60 14-04-2010 11:48:01 14.1 C 4.85 g/m*3 14.1 C 0 km/h
61 14-04-2010 12:00:01 13.8 C 4.65 g/m*3 13.8 C 0 km/h
62 14-04-2010 12:12:02 13.4 C 4.65 g/m*3 13.4 C 0 km/h
63 14-04-2010 12:24:01 13.6 C 4.59 g/m*3 13.6 C 0 km/h
64 14-04-2010 12:36:01 13.7 C 4.74 g/m*3 13.7 C 0 km/h
65 14-04-2010 12:48:01 14.9 C 4.72 g/m*3 14.9 C 0 km/h
66 14-04-2010 13:00:01 14.4 C 4.33 g/m*3 14.4 C 0 km/h
67 14-04-2010 13:12:02 14.5 C 3.98 g/m*3 14.5 C 0 km/h
68 14-04-2010 13:24:01 13.5 C 4.09 g/m*3 13.5 C 0 km/h
69 14-04-2010 13:36:01 14.4 C 3.96 g/m*3 14.4 C 0 km/h
70 14-04-2010 13:48:01 14.3 C 3.81 g/m*3 14.3 C 0 km/h
71 14-04-2010 14:00:01 13.7 C 4.03 g/m*3 13.7 C 0 km/h
72 14-04-2010 14:12:01 14.5 C 3.86 g/m*3 14.5 C 0 km/h
73 14-04-2010 14:24:01 14 C 3.74 g/m*3 14 C 0 km/h
74 14-04-2010 14:36:01 13.5 C 3.98 g/m*3 13.5 C 0 km/h
75 14-04-2010 14:48:01 13.7 C 4.14 g/m*3 13.7 C 0 km/h
Sensor: Nr:Datum:Temp:Abs-Feuchte:Windchill:Wind:
Aussen-T/F 76 14-04-2010 15:00:01 14.3 C 3.69 g/m*3 14.3 C 0 km/h
77 14-04-2010 15:12:01 15.8 C 3.37 g/m*3 15.8 C 0 km/h
78 14-04-2010 15:24:02 15.1 C 2.58 g/m*3 15.1 C 0 km/h
79 14-04-2010 15:36:01 14.8 C 2.53 g/m*3 14.8 C 0 km/h
80 14-04-2010 15:48:02 14.4 C 2.47 g/m*3 14.4 C 0 km/h
81 14-04-2010 16:00:02 16 C 4.22 g/m*3 16 C 0 km/h
82 14-04-2010 16:12:01 16.2 C 3.45 g/m*3 16.2 C 0 km/h
83 14-04-2010 16:24:02 16.3 C 2.77 g/m*3 16.3 C 0 km/h
84 14-04-2010 16:36:01 18.5 C 3.16 g/m*3 18.5 C 0 km/h
85 14-04-2010 16:48:02 17.2 C 2.93 g/m*3 17.2 C 0 km/h
86 14-04-2010 17:00:02 16.3 C 2.77 g/m*3 16.3 C 0 km/h
87 14-04-2010 17:12:01 17.2 C 2.93 g/m*3 17.2 C 0 km/h
88 14-04-2010 17:24:01 18.1 C 3.09 g/m*3 18.1 C 0 km/h
89 14-04-2010 17:36:01 17.2 C 2.93 g/m*3 17.2 C 0 km/h
90 14-04-2010 17:48:02 16.7 C 2.84 g/m*3 16.7 C 0 km/h
91 14-04-2010 18:00:02 16.8 C 2.86 g/m*3 16.8 C 0 km/h
92 14-04-2010 18:12:01 18.1 C 3.09 g/m*3 18.1 C 0 km/h
93 14-04-2010 18:24:01 18.9 C 3.24 g/m*3 18.9 C 0 km/h
94 14-04-2010 18:36:02 17.3 C 2.95 g/m*3 17.3 C 0 km/h
95 14-04-2010 18:48:02 15.6 C 2.66 g/m*3 15.6 C 0 km/h
96 14-04-2010 19:00:02 15.8 C 2.96 g/m*3 15.8 C 0 km/h
97 14-04-2010 19:12:01 15.3 C 2.74 g/m*3 15.3 C 0 km/h
98 14-04-2010 19:24:01 14.7 C 3.15 g/m*3 14.7 C 0 km/h
99 14-04-2010 19:36:02 14.3 C 3.07 g/m*3 14.3 C 0 km/h
100 14-04-2010 19:48:01 14 C 3.26 g/m*3 14 C 0 km/h
Sensor: Nr:Datum:Temp:Abs-Feuchte:Windchill:Wind:
Aussen-T/F 101 14-04-2010 20:00:01 13.6 C 3.41 g/m*3 13.6 C 0 km/h
102 14-04-2010 20:12:02 13.1 C 3.65 g/m*3 13.1 C 0 km/h
103 14-04-2010 20:24:01 13 C 3.74 g/m*3 13 C 0 km/h
104 14-04-2010 20:36:02 12.7 C 3.9 g/m*3 12.7 C 0 km/h
105 14-04-2010 20:48:01 12.4 C 4.04 g/m*3 12.4 C 0 km/h
106 14-04-2010 21:00:01 11.7 C 3.97 g/m*3 11.7 C 0 km/h
107 14-04-2010 21:12:02 11.2 C 4.05 g/m*3 11.2 C 0 km/h
108 14-04-2010 21:24:01 10.7 C 4.03 g/m*3 10.7 C 0 km/h
109 14-04-2010 21:36:01 10.5 C 4.07 g/m*3 10.5 C 0 km/h
110 14-04-2010 21:48:01 10.3 C 4.12 g/m*3 10.3 C 0 km/h
111 14-04-2010 22:00:01 10.3 C 4.21 g/m*3 10.3 C 0 km/h
112 14-04-2010 22:12:02 10.4 C 4.34 g/m*3 10.4 C 0 km/h
113 14-04-2010 22:24:01 10.8 C 4.45 g/m*3 10.8 C 0 km/h
114 14-04-2010 22:36:01 11 C 4.6 g/m*3 11 C 0 km/h
115 14-04-2010 22:48:01 11 C 4.7 g/m*3 11 C 0 km/h
116 14-04-2010 23:00:01 10.9 C 4.97 g/m*3 10.9 C 0 km/h
117 14-04-2010 23:12:01 10.8 C 4.94 g/m*3 10.8 C 0 km/h
118 14-04-2010 23:24:01 10.8 C 5.04 g/m*3 10.8 C 0 km/h
119 14-04-2010 23:36:01 10.6 C 4.98 g/m*3 10.6 C 0 km/h
120 14-04-2010 23:48:01 10.5 C 5.04 g/m*3 10.5 C 0 km/h
121 15-04-2010 00:00:01 10.3 C 5.08 g/m*3 10.3 C 0 km/h
122 15-04-2010 00:12:01 10.2 C 5.14 g/m*3 10.2 C 0 km/h
123 15-04-2010 00:24:02 10.1 C 5.11 g/m*3 10.1 C 0 km/h
124 15-04-2010 00:36:01 10.1 C 5.2 g/m*3 10.1 C 0 km/h
125 15-04-2010 00:48:01 10.1 C 5.2 g/m*3 10.1 C 0 km/h
Sensor: Nr:Datum:Temp:Abs-Feuchte:Windchill:Wind:
Aussen-T/F 126 15-04-2010 01:00:01 10.1 C 5.2 g/m*3 10.1 C 0 km/h
127 15-04-2010 01:12:01 10.1 C 5.3 g/m*3 10.1 C 0 km/h
128 15-04-2010 01:24:02 10.1 C 5.3 g/m*3 10.1 C 0 km/h
129 15-04-2010 01:36:01 10.1 C 5.3 g/m*3 10.1 C 0 km/h
130 15-04-2010 01:48:02 10 C 5.26 g/m*3 10 C 0 km/h
131 15-04-2010 02:00:02 9.9 C 5.32 g/m*3 9.9 C 0 km/h
132 15-04-2010 02:12:01 9.8 C 5.38 g/m*3 9.8 C 0 km/h
133 15-04-2010 02:24:02 9.8 C 5.38 g/m*3 9.8 C 0 km/h
134 15-04-2010 02:36:01 9.7 C 5.35 g/m*3 9.7 C 0 km/h
135 15-04-2010 02:49:07 9.7 C 5.44 g/m*3 9.7 C 0 km/h
136 15-04-2010 03:01:07 9.6 C 5.4 g/m*3 9.6 C 0 km/h
137 15-04-2010 03:13:06 9.5 C 5.37 g/m*3 9.5 C 0 km/h
138 15-04-2010 03:25:06 9.5 C 5.37 g/m*3 9.5 C 0 km/h
139 15-04-2010 03:37:01 9.4 C 5.34 g/m*3 9.4 C 0 km/h
140 15-04-2010 03:49:01 9.3 C 5.3 g/m*3 9.3 C 0 km/h
141 15-04-2010 04:01:01 9.1 C 5.32 g/m*3 9.1 C 0 km/h
142 15-04-2010 04:13:01 8.7 C 5.28 g/m*3 8.7 C 0 km/h
143 15-04-2010 04:25:02 8.4 C 5.34 g/m*3 8.4 C 0 km/h
144 15-04-2010 04:37:01 8.4 C 5.34 g/m*3 8.4 C 0 km/h
145 15-04-2010 04:49:01 8.7 C 5.36 g/m*3 8.7 C 0 km/h
146 15-04-2010 05:01:01 8.8 C 5.4 g/m*3 8.8 C 0 km/h
147 15-04-2010 05:13:01 8.9 C 5.43 g/m*3 8.9 C 0 km/h
148 15-04-2010 05:25:02 9 C 5.38 g/m*3 9 C 0 km/h
149 15-04-2010 05:37:01 9 C 5.38 g/m*3 9 C 0 km/h
150 15-04-2010 05:49:03 8.9 C 5.43 g/m*3 8.9 C 0 km/h
Sensor: Nr:Datum:Temp:Abs-Feuchte:Windchill:Wind:
Aussen-T/F 151 15-04-2010 06:01:02 8.9 C 5.43 g/m*3 8.9 C 0 km/h
152 15-04-2010 06:13:02 8.9 C 5.43 g/m*3 8.9 C 0 km/h
153 15-04-2010 06:25:02 8.6 C 5.41 g/m*3 8.6 C 0 km/h
154 15-04-2010 06:37:02 8 C 5.29 g/m*3 8 C 0 km/h
155 15-04-2010 06:49:02 7.6 C 5.4 g/m*3 7.6 C 0 km/h
156 15-04-2010 07:01:02 7.3 C 5.37 g/m*3 7.3 C 0 km/h
157 15-04-2010 07:13:02 7.3 C 5.45 g/m*3 7.3 C 0 km/h
158 15-04-2010 07:25:02 7.1 C 5.38 g/m*3 7.1 C 0 km/h
159 15-04-2010 07:37:01 7.2 C 5.42 g/m*3 7.2 C 0 km/h
160 15-04-2010 07:49:02 7.5 C 5.52 g/m*3 7.5 C 0 km/h
161 15-04-2010 08:01:01 7.8 C 5.55 g/m*3 7.8 C 0 km/h
162 15-04-2010 08:13:01 8.1 C 5.49 g/m*3 8.1 C 0 km/h
163 15-04-2010 08:25:01 8.4 C 5.43 g/m*3 8.4 C 0 km/h
164 15-04-2010 08:37:02 8.8 C 5.48 g/m*3 8.8 C 0 km/h
165 15-04-2010 08:49:02 9 C 5.29 g/m*3 9 C 0 km/h
166 15-04-2010 09:01:01 9.3 C 5.39 g/m*3 9.3 C 0 km/h
167 15-04-2010 09:13:01 9.3 C 5.21 g/m*3 9.3 C 0 km/h
168 15-04-2010 09:25:02 9.8 C 5.38 g/m*3 9.8 C 0 km/h
169 15-04-2010 09:37:02 10.4 C 5.3 g/m*3 10.4 C 0 km/h
170 15-04-2010 09:49:01 10.5 C 5.14 g/m*3 10.5 C 0 km/h
171 15-04-2010 10:01:02 10.5 C 5.24 g/m*3 10.5 C 0 km/h
172 15-04-2010 10:13:02 10.4 C 5.2 g/m*3 10.4 C 0 km/h
173 15-04-2010 10:25:01 10.1 C 5.11 g/m*3 10.1 C 0 km/h
174 15-04-2010 10:37:02 9.9 C 5.04 g/m*3 9.9 C 0 km/h
175 15-04-2010 10:49:02 10.2 C 4.95 g/m*3 10.2 C 0 km/h
Sensor: Nr:Datum:Temp:Abs-Feuchte:Windchill:Wind:
Aussen-T/F 176 15-04-2010 11:01:02 10.5 C 4.85 g/m*3 10.5 C 0 km/h
177 15-04-2010 11:13:02 10.9 C 5.07 g/m*3 10.9 C 0 km/h
178 15-04-2010 11:25:02 11.7 C 5.12 g/m*3 11.7 C 0 km/h
179 15-04-2010 11:37:02 12.4 C 5.03 g/m*3 12.4 C 0 km/h
180 15-04-2010 11:49:02 13.2 C 4.82 g/m*3 13.2 C 0 km/h
181 15-04-2010 12:01:02 14.4 C 4.94 g/m*3 14.4 C 0 km/h
182 15-04-2010 12:13:02 14.7 C 4.53 g/m*3 14.7 C 0 km/h
183 15-04-2010 12:25:02 15 C 4.74 g/m*3 15 C 0 km/h
184 15-04-2010 12:37:02 15.2 C 4.54 g/m*3 15.2 C 0 km/h
185 15-04-2010 12:49:01 15.2 C 4.54 g/m*3 15.2 C 0 km/h
186 15-04-2010 13:01:02 14.8 C 4.43 g/m*3 14.8 C 0 km/h
187 15-04-2010 13:13:02 15.4 C 4.47 g/m*3 15.4 C 0 km/h
188 15-04-2010 13:25:01 14.2 C 4.27 g/m*3 14.2 C 0 km/h
189 15-04-2010 13:37:02 13.8 C 4.53 g/m*3 13.8 C 0 km/h
190 15-04-2010 13:49:02 13.6 C 4.47 g/m*3 13.6 C 0 km/h
191 15-04-2010 14:01:01 13.8 C 4.65 g/m*3 13.8 C 0 km/h
192 15-04-2010 14:13:01 14 C 4.46 g/m*3 14 C 0 km/h
193 15-04-2010 14:25:02 14.2 C 4.52 g/m*3 14.2 C 0 km/h
194 15-04-2010 14:37:02 15.3 C 4.7 g/m*3 15.3 C 0 km/h
195 15-04-2010 14:49:02 15.6 C 4.65 g/m*3 15.6 C 0 km/h
196 15-04-2010 15:01:03 16.4 C 4.75 g/m*3 16.4 C 0 km/h
197 15-04-2010 15:13:03 18.3 C 4.69 g/m*3 18.3 C 0 km/h
198 15-04-2010 15:25:02 17.8 C 4.55 g/m*3 17.8 C 0 km/h
199 15-04-2010 15:37:02 15.9 C 4.33 g/m*3 15.9 C 0 km/h
200 15-04-2010 15:49:02 16.6 C 4.66 g/m*3 16.6 C 0 km/h
Sensor: Nr:Datum:Temp:Abs-Feuchte:Windchill:Wind:
Aussen-T/F 201 15-04-2010 16:01:02 16.1 C 4.8 g/m*3 16.1 C 0 km/h
202 15-04-2010 16:13:02 15 C 4.62 g/m*3 15 C 0 km/h
203 15-04-2010 16:25:01 14.4 C 5.07 g/m*3 14.4 C 0 km/h
204 15-04-2010 16:37:02 14.3 C 4.79 g/m*3 14.3 C 0 km/h
205 15-04-2010 16:49:02 14.7 C 4.91 g/m*3 14.7 C 0 km/h
206 15-04-2010 17:01:02 15.4 C 4.86 g/m*3 15.4 C 0 km/h
207 15-04-2010 17:13:02 14.8 C 4.69 g/m*3 14.8 C 0 km/h
208 15-04-2010 17:25:02 15 C 4.74 g/m*3 15 C 0 km/h
209 15-04-2010 17:37:02 15.3 C 4.83 g/m*3 15.3 C 0 km/h
210 15-04-2010 17:49:02 15.8 C 4.85 g/m*3 15.8 C 0 km/h
211 15-04-2010 18:01:02 15.7 C 4.68 g/m*3 15.7 C 0 km/h
212 15-04-2010 18:13:02 15.7 C 4.82 g/m*3 15.7 C 0 km/h
213 15-04-2010 18:25:02 15.6 C 4.92 g/m*3 15.6 C 0 km/h
214 15-04-2010 18:37:02 15.5 C 5.02 g/m*3 15.5 C 0 km/h
215 15-04-2010 18:49:01 15.4 C 4.99 g/m*3 15.4 C 0 km/h
216 15-04-2010 19:01:02 15.4 C 4.73 g/m*3 15.4 C 0 km/h
217 15-04-2010 19:13:02 15.2 C 4.8 g/m*3 15.2 C 0 km/h
218 15-04-2010 19:25:01 15.1 C 4.9 g/m*3 15.1 C 0 km/h
219 15-04-2010 19:37:02 14.8 C 5.07 g/m*3 14.8 C 0 km/h
220 15-04-2010 19:49:01 14.4 C 4.7 g/m*3 14.4 C 0 km/h
221 15-04-2010 20:01:02 14.1 C 4.85 g/m*3 14.1 C 0 km/h
222 15-04-2010 20:13:03 13.8 C 4.89 g/m*3 13.8 C 0 km/h
223 15-04-2010 20:25:01 13.6 C 4.12 g/m*3 13.6 C 0 km/h
224 15-04-2010 20:37:02 13.3 C 3.81 g/m*3 13.3 C 0 km/h
225 15-04-2010 20:49:02 13.1 C 3.65 g/m*3 13.1 C 0 km/h
Sensor: Nr:Datum:Temp:Abs-Feuchte:Windchill:Wind:
Aussen-T/F 226 15-04-2010 21:01:02 12.9 C 3.61 g/m*3 12.9 C 0 km/h
227 15-04-2010 21:13:03 12.7 C 3.67 g/m*3 12.7 C 0 km/h
228 15-04-2010 21:25:01 12.6 C 3.87 g/m*3 12.6 C 0 km/h
229 15-04-2010 21:37:02 12.5 C 3.85 g/m*3 12.5 C 0 km/h
230 15-04-2010 21:49:02 12.4 C 3.82 g/m*3 12.4 C 0 km/h
231 15-04-2010 22:01:02 12.4 C 3.71 g/m*3 12.4 C 0 km/h
232 15-04-2010 22:13:02 12.2 C 3.78 g/m*3 12.2 C 0 km/h
233 15-04-2010 22:25:02 12.2 C 3.56 g/m*3 12.2 C 0 km/h
234 15-04-2010 22:37:02 12.1 C 3.43 g/m*3 12.1 C 0 km/h
235 15-04-2010 22:49:02 12.1 C 3.43 g/m*3 12.1 C 0 km/h
236 15-04-2010 23:01:02 11.9 C 3.71 g/m*3 11.9 C 0 km/h
237 15-04-2010 23:13:02 11.8 C 3.79 g/m*3 11.8 C 0 km/h
238 15-04-2010 23:25:02 11.6 C 3.85 g/m*3 11.6 C 0 km/h
239 15-04-2010 23:37:02 11.5 C 3.72 g/m*3 11.5 C 0 km/h
240 15-04-2010 23:49:01 11.4 C 3.7 g/m*3 11.4 C 0 km/h
241 16-04-2010 00:01:02 11.4 C 3.9 g/m*3 11.4 C 0 km/h
242 16-04-2010 00:13:03 11.1 C 4.03 g/m*3 11.1 C 0 km/h
243 16-04-2010 00:25:01 10.9 C 3.98 g/m*3 10.9 C 0 km/h
244 16-04-2010 00:37:02 10.8 C 3.95 g/m*3 10.8 C 0 km/h
245 16-04-2010 00:49:02 10.7 C 4.03 g/m*3 10.7 C 0 km/h
246 16-04-2010 01:01:02 10.5 C 3.98 g/m*3 10.5 C 0 km/h
247 16-04-2010 01:13:02 10.3 C 4.02 g/m*3 10.3 C 0 km/h
248 16-04-2010 01:25:02 10.1 C 3.97 g/m*3 10.1 C 0 km/h
249 16-04-2010 01:37:02 10.1 C 4.07 g/m*3 10.1 C 0 km/h
250 16-04-2010 01:49:02 9.6 C 4.21 g/m*3 9.6 C 0 km/h
Sensor: Nr:Datum:Temp:Abs-Feuchte:Windchill:Wind:
Aussen-T/F 251 16-04-2010 02:01:03 9.3 C 4.22 g/m*3 9.3 C 0 km/h
252 16-04-2010 02:13:03 9 C 4.14 g/m*3 9 C 0 km/h
253 16-04-2010 02:25:02 8.7 C 4.32 g/m*3 8.7 C 0 km/h
254 16-04-2010 02:37:02 8.4 C 4.24 g/m*3 8.4 C 0 km/h
255 16-04-2010 02:50:03 8 C 4.22 g/m*3 8 C 0 km/h
256 16-04-2010 03:02:03 7.8 C 4.24 g/m*3 7.8 C 0 km/h
257 16-04-2010 03:14:04 7.7 C 4.3 g/m*3 7.7 C 0 km/h
258 16-04-2010 03:26:04 7.7 C 4.38 g/m*3 7.7 C 0 km/h
259 16-04-2010 03:38:02 7.4 C 4.37 g/m*3 7.4 C 0 km/h
260 16-04-2010 03:50:03 7.2 C 4.4 g/m*3 7.2 C 0 km/h
261 16-04-2010 04:02:02 7.3 C 4.42 g/m*3 7.3 C 0 km/h
262 16-04-2010 04:14:02 7.6 C 4.35 g/m*3 7.6 C 0 km/h
263 16-04-2010 04:26:02 7.6 C 4.27 g/m*3 7.6 C 0 km/h
264 16-04-2010 04:38:03 7.4 C 4.21 g/m*3 7.4 C 0 km/h
265 16-04-2010 04:50:02 7.2 C 4.24 g/m*3 7.2 C 0 km/h
266 16-04-2010 05:02:01 7.1 C 4.21 g/m*3 7.1 C 0 km/h
267 16-04-2010 05:14:01 7.1 C 4.21 g/m*3 7.1 C 0 km/h
268 16-04-2010 05:26:02 6.9 C 4.23 g/m*3 6.9 C 0 km/h
269 16-04-2010 05:38:02 6.8 C 4.28 g/m*3 6.8 C 0 km/h
270 16-04-2010 05:50:02 6.5 C 4.27 g/m*3 6.5 C 0 km/h
271 16-04-2010 06:02:01 6.3 C 4.37 g/m*3 6.3 C 0 km/h
272 16-04-2010 06:14:01 6.3 C 4.37 g/m*3 6.3 C 0 km/h
273 16-04-2010 06:26:01 6.1 C 4.38 g/m*3 6.1 C 0 km/h
274 16-04-2010 06:38:02 5.8 C 4.44 g/m*3 5.8 C 0 km/h
275 16-04-2010 06:50:02 5.9 C 4.69 g/m*3 5.9 C 0 km/h
Sensor: Nr:Datum:Temp:Abs-Feuchte:Windchill:Wind:
Aussen-T/F 276 16-04-2010 07:02:02 5.8 C 4.73 g/m*3 5.8 C 0 km/h
277 16-04-2010 07:14:02 5.8 C 4.8 g/m*3 5.8 C 0 km/h
278 16-04-2010 07:26:02 5.9 C 4.9 g/m*3 5.9 C 0 km/h
279 16-04-2010 07:38:02 6 C 4.94 g/m*3 6 C 0 km/h
280 16-04-2010 07:50:02 5.9 C 4.98 g/m*3 5.9 C 0 km/h
281 16-04-2010 08:02:02 5.8 C 4.94 g/m*3 5.8 C 0 km/h
282 16-04-2010 08:14:02 5.9 C 5.05 g/m*3 5.9 C 0 km/h
283 16-04-2010 08:26:02 5.9 C 5.05 g/m*3 5.9 C 0 km/h
284 16-04-2010 08:38:02 6.1 C 5.04 g/m*3 6.1 C 0 km/h
285 16-04-2010 08:50:01 6.3 C 5.03 g/m*3 6.3 C 0 km/h
286 16-04-2010 09:02:02 6.2 C 5 g/m*3 6.2 C 0 km/h
287 16-04-2010 09:14:02 6.2 C 5 g/m*3 6.2 C 0 km/h
288 16-04-2010 09:26:01 6.2 C 5 g/m*3 6.2 C 0 km/h
289 16-04-2010 09:38:02 6.2 C 5.07 g/m*3 6.2 C 0 km/h
290 16-04-2010 09:50:02 6.8 C 5.2 g/m*3 6.8 C 0 km/h
291 16-04-2010 10:02:02 6.7 C 5.09 g/m*3 6.7 C 0 km/h
292 16-04-2010 10:14:02 6.7 C 5.09 g/m*3 6.7 C 0 km/h
293 16-04-2010 10:26:02 6.7 C 4.94 g/m*3 6.7 C 0 km/h
294 16-04-2010 10:38:02 7.1 C 4.91 g/m*3 7.1 C 0 km/h
295 16-04-2010 10:50:02 7.2 C 4.87 g/m*3 7.2 C 0 km/h
296 16-04-2010 11:02:02 7 C 4.8 g/m*3 7 C 0 km/h
297 16-04-2010 11:14:02 7.5 C 4.88 g/m*3 7.5 C 0 km/h
298 16-04-2010 11:26:02 7.3 C 4.66 g/m*3 7.3 C 0 km/h
299 16-04-2010 11:38:02 7.5 C 4.8 g/m*3 7.5 C 0 km/h
300 16-04-2010 11:50:02 7.6 C 4.59 g/m*3 7.6 C 0 km/h
Sensor: Nr:Datum:Temp:Abs-Feuchte:Windchill:Wind:
Aussen-T/F 301 16-04-2010 12:02:03 8.5 C 4.7 g/m*3 8.5 C 0 km/h
302 16-04-2010 12:14:03 8.8 C 4.61 g/m*3 8.8 C 0 km/h
303 16-04-2010 12:26:02 9 C 4.41 g/m*3 9 C 0 km/h
304 16-04-2010 12:38:02 9.3 C 4.49 g/m*3 9.3 C 0 km/h
305 16-04-2010 12:50:02 9.1 C 4.35 g/m*3 9.1 C 0 km/h
306 16-04-2010 13:02:02 9.8 C 4.36 g/m*3 9.8 C 0 km/h
307 16-04-2010 13:14:02 10.2 C 4.28 g/m*3 10.2 C 0 km/h
308 16-04-2010 13:26:01 10.7 C 4.32 g/m*3 10.7 C 0 km/h
309 16-04-2010 13:38:02 11.2 C 4.16 g/m*3 11.2 C 0 km/h
310 16-04-2010 13:50:02 11.6 C 3.95 g/m*3 11.6 C 0 km/h
311 16-04-2010 14:02:02 12.3 C 3.91 g/m*3 12.3 C 0 km/h
312 16-04-2010 14:14:02 13.3 C 3.7 g/m*3 13.3 C 0 km/h
313 16-04-2010 14:26:02 13.5 C 3.63 g/m*3 13.5 C 0 km/h
314 16-04-2010 14:38:02 14 C 3.62 g/m*3 14 C 0 km/h
315 16-04-2010 14:50:02 14.5 C 3.73 g/m*3 14.5 C 0 km/h
316 16-04-2010 15:02:02 15 C 3.59 g/m*3 15 C 0 km/h
317 16-04-2010 15:14:02 13.9 C 3.48 g/m*3 13.9 C 0 km/h
318 16-04-2010 15:26:02 14.1 C 3.64 g/m*3 14.1 C 0 km/h
319 16-04-2010 15:38:01 15.2 C 3.5 g/m*3 15.2 C 0 km/h
320 16-04-2010 15:50:02 15.3 C 3.4 g/m*3 15.3 C 0 km/h
321 16-04-2010 16:02:01 15 C 3.33 g/m*3 15 C 0 km/h
322 16-04-2010 16:14:01 15.3 C 3.4 g/m*3 15.3 C 0 km/h
323 16-04-2010 16:26:02 14.6 C 3.5 g/m*3 14.6 C 0 km/h
324 16-04-2010 16:38:01 14 C 3.26 g/m*3 14 C 0 km/h
325 16-04-2010 16:50:03 14.1 C 3.4 g/m*3 14.1 C 0 km/h
Sensor: Nr:Datum:Temp:Abs-Feuchte:Windchill:Wind:
Aussen-T/F 326 16-04-2010 17:02:02 14.7 C 3.4 g/m*3 14.7 C 0 km/h
327 16-04-2010 17:14:02 15.3 C 3.4 g/m*3 15.3 C 0 km/h
328 16-04-2010 17:26:02 15.4 C 3.28 g/m*3 15.4 C 0 km/h
329 16-04-2010 17:38:02 15.3 C 3.26 g/m*3 15.3 C 0 km/h
330 16-04-2010 17:50:02 14.7 C 3.27 g/m*3 14.7 C 0 km/h
331 16-04-2010 18:02:02 15.5 C 3.17 g/m*3 15.5 C 0 km/h
332 16-04-2010 18:14:02 15.6 C 3.32 g/m*3 15.6 C 0 km/h
333 16-04-2010 18:26:02 14.6 C 3.25 g/m*3 14.6 C 0 km/h
334 16-04-2010 18:38:02 14.3 C 3.19 g/m*3 14.3 C 0 km/h
335 16-04-2010 18:50:02 14.5 C 3.36 g/m*3 14.5 C 0 km/h
336 16-04-2010 19:02:02 14.5 C 3.23 g/m*3 14.5 C 0 km/h
337 16-04-2010 19:14:02 14.6 C 3.38 g/m*3 14.6 C 0 km/h
338 16-04-2010 19:26:02 13.4 C 3.25 g/m*3 13.4 C 0 km/h
339 16-04-2010 19:38:01 12.9 C 3.38 g/m*3 12.9 C 0 km/h
340 16-04-2010 19:50:02 12.5 C 3.41 g/m*3 12.5 C 0 km/h
341 16-04-2010 20:02:01 12.3 C 3.47 g/m*3 12.3 C 0 km/h
342 16-04-2010 20:14:01 11.7 C 3.56 g/m*3 11.7 C 0 km/h
343 16-04-2010 20:26:02 11.2 C 3.65 g/m*3 11.2 C 0 km/h
344 16-04-2010 20:38:01 10.8 C 3.66 g/m*3 10.8 C 0 km/h
345 16-04-2010 20:50:02 10.5 C 3.69 g/m*3 10.5 C 0 km/h
346 16-04-2010 21:02:01 10.3 C 3.83 g/m*3 10.3 C 0 km/h
347 16-04-2010 21:14:01 9.9 C 3.83 g/m*3 9.9 C 0 km/h
348 16-04-2010 21:26:02 9.6 C 3.85 g/m*3 9.6 C 0 km/h
349 16-04-2010 21:38:01 9.3 C 3.86 g/m*3 9.3 C 0 km/h
350 16-04-2010 21:50:03 9.1 C 3.99 g/m*3 9.1 C 0 km/h
Sensor: Nr:Datum:Temp:Abs-Feuchte:Windchill:Wind:
Aussen-T/F 351 16-04-2010 22:02:02 8.9 C 3.94 g/m*3 8.9 C 0 km/h
352 16-04-2010 22:14:02 8.8 C 3.92 g/m*3 8.8 C 0 km/h
353 16-04-2010 22:26:03 8.5 C 4.1 g/m*3 8.5 C 0 km/h
354 16-04-2010 22:38:02 8.2 C 4.02 g/m*3 8.2 C 0 km/h
355 16-04-2010 22:50:03 8.1 C 4.08 g/m*3 8.1 C 0 km/h
356 16-04-2010 23:03:02 7.9 C 4.11 g/m*3 7.9 C 0 km/h
357 16-04-2010 23:15:02 7.7 C 4.14 g/m*3 7.7 C 0 km/h
358 16-04-2010 23:27:02 7.6 C 4.19 g/m*3 7.6 C 0 km/h
359 16-04-2010 23:39:02 7.4 C 4.14 g/m*3 7.4 C 0 km/h
360 16-04-2010 23:51:02 7.1 C 4.13 g/m*3 7.1 C 0 km/h
361 17-04-2010 00:03:02 7 C 4.18 g/m*3 7 C 0 km/h
362 17-04-2010 00:15:02 6.7 C 4.26 g/m*3 6.7 C 0 km/h
363 17-04-2010 00:27:02 6.5 C 4.27 g/m*3 6.5 C 0 km/h
364 17-04-2010 00:39:02 6.4 C 4.25 g/m*3 6.4 C 0 km/h
365 17-04-2010 00:51:02 6.2 C 4.19 g/m*3 6.2 C 0 km/h
366 17-04-2010 01:03:02 6.1 C 4.16 g/m*3 6.1 C 0 km/h
367 17-04-2010 01:15:02 5.9 C 4.33 g/m*3 5.9 C 0 km/h
368 17-04-2010 01:27:02 5.7 C 4.27 g/m*3 5.7 C 0 km/h
369 17-04-2010 01:39:02 5.5 C 4.28 g/m*3 5.5 C 0 km/h
370 17-04-2010 01:51:02 5.4 C 4.33 g/m*3 5.4 C 0 km/h
371 17-04-2010 02:03:02 5.2 C 4.34 g/m*3 5.2 C 0 km/h
372 17-04-2010 02:15:02 5.1 C 4.24 g/m*3 5.1 C 0 km/h
373 17-04-2010 02:27:02 5 C 4.28 g/m*3 5 C 0 km/h
374 17-04-2010 02:39:02 4.7 C 4.33 g/m*3 4.7 C 0 km/h
375 17-04-2010 02:51:03 4.5 C 4.27 g/m*3 4.5 C 0 km/h
Sensor: Nr:Datum:Temp:Abs-Feuchte:Windchill:Wind:
Aussen-T/F 376 17-04-2010 03:03:03 4.4 C 4.31 g/m*3 4.4 C 0 km/h
377 17-04-2010 03:15:03 4.2 C 4.25 g/m*3 4.2 C 0 km/h
378 17-04-2010 03:27:03 4.2 C 4.25 g/m*3 4.2 C 0 km/h
379 17-04-2010 03:39:03 3.7 C 4.18 g/m*3 3.7 C 0 km/h
380 17-04-2010 03:51:03 3.6 C 4.27 g/m*3 3.6 C 0 km/h
381 17-04-2010 04:03:03 3.6 C 4.27 g/m*3 3.6 C 0 km/h
382 17-04-2010 04:15:03 3.4 C 4.34 g/m*3 3.4 C 0 km/h
383 17-04-2010 04:27:03 3.2 C 4.34 g/m*3 3.2 C 0 km/h
384 17-04-2010 04:39:03 3 C 4.34 g/m*3 3 C 0 km/h
385 17-04-2010 04:51:03 2.8 C 4.28 g/m*3 2.8 C 0 km/h
386 17-04-2010 05:03:03 2.6 C 4.28 g/m*3 2.6 C 0 km/h
387 17-04-2010 05:15:03 2.5 C 4.25 g/m*3 2.5 C 0 km/h
388 17-04-2010 05:27:03 2.4 C 4.28 g/m*3 2.4 C 0 km/h
389 17-04-2010 05:39:03 2.2 C 4.28 g/m*3 2.2 C 0 km/h
390 17-04-2010 05:51:03 2.1 C 4.31 g/m*3 2.1 C 0 km/h
391 17-04-2010 06:03:03 1.9 C 4.3 g/m*3 1.9 C 0 km/h
392 17-04-2010 06:15:03 1.8 C 4.28 g/m*3 1.8 C 0 km/h
393 17-04-2010 06:27:03 1.9 C 4.3 g/m*3 1.9 C 0 km/h
394 17-04-2010 06:39:03 1.6 C 4.22 g/m*3 1.6 C 0 km/h
395 17-04-2010 06:51:04 1.5 C 4.19 g/m*3 1.5 C 0 km/h
396 17-04-2010 07:03:04 1.5 C 4.24 g/m*3 1.5 C 0 km/h
397 17-04-2010 07:15:04 1.5 C 4.24 g/m*3 1.5 C 0 km/h
398 17-04-2010 07:27:04 1.6 C 4.27 g/m*3 1.6 C 0 km/h
399 17-04-2010 07:39:04 1.6 C 4.33 g/m*3 1.6 C 0 km/h
400 17-04-2010 07:51:04 1.7 C 4.36 g/m*3 1.7 C 0 km/h
Sensor: Nr:Datum:Temp:Abs-Feuchte:Windchill:Wind:
Aussen-T/F 401 17-04-2010 08:03:04 1.9 C 4.42 g/m*3 1.9 C 0 km/h
402 17-04-2010 08:15:03 2.2 C 4.51 g/m*3 2.2 C 0 km/h
403 17-04-2010 08:27:03 2.5 C 4.6 g/m*3 2.5 C 0 km/h
404 17-04-2010 08:39:02 2.7 C 4.66 g/m*3 2.7 C 0 km/h
405 17-04-2010 08:51:04 3 C 4.7 g/m*3 3 C 0 km/h
406 17-04-2010 09:03:03 3.3 C 4.73 g/m*3 3.3 C 0 km/h
407 17-04-2010 09:15:04 3.7 C 4.8 g/m*3 3.7 C 0 km/h
408 17-04-2010 09:27:04 4.4 C 4.9 g/m*3 4.4 C 0 km/h
409 17-04-2010 09:39:03 5.1 C 4.92 g/m*3 5.1 C 0 km/h
410 17-04-2010 09:51:01 5.6 C 4.88 g/m*3 5.6 C 0 km/h
411 17-04-2010 10:03:01 6.7 C 4.94 g/m*3 6.7 C 0 km/h
412 17-04-2010 10:15:02 7 C 4.57 g/m*3 7 C 0 km/h
413 17-04-2010 10:27:02 7.5 C 4.4 g/m*3 7.5 C 0 km/h
414 17-04-2010 10:39:01 8.1 C 3.99 g/m*3 8.1 C 0 km/h
415 17-04-2010 10:51:01 8.6 C 3.87 g/m*3 8.6 C 0 km/h
416 17-04-2010 11:03:02 9.3 C 3.86 g/m*3 9.3 C 0 km/h
417 17-04-2010 11:15:01 10 C 3.66 g/m*3 10 C 0 km/h
418 17-04-2010 11:27:01 10.1 C 3.22 g/m*3 10.1 C 0 km/h
419 17-04-2010 11:39:01 10.5 C 3.39 g/m*3 10.5 C 0 km/h
420 17-04-2010 11:51:01 11 C 3.2 g/m*3 11 C 0 km/h
421 17-04-2010 12:03:02 11.2 C 3.24 g/m*3 11.2 C 0 km/h
422 17-04-2010 12:15:02 12 C 3.09 g/m*3 12 C 0 km/h
423 17-04-2010 12:27:02 12.5 C 2.97 g/m*3 12.5 C 0 km/h
424 17-04-2010 12:39:01 12.7 C 2.89 g/m*3 12.7 C 0 km/h
425 17-04-2010 12:51:01 12.6 C 2.77 g/m*3 12.6 C 0 km/h
Sensor: Nr:Datum:Temp:Abs-Feuchte:Windchill:Wind:
Aussen-T/F 426 17-04-2010 13:03:02 13.2 C 2.3 g/m*3 13.2 C 0 km/h
427 17-04-2010 13:15:02 13.9 C 2.4 g/m*3 13.9 C 0 km/h
428 17-04-2010 13:27:02 14.8 C 2.53 g/m*3 14.8 C 0 km/h
429 17-04-2010 13:39:01 15.5 C 2.64 g/m*3 15.5 C 0 km/h
430 17-04-2010 13:51:01 15.6 C 2.66 g/m*3 15.6 C 0 km/h
431 17-04-2010 14:03:02 16.4 C 2.79 g/m*3 16.4 C 0 km/h
432 17-04-2010 14:15:02 17 C 2.89 g/m*3 17 C 0 km/h
433 17-04-2010 14:27:02 17.6 C 3 g/m*3 17.6 C 0 km/h
434 17-04-2010 14:39:01 18.4 C 3.15 g/m*3 18.4 C 0 km/h
435 17-04-2010 14:51:01 19.4 C 3.34 g/m*3 19.4 C 0 km/h
436 17-04-2010 15:03:02 20 C 3.46 g/m*3 20 C 0 km/h
437 17-04-2010 15:15:02 20.8 C 3.62 g/m*3 20.8 C 0 km/h
438 17-04-2010 15:27:02 21 C 3.66 g/m*3 21 C 0 km/h
439 17-04-2010 15:39:01 21.9 C 3.86 g/m*3 21.9 C 0 km/h
440 17-04-2010 15:51:01 22.2 C 3.93 g/m*3 22.2 C 0 km/h
441 17-04-2010 16:03:02 20.9 C 3.64 g/m*3 20.9 C 0 km/h
442 17-04-2010 16:15:02 21 C 3.66 g/m*3 21 C 0 km/h
443 17-04-2010 16:27:02 22.2 C 3.93 g/m*3 22.2 C 0 km/h
444 17-04-2010 16:39:01 23.3 C 4.18 g/m*3 23.3 C 0 km/h
445 17-04-2010 16:51:01 23.5 C 4.23 g/m*3 23.5 C 0 km/h
446 17-04-2010 17:03:02 23.9 C 4.33 g/m*3 23.9 C 0 km/h
447 17-04-2010 17:15:02 24.1 C 4.38 g/m*3 24.1 C 0 km/h
448 17-04-2010 17:27:02 24.8 C 4.55 g/m*3 24.8 C 0 km/h
449 17-04-2010 17:39:02 23.4 C 4.21 g/m*3 23.4 C 0 km/h
450 17-04-2010 17:51:01 23.6 C 4.25 g/m*3 23.6 C 0 km/h
Sensor: Nr:Datum:Temp:Abs-Feuchte:Windchill:Wind:
Aussen-T/F 451 17-04-2010 18:03:02 24.1 C 4.38 g/m*3 24.1 C 0 km/h
452 17-04-2010 18:15:02 24.8 C 4.55 g/m*3 24.8 C 0 km/h
453 17-04-2010 18:27:02 24.1 C 4.38 g/m*3 24.1 C 0 km/h
454 17-04-2010 18:39:02 24.6 C 4.5 g/m*3 24.6 C 0 km/h
455 17-04-2010 18:51:01 24.5 C 4.48 g/m*3 24.5 C 0 km/h
456 17-04-2010 19:03:02 24.2 C 4.4 g/m*3 24.2 C 0 km/h
457 17-04-2010 19:15:02 24 C 4.35 g/m*3 24 C 0 km/h
458 17-04-2010 19:27:02 23 C 4.11 g/m*3 23 C 0 km/h
459 17-04-2010 19:39:02 22.3 C 3.95 g/m*3 22.3 C 0 km/h
460 17-04-2010 19:51:01 21.6 C 3.79 g/m*3 21.6 C 0 km/h
461 17-04-2010 20:03:02 20.1 C 3.48 g/m*3 20.1 C 0 km/h
462 17-04-2010 20:15:02 18.6 C 3.18 g/m*3 18.6 C 0 km/h
463 17-04-2010 20:27:02 17.1 C 2.91 g/m*3 17.1 C 0 km/h
464 17-04-2010 20:39:01 16.2 C 2.76 g/m*3 16.2 C 0 km/h
465 17-04-2010 20:51:01 15.2 C 2.73 g/m*3 15.2 C 0 km/h
466 17-04-2010 21:03:02 14.5 C 3.11 g/m*3 14.5 C 0 km/h
467 17-04-2010 21:15:02 13.7 C 3.08 g/m*3 13.7 C 0 km/h
468 17-04-2010 21:27:02 13.5 C 3.16 g/m*3 13.5 C 0 km/h
469 17-04-2010 21:39:01 13.2 C 3.1 g/m*3 13.2 C 0 km/h
470 17-04-2010 21:51:02 12.9 C 3.27 g/m*3 12.9 C 0 km/h
471 17-04-2010 22:03:01 12.4 C 3.17 g/m*3 12.4 C 0 km/h
472 17-04-2010 22:15:02 11.8 C 3.26 g/m*3 11.8 C 0 km/h
473 17-04-2010 22:27:02 11.9 C 3.28 g/m*3 11.9 C 0 km/h
474 17-04-2010 22:39:02 11.7 C 3.35 g/m*3 11.7 C 0 km/h
475 17-04-2010 22:51:02 11.2 C 3.45 g/m*3 11.2 C 0 km/h
Sensor: Nr:Datum:Temp:Abs-Feuchte:Windchill:Wind:
Aussen-T/F 476 17-04-2010 23:04:02 10.8 C 3.66 g/m*3 10.8 C 0 km/h
477 17-04-2010 23:16:02 10.4 C 3.66 g/m*3 10.4 C 0 km/h
478 17-04-2010 23:28:02 10.2 C 3.52 g/m*3 10.2 C 0 km/h
479 17-04-2010 23:40:02 9.6 C 3.57 g/m*3 9.6 C 0 km/h
480 17-04-2010 23:52:02 9.5 C 3.64 g/m*3 9.5 C 0 km/h
481 18-04-2010 00:04:02 9.2 C 3.57 g/m*3 9.2 C 0 km/h
482 18-04-2010 00:16:02 9 C 3.61 g/m*3 9 C 0 km/h
483 18-04-2010 00:28:02 8.9 C 3.68 g/m*3 8.9 C 0 km/h
484 18-04-2010 00:40:02 8.7 C 3.63 g/m*3 8.7 C 0 km/h
485 18-04-2010 00:52:03 8.3 C 3.54 g/m*3 8.3 C 0 km/h
486 18-04-2010 01:04:03 8.1 C 3.66 g/m*3 8.1 C 0 km/h
487 18-04-2010 01:16:03 7.8 C 3.67 g/m*3 7.8 C 0 km/h
488 18-04-2010 01:28:03 7.5 C 3.92 g/m*3 7.5 C 0 km/h
489 18-04-2010 01:40:03 7.2 C 3.92 g/m*3 7.2 C 0 km/h
490 18-04-2010 01:52:03 7.1 C 3.82 g/m*3 7.1 C 0 km/h
491 18-04-2010 02:04:03 7 C 3.8 g/m*3 7 C 0 km/h
492 18-04-2010 02:16:03 6.8 C 3.82 g/m*3 6.8 C 0 km/h
493 18-04-2010 02:28:03 6.6 C 3.85 g/m*3 6.6 C 0 km/h
494 18-04-2010 02:40:03 6.3 C 3.85 g/m*3 6.3 C 0 km/h
495 18-04-2010 02:52:03 6 C 3.85 g/m*3 6 C 0 km/h
496 18-04-2010 03:04:03 5.9 C 3.97 g/m*3 5.9 C 0 km/h
497 18-04-2010 03:16:03 5.6 C 3.89 g/m*3 5.6 C 0 km/h
498 18-04-2010 03:28:03 5.2 C 3.86 g/m*3 5.2 C 0 km/h
499 18-04-2010 03:40:03 5.3 C 4.02 g/m*3 5.3 C 0 km/h
500 18-04-2010 03:52:03 5.1 C 3.97 g/m*3 5.1 C 0 km/h
Sensor: Nr:Datum:Temp:Abs-Feuchte:Windchill:Wind:
Aussen-T/F 501 18-04-2010 04:04:03 5 C 3.94 g/m*3 5 C 0 km/h
502 18-04-2010 04:16:03 4.8 C 4.02 g/m*3 4.8 C 0 km/h
503 18-04-2010 04:28:03 4.5 C 4.08 g/m*3 4.5 C 0 km/h
504 18-04-2010 04:40:03 4.3 C 4.09 g/m*3 4.3 C 0 km/h
505 18-04-2010 04:52:03 4.2 C 4.06 g/m*3 4.2 C 0 km/h
506 18-04-2010 05:04:04 3.9 C 4.11 g/m*3 3.9 C 0 km/h
507 18-04-2010 05:16:04 3.8 C 4.08 g/m*3 3.8 C 0 km/h
508 18-04-2010 05:28:04 3.8 C 4.08 g/m*3 3.8 C 0 km/h
509 18-04-2010 05:40:04 3.6 C 4.09 g/m*3 3.6 C 0 km/h
510 18-04-2010 05:52:04 3.4 C 4.03 g/m*3 3.4 C 0 km/h
511 18-04-2010 06:04:04 3.3 C 4.06 g/m*3 3.3 C 0 km/h
512 18-04-2010 06:16:04 3.1 C 4.07 g/m*3 3.1 C 0 km/h
513 18-04-2010 06:28:04 3 C 4.04 g/m*3 3 C 0 km/h
514 18-04-2010 06:40:04 2.9 C 4.07 g/m*3 2.9 C 0 km/h
515 18-04-2010 06:52:04 2.8 C 4.11 g/m*3 2.8 C 0 km/h
516 18-04-2010 07:04:04 2.7 C 4.14 g/m*3 2.7 C 0 km/h
517 18-04-2010 07:16:04 2.6 C 4.17 g/m*3 2.6 C 0 km/h
518 18-04-2010 07:28:04 2.6 C 4.22 g/m*3 2.6 C 0 km/h
519 18-04-2010 07:40:04 2.6 C 4.17 g/m*3 2.6 C 0 km/h
520 18-04-2010 07:52:04 2.8 C 4.22 g/m*3 2.8 C 0 km/h
521 18-04-2010 08:04:02 3.1 C 4.25 g/m*3 3.1 C 0 km/h
522 18-04-2010 08:16:02 3.4 C 4.34 g/m*3 3.4 C 0 km/h
523 18-04-2010 08:28:02 3.7 C 4.36 g/m*3 3.7 C 0 km/h
524 18-04-2010 08:40:02 4 C 4.26 g/m*3 4 C 0 km/h
525 18-04-2010 08:52:01 4.3 C 4.35 g/m*3 4.3 C 0 km/h
Sensor: Nr:Datum:Temp:Abs-Feuchte:Windchill:Wind:
Aussen-T/F 526 18-04-2010 09:04:02 4.6 C 4.37 g/m*3 4.6 C 0 km/h
527 18-04-2010 09:16:01 5.1 C 4.38 g/m*3 5.1 C 0 km/h
528 18-04-2010 09:28:01 5.7 C 4.48 g/m*3 5.7 C 0 km/h
529 18-04-2010 09:40:02 6.3 C 4.52 g/m*3 6.3 C 0 km/h
530 18-04-2010 09:52:02 7.2 C 4.47 g/m*3 7.2 C 0 km/h
531 18-04-2010 10:04:02 7.9 C 4.44 g/m*3 7.9 C 0 km/h
532 18-04-2010 10:16:02 8.5 C 4.27 g/m*3 8.5 C 0 km/h
533 18-04-2010 10:28:02 9.2 C 4.29 g/m*3 9.2 C 0 km/h
534 18-04-2010 10:40:02 9.7 C 4.15 g/m*3 9.7 C 0 km/h
535 18-04-2010 10:52:02 10.7 C 4.32 g/m*3 10.7 C 0 km/h
536 18-04-2010 11:04:02 11.5 C 4.23 g/m*3 11.5 C 0 km/h
537 18-04-2010 11:16:02 12.4 C 4.37 g/m*3 12.4 C 0 km/h
538 18-04-2010 11:28:02 13.4 C 4.42 g/m*3 13.4 C 0 km/h
539 18-04-2010 11:40:02 14 C 4.34 g/m*3 14 C 0 km/h
540 18-04-2010 11:52:02 15 C 4.36 g/m*3 15 C 0 km/h
541 18-04-2010 12:04:02 15.5 C 4.23 g/m*3 15.5 C 0 km/h
542 18-04-2010 12:16:01 16.1 C 4.11 g/m*3 16.1 C 0 km/h
543 18-04-2010 12:28:01 16.6 C 3.67 g/m*3 16.6 C 0 km/h
544 18-04-2010 12:40:02 17 C 2.89 g/m*3 17 C 0 km/h
545 18-04-2010 12:52:02 17.2 C 2.93 g/m*3 17.2 C 0 km/h
546 18-04-2010 13:04:02 18 C 3.07 g/m*3 18 C 0 km/h
547 18-04-2010 13:16:02 18.5 C 3.16 g/m*3 18.5 C 0 km/h
548 18-04-2010 13:28:02 19.5 C 3.36 g/m*3 19.5 C 0 km/h
549 18-04-2010 13:40:02 19.7 C 3.4 g/m*3 19.7 C 0 km/h
550 18-04-2010 13:52:01 20.6 C 3.58 g/m*3 20.6 C 0 km/h
Sensor: Nr:Datum:Temp:Abs-Feuchte:Windchill:Wind:
Aussen-T/F 551 18-04-2010 14:04:02 20.1 C 3.48 g/m*3 20.1 C 0 km/h
552 18-04-2010 14:16:01 21 C 3.66 g/m*3 21 C 0 km/h
553 18-04-2010 14:28:01 22.2 C 3.93 g/m*3 22.2 C 0 km/h
554 18-04-2010 14:40:02 22 C 3.88 g/m*3 22 C 0 km/h
555 18-04-2010 14:52:02 22.7 C 4.04 g/m*3 22.7 C 0 km/h
556 18-04-2010 15:04:01 23.1 C 4.13 g/m*3 23.1 C 0 km/h
557 18-04-2010 15:16:02 23.5 C 4.23 g/m*3 23.5 C 0 km/h
558 18-04-2010 15:28:02 23.6 C 4.25 g/m*3 23.6 C 0 km/h
559 18-04-2010 15:40:02 23.3 C 4.18 g/m*3 23.3 C 0 km/h
560 18-04-2010 15:52:01 22.9 C 4.09 g/m*3 22.9 C 0 km/h
561 18-04-2010 16:04:02 24 C 4.35 g/m*3 24 C 0 km/h
562 18-04-2010 16:16:01 23.7 C 4.28 g/m*3 23.7 C 0 km/h
563 18-04-2010 16:28:01 24.6 C 4.5 g/m*3 24.6 C 0 km/h
564 18-04-2010 16:40:02 24.7 C 4.53 g/m*3 24.7 C 0 km/h
565 18-04-2010 16:52:02 25.1 C 4.63 g/m*3 25.1 C 0 km/h
566 18-04-2010 17:04:02 26 C 4.87 g/m*3 26 C 0 km/h
567 18-04-2010 17:16:02 26.9 C 5.12 g/m*3 26.9 C 0 km/h
568 18-04-2010 17:28:02 25.9 C 4.84 g/m*3 25.9 C 0 km/h
569 18-04-2010 17:40:02 25.1 C 4.63 g/m*3 25.1 C 0 km/h
570 18-04-2010 17:52:02 24.9 C 4.58 g/m*3 24.9 C 0 km/h
571 18-04-2010 18:04:01 25.9 C 4.84 g/m*3 25.9 C 0 km/h
572 18-04-2010 18:16:01 25.9 C 4.84 g/m*3 25.9 C 0 km/h
573 18-04-2010 18:28:01 25 C 4.6 g/m*3 25 C 0 km/h
574 18-04-2010 18:40:02 25.5 C 4.73 g/m*3 25.5 C 0 km/h
575 18-04-2010 18:52:02 24.8 C 4.55 g/m*3 24.8 C 0 km/h
Sensor: Nr:Datum:Temp:Abs-Feuchte:Windchill:Wind:
Aussen-T/F 576 18-04-2010 19:04:02 24.5 C 4.48 g/m*3 24.5 C 0 km/h
577 18-04-2010 19:16:02 24.1 C 4.38 g/m*3 24.1 C 0 km/h
578 18-04-2010 19:28:02 24.6 C 4.5 g/m*3 24.6 C 0 km/h
579 18-04-2010 19:40:02 24.1 C 4.38 g/m*3 24.1 C 0 km/h
580 18-04-2010 19:52:02 22.7 C 4.04 g/m*3 22.7 C 0 km/h
581 18-04-2010 20:04:02 21.1 C 3.69 g/m*3 21.1 C 0 km/h
582 18-04-2010 20:16:01 20 C 3.46 g/m*3 20 C 0 km/h
583 18-04-2010 20:28:01 19.1 C 3.28 g/m*3 19.1 C 0 km/h
584 18-04-2010 20:40:02 18.3 C 3.13 g/m*3 18.3 C 0 km/h
585 18-04-2010 20:52:02 18.1 C 3.09 g/m*3 18.1 C 0 km/h
586 18-04-2010 21:04:02 17.8 C 3.04 g/m*3 17.8 C 0 km/h
587 18-04-2010 21:16:02 17.5 C 2.98 g/m*3 17.5 C 0 km/h
588 18-04-2010 21:28:02 17.2 C 2.93 g/m*3 17.2 C 0 km/h
589 18-04-2010 21:40:02 16.7 C 2.84 g/m*3 16.7 C 0 km/h
590 18-04-2010 21:52:01 16.4 C 2.79 g/m*3 16.4 C 0 km/h
591 18-04-2010 22:04:01 15.7 C 2.68 g/m*3 15.7 C 0 km/h
592 18-04-2010 22:17:03 15.5 C 2.64 g/m*3 15.5 C 0 km/h
593 18-04-2010 22:29:03 15 C 2.82 g/m*3 15 C 0 km/h
594 18-04-2010 22:41:03 14.5 C 3.23 g/m*3 14.5 C 0 km/h
595 18-04-2010 22:53:03 14.1 C 3.16 g/m*3 14.1 C 0 km/h
596 18-04-2010 23:05:03 13.9 C 3.12 g/m*3 13.9 C 0 km/h
597 18-04-2010 23:17:03 13.4 C 3.14 g/m*3 13.4 C 0 km/h
598 18-04-2010 23:29:03 12.7 C 3.45 g/m*3 12.7 C 0 km/h
599 18-04-2010 23:41:03 12.3 C 3.58 g/m*3 12.3 C 0 km/h
600 18-04-2010 23:53:03 12.1 C 3.65 g/m*3 12.1 C 0 km/h
Sensor: Nr:Datum:Temp:Abs-Feuchte:Windchill:Wind:
Aussen-T/F 601 19-04-2010 00:05:03 11.7 C 3.87 g/m*3 11.7 C 0 km/h
602 19-04-2010 00:17:03 11.3 C 4.08 g/m*3 11.3 C 0 km/h
603 19-04-2010 00:29:03 10.9 C 4.18 g/m*3 10.9 C 0 km/h
604 19-04-2010 00:41:03 10.7 C 4.13 g/m*3 10.7 C 0 km/h
605 19-04-2010 00:53:04 10.7 C 4.13 g/m*3 10.7 C 0 km/h
606 19-04-2010 01:05:04 10.6 C 4 g/m*3 10.6 C 0 km/h
607 19-04-2010 01:17:04 10.3 C 3.83 g/m*3 10.3 C 0 km/h
608 19-04-2010 01:29:04 10.2 C 3.81 g/m*3 10.2 C 0 km/h
609 19-04-2010 01:41:04 10.1 C 3.88 g/m*3 10.1 C 0 km/h
610 19-04-2010 01:53:04 9.8 C 3.9 g/m*3 9.8 C 0 km/h
611 19-04-2010 02:05:04 9.4 C 4.07 g/m*3 9.4 C 0 km/h
612 19-04-2010 02:17:04 9 C 4.06 g/m*3 9 C 0 km/h
613 19-04-2010 02:29:04 8.9 C 4.03 g/m*3 8.9 C 0 km/h
614 19-04-2010 02:41:04 8.6 C 4.12 g/m*3 8.6 C 0 km/h
615 19-04-2010 02:53:04 8.5 C 4.1 g/m*3 8.5 C 0 km/h
616 19-04-2010 03:05:04 8.4 C 4.07 g/m*3 8.4 C 0 km/h
617 19-04-2010 03:17:04 8 C 4.22 g/m*3 8 C 0 km/h
618 19-04-2010 03:29:04 8 C 4.22 g/m*3 8 C 0 km/h
619 19-04-2010 03:41:04 7.8 C 4.33 g/m*3 7.8 C 0 km/h
620 19-04-2010 03:53:04 7.5 C 4.32 g/m*3 7.5 C 0 km/h
621 19-04-2010 04:05:04 7.4 C 4.29 g/m*3 7.4 C 0 km/h
622 19-04-2010 04:17:04 7.3 C 4.35 g/m*3 7.3 C 0 km/h
623 19-04-2010 04:29:04 7 C 4.34 g/m*3 7 C 0 km/h
624 19-04-2010 04:41:04 6.8 C 4.36 g/m*3 6.8 C 0 km/h
625 19-04-2010 04:53:05 6.6 C 4.38 g/m*3 6.6 C 0 km/h
Sensor: Nr:Datum:Temp:Abs-Feuchte:Windchill:Wind:
Aussen-T/F 626 19-04-2010 05:05:05 6.6 C 4.45 g/m*3 6.6 C 0 km/h
627 19-04-2010 05:17:05 6.8 C 4.59 g/m*3 6.8 C 0 km/h
628 19-04-2010 05:29:05 6.2 C 4.49 g/m*3 6.2 C 0 km/h
629 19-04-2010 05:41:05 5.9 C 4.54 g/m*3 5.9 C 0 km/h
630 19-04-2010 05:53:05 5.8 C 4.58 g/m*3 5.8 C 0 km/h
631 19-04-2010 06:05:05 5.7 C 4.55 g/m*3 5.7 C 0 km/h
632 19-04-2010 06:17:05 5.4 C 4.54 g/m*3 5.4 C 0 km/h
633 19-04-2010 06:29:05 5.2 C 4.54 g/m*3 5.2 C 0 km/h
634 19-04-2010 06:41:05 5.1 C 4.65 g/m*3 5.1 C 0 km/h
635 19-04-2010 06:53:05 5 C 4.62 g/m*3 5 C 0 km/h
636 19-04-2010 07:05:02 5 C 4.62 g/m*3 5 C 0 km/h
637 19-04-2010 07:17:02 4.8 C 4.63 g/m*3 4.8 C 0 km/h
638 19-04-2010 07:29:02 4.9 C 4.73 g/m*3 4.9 C 0 km/h
639 19-04-2010 07:41:02 5.2 C 4.75 g/m*3 5.2 C 0 km/h
640 19-04-2010 07:53:02 5.4 C 4.81 g/m*3 5.4 C 0 km/h
641 19-04-2010 08:05:02 5.7 C 4.77 g/m*3 5.7 C 0 km/h
642 19-04-2010 08:17:02 6 C 4.79 g/m*3 6 C 0 km/h
643 19-04-2010 08:29:02 6.2 C 4.78 g/m*3 6.2 C 0 km/h
644 19-04-2010 08:41:02 6.6 C 4.91 g/m*3 6.6 C 0 km/h
645 19-04-2010 08:53:01 7.5 C 5.36 g/m*3 7.5 C 0 km/h
646 19-04-2010 09:05:02 8.4 C 5.77 g/m*3 8.4 C 0 km/h
647 19-04-2010 09:17:01 8.8 C 5.83 g/m*3 8.8 C 0 km/h
648 19-04-2010 09:29:01 9.1 C 5.77 g/m*3 9.1 C 0 km/h
649 19-04-2010 09:41:02 9.4 C 5.79 g/m*3 9.4 C 0 km/h
650 19-04-2010 09:53:02 9.7 C 5.81 g/m*3 9.7 C 0 km/h
Sensor: Nr:Datum:Temp:Abs-Feuchte:Windchill:Wind:
Aussen-T/F 651 19-04-2010 10:05:02 10.1 C 5.77 g/m*3 10.1 C 0 km/h
652 19-04-2010 10:17:01 10.4 C 5.78 g/m*3 10.4 C 0 km/h
653 19-04-2010 10:29:01 10.7 C 5.7 g/m*3 10.7 C 0 km/h
654 19-04-2010 10:41:02 11.2 C 5.68 g/m*3 11.2 C 0 km/h
655 19-04-2010 10:53:02 11.2 C 5.68 g/m*3 11.2 C 0 km/h
656 19-04-2010 11:05:02 11.6 C 5.82 g/m*3 11.6 C 0 km/h
657 19-04-2010 11:17:02 12.2 C 5.72 g/m*3 12.2 C 0 km/h
658 19-04-2010 11:29:02 12.5 C 5.72 g/m*3 12.5 C 0 km/h
659 19-04-2010 11:41:02 12.9 C 5.75 g/m*3 12.9 C 0 km/h
660 19-04-2010 11:53:02 12.7 C 5.57 g/m*3 12.7 C 0 km/h
661 19-04-2010 12:05:02 13 C 5.67 g/m*3 13 C 0 km/h
662 19-04-2010 12:17:02 13.1 C 5.48 g/m*3 13.1 C 0 km/h
663 19-04-2010 12:29:02 13.6 C 5.65 g/m*3 13.6 C 0 km/h
664 19-04-2010 12:41:02 13.6 C 5.65 g/m*3 13.6 C 0 km/h
665 19-04-2010 12:53:01 13.8 C 5.6 g/m*3 13.8 C 0 km/h
666 19-04-2010 13:05:02 13.6 C 5.53 g/m*3 13.6 C 0 km/h
667 19-04-2010 13:17:01 13.9 C 5.63 g/m*3 13.9 C 0 km/h
668 19-04-2010 13:29:01 14 C 5.55 g/m*3 14 C 0 km/h
669 19-04-2010 13:41:01 14.3 C 5.41 g/m*3 14.3 C 0 km/h
670 19-04-2010 13:53:01 14.2 C 5.37 g/m*3 14.2 C 0 km/h
671 19-04-2010 14:05:02 14.8 C 5.57 g/m*3 14.8 C 0 km/h
672 19-04-2010 14:17:01 14.8 C 5.19 g/m*3 14.8 C 0 km/h
673 19-04-2010 14:29:01 15.6 C 5.45 g/m*3 15.6 C 0 km/h
674 19-04-2010 14:41:02 16.6 C 5.51 g/m*3 16.6 C 0 km/h
675 19-04-2010 14:53:02 16.2 C 5.24 g/m*3 16.2 C 0 km/h
Sensor: Nr:Datum:Temp:Abs-Feuchte:Windchill:Wind:
Aussen-T/F 676 19-04-2010 15:05:02 15.3 C 5.22 g/m*3 15.3 C 0 km/h
677 19-04-2010 15:17:01 15.2 C 5.19 g/m*3 15.2 C 0 km/h
678 19-04-2010 15:29:01 15.9 C 5.28 g/m*3 15.9 C 0 km/h
679 19-04-2010 15:41:02 16.5 C 5.2 g/m*3 16.5 C 0 km/h
680 19-04-2010 15:53:02 16 C 5.04 g/m*3 16 C 0 km/h
681 19-04-2010 16:05:02 15.8 C 5.25 g/m*3 15.8 C 0 km/h
682 19-04-2010 16:17:01 15.6 C 5.19 g/m*3 15.6 C 0 km/h
683 19-04-2010 16:29:01 16.5 C 5.34 g/m*3 16.5 C 0 km/h
684 19-04-2010 16:41:02 16.2 C 5.1 g/m*3 16.2 C 0 km/h
685 19-04-2010 16:53:02 16.9 C 5.18 g/m*3 16.9 C 0 km/h
686 19-04-2010 17:05:02 16.4 C 5.02 g/m*3 16.4 C 0 km/h
687 19-04-2010 17:17:01 16.3 C 5.13 g/m*3 16.3 C 0 km/h
688 19-04-2010 17:29:01 16.9 C 5.32 g/m*3 16.9 C 0 km/h
689 19-04-2010 17:41:02 16.9 C 5.18 g/m*3 16.9 C 0 km/h
690 19-04-2010 17:53:02 16.7 C 5.12 g/m*3 16.7 C 0 km/h
691 19-04-2010 18:05:02 16.4 C 5.02 g/m*3 16.4 C 0 km/h
692 19-04-2010 18:17:02 16.5 C 4.77 g/m*3 16.5 C 0 km/h
693 19-04-2010 18:29:02 16.1 C 4.8 g/m*3 16.1 C 0 km/h
694 19-04-2010 18:41:02 16.1 C 4.93 g/m*3 16.1 C 0 km/h
695 19-04-2010 18:53:02 16.2 C 4.83 g/m*3 16.2 C 0 km/h
696 19-04-2010 19:05:02 16.4 C 5.02 g/m*3 16.4 C 0 km/h
697 19-04-2010 19:17:02 15.3 C 4.96 g/m*3 15.3 C 0 km/h
698 19-04-2010 19:29:02 15 C 5.13 g/m*3 15 C 0 km/h
699 19-04-2010 19:41:02 14.8 C 5.19 g/m*3 14.8 C 0 km/h
700 19-04-2010 19:53:01 14.3 C 5.16 g/m*3 14.3 C 0 km/h
Sensor: Nr:Datum:Temp:Abs-Feuchte:Windchill:Wind:
Aussen-T/F 701 19-04-2010 20:05:02 13.9 C 5.39 g/m*3 13.9 C 0 km/h
702 19-04-2010 20:17:02 13.3 C 5.31 g/m*3 13.3 C 0 km/h
703 19-04-2010 20:29:02 13 C 5.33 g/m*3 13 C 0 km/h
704 19-04-2010 20:41:02 12.6 C 5.42 g/m*3 12.6 C 0 km/h
705 19-04-2010 20:53:02 12.3 C 5.43 g/m*3 12.3 C 0 km/h
706 19-04-2010 21:05:02 12.1 C 5.36 g/m*3 12.1 C 0 km/h
707 19-04-2010 21:17:02 11.8 C 5.47 g/m*3 11.8 C 0 km/h
708 19-04-2010 21:29:02 11.7 C 5.54 g/m*3 11.7 C 0 km/h
709 19-04-2010 21:41:01 11.4 C 5.44 g/m*3 11.4 C 0 km/h
710 19-04-2010 21:53:02 11.4 C 5.54 g/m*3 11.4 C 0 km/h
711 19-04-2010 22:06:03 11 C 5.51 g/m*3 11 C 0 km/h
712 19-04-2010 22:18:03 10.9 C 5.67 g/m*3 10.9 C 0 km/h
713 19-04-2010 22:30:03 10.5 C 5.63 g/m*3 10.5 C 0 km/h
714 19-04-2010 22:42:03 10.4 C 5.59 g/m*3 10.4 C 0 km/h
715 19-04-2010 22:54:03 10.3 C 5.65 g/m*3 10.3 C 0 km/h
716 19-04-2010 23:06:03 10.3 C 5.65 g/m*3 10.3 C 0 km/h
717 19-04-2010 23:18:03 10.1 C 5.58 g/m*3 10.1 C 0 km/h
718 19-04-2010 23:30:03 9.7 C 5.62 g/m*3 9.7 C 0 km/h
719 19-04-2010 23:42:03 9.4 C 5.61 g/m*3 9.4 C 0 km/h
720 19-04-2010 23:54:03 9.2 C 5.54 g/m*3 9.2 C 0 km/h
721 20-04-2010 00:06:03 9 C 5.47 g/m*3 9 C 0 km/h
722 20-04-2010 00:18:03 8.9 C 5.52 g/m*3 8.9 C 0 km/h
723 20-04-2010 00:30:03 8.6 C 5.41 g/m*3 8.6 C 0 km/h
724 20-04-2010 00:42:03 8.4 C 5.43 g/m*3 8.4 C 0 km/h
725 20-04-2010 00:54:03 8.3 C 5.48 g/m*3 8.3 C 0 km/h
Sensor: Nr:Datum:Temp:Abs-Feuchte:Windchill:Wind:
Aussen-T/F 726 20-04-2010 01:06:03 8.2 C 5.36 g/m*3 8.2 C 0 km/h
727 20-04-2010 01:18:04 8 C 5.37 g/m*3 8 C 0 km/h
728 20-04-2010 01:30:04 7.8 C 5.39 g/m*3 7.8 C 0 km/h
729 20-04-2010 01:42:04 7.7 C 5.35 g/m*3 7.7 C 0 km/h
730 20-04-2010 01:54:04 7.4 C 5.41 g/m*3 7.4 C 0 km/h
731 20-04-2010 02:06:04 7.1 C 5.46 g/m*3 7.1 C 0 km/h
732 20-04-2010 02:18:04 6.9 C 5.54 g/m*3 6.9 C 0 km/h
733 20-04-2010 02:30:04 6.7 C 5.47 g/m*3 6.7 C 0 km/h
734 20-04-2010 02:42:04 6.5 C 5.47 g/m*3 6.5 C 0 km/h
735 20-04-2010 02:54:04 6.3 C 5.48 g/m*3 6.3 C 0 km/h
736 20-04-2010 03:06:04 6.1 C 5.41 g/m*3 6.1 C 0 km/h
737 20-04-2010 03:18:04 6 C 5.44 g/m*3 6 C 0 km/h
738 20-04-2010 03:30:04 5.8 C 5.44 g/m*3 5.8 C 0 km/h
739 20-04-2010 03:42:04 5.7 C 5.55 g/m*3 5.7 C 0 km/h
740 20-04-2010 03:54:04 5.6 C 5.59 g/m*3 5.6 C 0 km/h
741 20-04-2010 04:06:04 5.4 C 5.51 g/m*3 5.4 C 0 km/h
742 20-04-2010 04:18:04 5.2 C 5.44 g/m*3 5.2 C 0 km/h
743 20-04-2010 04:30:04 5 C 5.44 g/m*3 5 C 0 km/h
744 20-04-2010 04:42:04 4.8 C 5.43 g/m*3 4.8 C 0 km/h
745 20-04-2010 04:54:04 4.7 C 5.4 g/m*3 4.7 C 0 km/h
746 20-04-2010 05:06:04 4.6 C 5.43 g/m*3 4.6 C 0 km/h
747 20-04-2010 05:18:05 4.5 C 5.32 g/m*3 4.5 C 0 km/h
748 20-04-2010 05:30:05 4.4 C 5.35 g/m*3 4.4 C 0 km/h
749 20-04-2010 05:42:05 4.2 C 5.28 g/m*3 4.2 C 0 km/h
750 20-04-2010 05:54:05 4.1 C 5.25 g/m*3 4.1 C 0 km/h
Sensor: Nr:Datum:Temp:Abs-Feuchte:Windchill:Wind:
Aussen-T/F 751 20-04-2010 06:06:05 3.9 C 5.31 g/m*3 3.9 C 0 km/h
752 20-04-2010 06:18:05 3.8 C 5.27 g/m*3 3.8 C 0 km/h
753 20-04-2010 06:30:05 3.6 C 5.2 g/m*3 3.6 C 0 km/h
754 20-04-2010 06:42:05 3.6 C 5.26 g/m*3 3.6 C 0 km/h
755 20-04-2010 06:54:02 3.5 C 5.23 g/m*3 3.5 C 0 km/h
756 20-04-2010 07:06:02 3.4 C 5.19 g/m*3 3.4 C 0 km/h
757 20-04-2010 07:18:02 3.4 C 5.19 g/m*3 3.4 C 0 km/h
758 20-04-2010 07:30:02 3.5 C 5.29 g/m*3 3.5 C 0 km/h
759 20-04-2010 07:42:01 3.5 C 5.29 g/m*3 3.5 C 0 km/h
760 20-04-2010 07:54:02 3.5 C 5.29 g/m*3 3.5 C 0 km/h
761 20-04-2010 08:06:01 3.5 C 5.35 g/m*3 3.5 C 0 km/h
762 20-04-2010 08:18:02 3.5 C 5.35 g/m*3 3.5 C 0 km/h
763 20-04-2010 08:30:02 3.7 C 5.48 g/m*3 3.7 C 0 km/h
764 20-04-2010 08:42:01 4 C 5.59 g/m*3 4 C 0 km/h
765 20-04-2010 08:54:01 4.2 C 5.61 g/m*3 4.2 C 0 km/h
766 20-04-2010 09:06:01 4.4 C 5.68 g/m*3 4.4 C 0 km/h
767 20-04-2010 09:18:02 4.8 C 5.83 g/m*3 4.8 C 0 km/h
768 20-04-2010 09:30:02 5.3 C 5.89 g/m*3 5.3 C 0 km/h
769 20-04-2010 09:42:01 6 C 5.95 g/m*3 6 C 0 km/h
770 20-04-2010 09:54:03 6.9 C 6.31 g/m*3 6.9 C 0 km/h
771 20-04-2010 10:06:02 7.6 C 6.2 g/m*3 7.6 C 0 km/h
772 20-04-2010 10:18:02 8.2 C 6.11 g/m*3 8.2 C 0 km/h
773 20-04-2010 10:30:02 9.1 C 5.94 g/m*3 9.1 C 0 km/h
774 20-04-2010 10:42:02 10 C 5.92 g/m*3 10 C 0 km/h
775 20-04-2010 10:54:02 10.8 C 5.83 g/m*3 10.8 C 0 km/h
Sensor: Nr:Datum:Temp:Abs-Feuchte:Windchill:Wind:
Aussen-T/F 776 20-04-2010 11:06:02 11.7 C 5.65 g/m*3 11.7 C 0 km/h
777 20-04-2010 11:18:02 12.3 C 5.54 g/m*3 12.3 C 0 km/h
778 20-04-2010 11:30:02 12.8 C 5.49 g/m*3 12.8 C 0 km/h
779 20-04-2010 11:42:02 13.4 C 5.35 g/m*3 13.4 C 0 km/h
780 20-04-2010 11:54:01 14.2 C 5.25 g/m*3 14.2 C 0 km/h
781 20-04-2010 12:06:02 14.8 C 5.07 g/m*3 14.8 C 0 km/h
782 20-04-2010 12:18:02 15.5 C 4.76 g/m*3 15.5 C 0 km/h
783 20-04-2010 12:30:02 16.2 C 4.14 g/m*3 16.2 C 0 km/h
784 20-04-2010 12:42:02 16.9 C 4.03 g/m*3 16.9 C 0 km/h
785 20-04-2010 12:54:02 17.4 C 4 g/m*3 17.4 C 0 km/h
786 20-04-2010 13:06:02 18 C 3.07 g/m*3 18 C 0 km/h
787 20-04-2010 13:18:02 18.6 C 3.18 g/m*3 18.6 C 0 km/h
788 20-04-2010 13:30:02 18.1 C 3.09 g/m*3 18.1 C 0 km/h
789 20-04-2010 13:42:01 19.1 C 3.28 g/m*3 19.1 C 0 km/h
790 20-04-2010 13:54:02 18.8 C 3.22 g/m*3 18.8 C 0 km/h
791 20-04-2010 14:06:01 19.3 C 3.32 g/m*3 19.3 C 0 km/h
792 20-04-2010 14:18:02 19.1 C 3.28 g/m*3 19.1 C 0 km/h
793 20-04-2010 14:30:02 18.5 C 3.16 g/m*3 18.5 C 0 km/h
794 20-04-2010 14:42:01 18.9 C 3.24 g/m*3 18.9 C 0 km/h
795 20-04-2010 14:54:02 20.2 C 3.5 g/m*3 20.2 C 0 km/h
796 20-04-2010 15:06:01 20.4 C 3.54 g/m*3 20.4 C 0 km/h
797 20-04-2010 15:18:02 20.7 C 3.6 g/m*3 20.7 C 0 km/h
798 20-04-2010 15:30:02 20.9 C 3.64 g/m*3 20.9 C 0 km/h
799 20-04-2010 15:42:01 20.8 C 3.62 g/m*3 20.8 C 0 km/h
800 20-04-2010 15:54:03 21.3 C 3.73 g/m*3 21.3 C 0 km/h
Sensor: Nr:Datum:Temp:Abs-Feuchte:Windchill:Wind:
Aussen-T/F 801 20-04-2010 16:06:02 21.4 C 3.75 g/m*3 21.4 C 0 km/h
802 20-04-2010 16:18:02 21.6 C 3.79 g/m*3 21.6 C 0 km/h
803 20-04-2010 16:30:02 21.5 C 3.77 g/m*3 21.5 C 0 km/h
804 20-04-2010 16:42:02 21.1 C 3.69 g/m*3 21.1 C 0 km/h
805 20-04-2010 16:54:02 20.6 C 3.58 g/m*3 20.6 C 0 km/h
806 20-04-2010 17:06:02 19.9 C 3.44 g/m*3 19.9 C 0 km/h
807 20-04-2010 17:18:02 19.7 C 3.4 g/m*3 19.7 C 0 km/h
808 20-04-2010 17:30:02 18.9 C 3.73 g/m*3 18.9 C 0 km/h
809 20-04-2010 17:42:02 18.8 C 4.03 g/m*3 18.8 C 0 km/h
810 20-04-2010 17:54:02 18 C 3.99 g/m*3 18 C 0 km/h
811 20-04-2010 18:06:02 17.5 C 4.03 g/m*3 17.5 C 0 km/h
812 20-04-2010 18:18:02 18 C 4.15 g/m*3 18 C 0 km/h
813 20-04-2010 18:30:02 17.9 C 4.12 g/m*3 17.9 C 0 km/h
814 20-04-2010 18:42:02 16.7 C 3.84 g/m*3 16.7 C 0 km/h
815 20-04-2010 18:54:02 16.9 C 4.03 g/m*3 16.9 C 0 km/h
816 20-04-2010 19:06:01 16.5 C 4.07 g/m*3 16.5 C 0 km/h
817 20-04-2010 19:18:02 15.9 C 4.06 g/m*3 15.9 C 0 km/h
818 20-04-2010 19:30:03 15.5 C 3.97 g/m*3 15.5 C 0 km/h
819 20-04-2010 19:42:01 14.9 C 4.08 g/m*3 14.9 C 0 km/h
820 20-04-2010 19:54:02 14.5 C 3.86 g/m*3 14.5 C 0 km/h
821 20-04-2010 20:06:01 13.9 C 3.6 g/m*3 13.9 C 0 km/h
822 20-04-2010 20:18:01 13.3 C 3.35 g/m*3 13.3 C 0 km/h
823 20-04-2010 20:30:01 12.8 C 3.14 g/m*3 12.8 C 0 km/h
824 20-04-2010 20:42:01 12.3 C 2.93 g/m*3 12.3 C 0 km/h
825 20-04-2010 20:54:02 12.1 C 3 g/m*3 12.1 C 0 km/h
Sensor: Nr:Datum:Temp:Abs-Feuchte:Windchill:Wind:
Aussen-T/F 826 20-04-2010 21:06:02 11.6 C 2.91 g/m*3 11.6 C 0 km/h
827 20-04-2010 21:18:02 11.4 C 2.77 g/m*3 11.4 C 0 km/h
828 20-04-2010 21:30:02 11.1 C 2.62 g/m*3 11.1 C 0 km/h
829 20-04-2010 21:42:02 10.8 C 2.77 g/m*3 10.8 C 0 km/h
830 20-04-2010 21:54:02 10.6 C 2.73 g/m*3 10.6 C 0 km/h
831 20-04-2010 22:06:02 10.3 C 2.87 g/m*3 10.3 C 0 km/h
832 20-04-2010 22:19:02 10 C 2.91 g/m*3 10 C 0 km/h
833 20-04-2010 22:31:02 9.9 C 3.08 g/m*3 9.9 C 0 km/h
834 20-04-2010 22:43:02 9.7 C 3.23 g/m*3 9.7 C 0 km/h
835 20-04-2010 22:55:02 9.4 C 3.17 g/m*3 9.4 C 0 km/h
836 20-04-2010 23:07:02 9.2 C 3.13 g/m*3 9.2 C 0 km/h
837 20-04-2010 23:19:02 9 C 3.09 g/m*3 9 C 0 km/h
838 20-04-2010 23:31:02 8.9 C 3.15 g/m*3 8.9 C 0 km/h
839 20-04-2010 23:43:02 8.6 C 3.27 g/m*3 8.6 C 0 km/h
840 20-04-2010 23:55:03 8.4 C 3.31 g/m*3 8.4 C 0 km/h
841 21-04-2010 00:07:03 8.2 C 3.35 g/m*3 8.2 C 0 km/h
842 21-04-2010 00:19:03 8 C 3.39 g/m*3 8 C 0 km/h
843 21-04-2010 00:31:03 7.8 C 3.51 g/m*3 7.8 C 0 km/h
844 21-04-2010 00:43:03 7.8 C 3.59 g/m*3 7.8 C 0 km/h
845 21-04-2010 00:55:03 7.5 C 3.6 g/m*3 7.5 C 0 km/h
846 21-04-2010 01:07:03 7.2 C 3.61 g/m*3 7.2 C 0 km/h
847 21-04-2010 01:19:03 7 C 3.56 g/m*3 7 C 0 km/h
848 21-04-2010 01:31:03 7 C 3.64 g/m*3 7 C 0 km/h
849 21-04-2010 01:43:03 6.7 C 3.65 g/m*3 6.7 C 0 km/h
850 21-04-2010 01:55:03 6.5 C 3.75 g/m*3 6.5 C 0 km/h
Sensor: Nr:Datum:Temp:Abs-Feuchte:Windchill:Wind:
Aussen-T/F 851 21-04-2010 02:07:03 6.3 C 3.7 g/m*3 6.3 C 0 km/h
852 21-04-2010 02:19:03 6.1 C 3.73 g/m*3 6.1 C 0 km/h
853 21-04-2010 02:31:03 5.9 C 3.82 g/m*3 5.9 C 0 km/h
854 21-04-2010 02:43:03 5.6 C 3.89 g/m*3 5.6 C 0 km/h
855 21-04-2010 02:55:03 5.2 C 3.86 g/m*3 5.2 C 0 km/h
856 21-04-2010 03:07:03 4.9 C 4.05 g/m*3 4.9 C 0 km/h
857 21-04-2010 03:19:03 4.7 C 4 g/m*3 4.7 C 0 km/h
858 21-04-2010 03:31:03 4.7 C 4 g/m*3 4.7 C 0 km/h
859 21-04-2010 03:43:03 4.6 C 3.97 g/m*3 4.6 C 0 km/h
860 21-04-2010 03:55:03 4.4 C 3.98 g/m*3 4.4 C 0 km/h
861 21-04-2010 04:07:04 4.3 C 4.02 g/m*3 4.3 C 0 km/h
862 21-04-2010 04:19:04 4 C 3.94 g/m*3 4 C 0 km/h
863 21-04-2010 04:31:04 3.9 C 4.04 g/m*3 3.9 C 0 km/h
864 21-04-2010 04:43:04 3.7 C 4.05 g/m*3 3.7 C 0 km/h
865 21-04-2010 04:55:04 3.5 C 4.06 g/m*3 3.5 C 0 km/h
866 21-04-2010 05:07:04 3.2 C 4.04 g/m*3 3.2 C 0 km/h
867 21-04-2010 05:19:04 3 C 4.04 g/m*3 3 C 0 km/h
868 21-04-2010 05:31:04 2.8 C 4.11 g/m*3 2.8 C 0 km/h
869 21-04-2010 05:43:04 2.6 C 4.05 g/m*3 2.6 C 0 km/h
870 21-04-2010 05:55:04 2.6 C 4.05 g/m*3 2.6 C 0 km/h
871 21-04-2010 06:07:04 2.5 C 4.08 g/m*3 2.5 C 0 km/h
872 21-04-2010 06:19:04 2.4 C 4.05 g/m*3 2.4 C 0 km/h
873 21-04-2010 06:31:04 2.4 C 4.05 g/m*3 2.4 C 0 km/h
874 21-04-2010 06:43:04 2.3 C 4.08 g/m*3 2.3 C 0 km/h
875 21-04-2010 06:55:04 2.4 C 4.11 g/m*3 2.4 C 0 km/h
Sensor: Nr:Datum:Temp:Abs-Feuchte:Windchill:Wind:
Aussen-T/F 876 21-04-2010 07:07:03 2.5 C 4.08 g/m*3 2.5 C 0 km/h
877 21-04-2010 07:19:02 2.7 C 4.08 g/m*3 2.7 C 0 km/h
878 21-04-2010 07:31:03 2.8 C 4.11 g/m*3 2.8 C 0 km/h
879 21-04-2010 07:43:03 3.1 C 4.07 g/m*3 3.1 C 0 km/h
880 21-04-2010 07:55:02 3.6 C 4.15 g/m*3 3.6 C 0 km/h
881 21-04-2010 08:07:02 4 C 4.01 g/m*3 4 C 0 km/h
882 21-04-2010 08:19:02 4.1 C 3.97 g/m*3 4.1 C 0 km/h
883 21-04-2010 08:31:02 4.2 C 4.06 g/m*3 4.2 C 0 km/h
884 21-04-2010 08:43:02 4.4 C 4.11 g/m*3 4.4 C 0 km/h
885 21-04-2010 08:55:02 4.6 C 4.17 g/m*3 4.6 C 0 km/h
886 21-04-2010 09:07:03 4.7 C 4.2 g/m*3 4.7 C 0 km/h
887 21-04-2010 09:19:02 5 C 4.14 g/m*3 5 C 0 km/h
888 21-04-2010 09:31:03 5.3 C 4.09 g/m*3 5.3 C 0 km/h
889 21-04-2010 09:43:03 5.7 C 4.2 g/m*3 5.7 C 0 km/h
890 21-04-2010 09:55:02 6 C 4.06 g/m*3 6 C 0 km/h
891 21-04-2010 10:07:02 6.5 C 4.05 g/m*3 6.5 C 0 km/h
892 21-04-2010 10:19:01 6.8 C 4.13 g/m*3 6.8 C 0 km/h
893 21-04-2010 10:31:02 7.5 C 4.16 g/m*3 7.5 C 0 km/h
894 21-04-2010 10:43:03 7.6 C 4.03 g/m*3 7.6 C 0 km/h
895 21-04-2010 10:55:02 6.7 C 4.41 g/m*3 6.7 C 0 km/h
896 21-04-2010 11:07:02 6.5 C 4.8 g/m*3 6.5 C 0 km/h
897 21-04-2010 11:19:02 6.9 C 5.08 g/m*3 6.9 C 0 km/h
898 21-04-2010 11:31:02 7.1 C 4.91 g/m*3 7.1 C 0 km/h
899 21-04-2010 11:43:03 7.1 C 4.84 g/m*3 7.1 C 0 km/h
900 21-04-2010 11:55:01 6.7 C 4.79 g/m*3 6.7 C 0 km/h
Sensor: Nr:Datum:Temp:Abs-Feuchte:Windchill:Wind:
Aussen-T/F 901 21-04-2010 12:07:02 6.2 C 4.85 g/m*3 6.2 C 0 km/h
902 21-04-2010 12:19:01 5.7 C 5.19 g/m*3 5.7 C 0 km/h
903 21-04-2010 12:31:01 6.7 C 5.62 g/m*3 6.7 C 0 km/h
904 21-04-2010 12:43:01 7.8 C 5.55 g/m*3 7.8 C 0 km/h
905 21-04-2010 12:55:01 8.5 C 5.55 g/m*3 8.5 C 0 km/h
906 21-04-2010 13:07:02 9.5 C 5.28 g/m*3 9.5 C 0 km/h
907 21-04-2010 13:19:01 9.1 C 4.44 g/m*3 9.1 C 0 km/h
908 21-04-2010 13:31:02 9.6 C 4.49 g/m*3 9.6 C 0 km/h
909 21-04-2010 13:43:02 9.7 C 4.15 g/m*3 9.7 C 0 km/h
910 21-04-2010 13:55:02 9.8 C 4.27 g/m*3 9.8 C 0 km/h
911 21-04-2010 14:07:02 10.4 C 4.24 g/m*3 10.4 C 0 km/h
912 21-04-2010 14:19:01 10.6 C 3.9 g/m*3 10.6 C 0 km/h
913 21-04-2010 14:31:02 10.9 C 3.68 g/m*3 10.9 C 0 km/h
914 21-04-2010 14:43:02 10.5 C 3.59 g/m*3 10.5 C 0 km/h
915 21-04-2010 14:55:02 10.8 C 3.56 g/m*3 10.8 C 0 km/h
916 21-04-2010 15:07:02 11.7 C 3.66 g/m*3 11.7 C 0 km/h
917 21-04-2010 15:19:02 12 C 3.09 g/m*3 12 C 0 km/h
918 21-04-2010 15:31:02 11.7 C 3.14 g/m*3 11.7 C 0 km/h
919 21-04-2010 15:43:02 12 C 2.98 g/m*3 12 C 0 km/h
920 21-04-2010 15:55:02 12.1 C 3 g/m*3 12.1 C 0 km/h
921 21-04-2010 16:07:02 12.6 C 2.88 g/m*3 12.6 C 0 km/h
922 21-04-2010 16:19:02 13.4 C 2.91 g/m*3 13.4 C 0 km/h
923 21-04-2010 16:31:02 13.2 C 2.99 g/m*3 13.2 C 0 km/h
924 21-04-2010 16:43:02 12.1 C 3 g/m*3 12.1 C 0 km/h
925 21-04-2010 16:55:01 12.2 C 3.24 g/m*3 12.2 C 0 km/h
Sensor: Nr:Datum:Temp:Abs-Feuchte:Windchill:Wind:
Aussen-T/F 926 21-04-2010 17:07:02 12.4 C 2.95 g/m*3 12.4 C 0 km/h
927 21-04-2010 17:19:01 12.2 C 2.81 g/m*3 12.2 C 0 km/h
928 21-04-2010 17:31:02 12.1 C 2.79 g/m*3 12.1 C 0 km/h
929 21-04-2010 17:43:02 12.8 C 2.8 g/m*3 12.8 C 0 km/h
930 21-04-2010 17:55:02 12 C 2.56 g/m*3 12 C 0 km/h
931 21-04-2010 18:07:02 12.2 C 2.7 g/m*3 12.2 C 0 km/h
932 21-04-2010 18:19:01 12.5 C 2.75 g/m*3 12.5 C 0 km/h
933 21-04-2010 18:31:02 12.4 C 2.73 g/m*3 12.4 C 0 km/h
934 21-04-2010 18:43:02 12.3 C 2.17 g/m*3 12.3 C 0 km/h
935 21-04-2010 18:55:02 12.4 C 2.29 g/m*3 12.4 C 0 km/h
936 21-04-2010 19:07:02 11.6 C 2.18 g/m*3 11.6 C 0 km/h
937 21-04-2010 19:19:01 11.2 C 2.53 g/m*3 11.2 C 0 km/h
938 21-04-2010 19:31:02 11.3 C 2.24 g/m*3 11.3 C 0 km/h
939 21-04-2010 19:43:02 11.4 C 2.36 g/m*3 11.4 C 0 km/h
940 21-04-2010 19:55:02 10.8 C 2.47 g/m*3 10.8 C 0 km/h
941 21-04-2010 20:07:02 10.1 C 2.46 g/m*3 10.1 C 0 km/h
942 21-04-2010 20:19:02 9.6 C 2.66 g/m*3 9.6 C 0 km/h
943 21-04-2010 20:31:02 9.2 C 2.68 g/m*3 9.2 C 0 km/h
944 21-04-2010 20:43:02 8.8 C 2.79 g/m*3 8.8 C 0 km/h
945 21-04-2010 20:55:02 8.4 C 2.88 g/m*3 8.4 C 0 km/h
946 21-04-2010 21:07:02 8.1 C 2.91 g/m*3 8.1 C 0 km/h
947 21-04-2010 21:19:02 7.6 C 2.98 g/m*3 7.6 C 0 km/h
948 21-04-2010 21:31:02 7.2 C 2.98 g/m*3 7.2 C 0 km/h
949 21-04-2010 21:43:02 6.9 C 3.08 g/m*3 6.9 C 0 km/h
950 21-04-2010 21:55:01 6.6 C 3.1 g/m*3 6.6 C 0 km/h
Sensor: Nr:Datum:Temp:Abs-Feuchte:Windchill:Wind:
Aussen-T/F 951 21-04-2010 22:08:02 6.5 C 3.07 g/m*3 6.5 C 0 km/h
952 21-04-2010 22:20:02 6.5 C 3.07 g/m*3 6.5 C 0 km/h
953 21-04-2010 22:32:02 6.3 C 3.03 g/m*3 6.3 C 0 km/h
954 21-04-2010 22:44:02 6.2 C 3.16 g/m*3 6.2 C 0 km/h
955 21-04-2010 22:56:02 5.9 C 3.24 g/m*3 5.9 C 0 km/h
956 21-04-2010 23:08:02 5.6 C 3.32 g/m*3 5.6 C 0 km/h
957 21-04-2010 23:20:02 5.3 C 3.33 g/m*3 5.3 C 0 km/h
958 21-04-2010 23:32:02 5 C 3.4 g/m*3 5 C 0 km/h
959 21-04-2010 23:44:02 4.8 C 3.49 g/m*3 4.8 C 0 km/h
960 21-04-2010 23:56:02 4.5 C 3.42 g/m*3 4.5 C 0 km/h
961 22-04-2010 00:08:02 4.3 C 3.5 g/m*3 4.3 C 0 km/h
962 22-04-2010 00:20:03 4.1 C 3.46 g/m*3 4.1 C 0 km/h
963 22-04-2010 00:32:03 3.8 C 3.51 g/m*3 3.8 C 0 km/h
964 22-04-2010 00:44:03 3.6 C 3.47 g/m*3 3.6 C 0 km/h
965 22-04-2010 00:56:03 3.5 C 3.57 g/m*3 3.5 C 0 km/h
966 22-04-2010 01:08:03 3.4 C 3.6 g/m*3 3.4 C 0 km/h
967 22-04-2010 01:20:03 3.1 C 3.59 g/m*3 3.1 C 0 km/h
968 22-04-2010 01:32:03 2.9 C 3.66 g/m*3 2.9 C 0 km/h
969 22-04-2010 01:44:03 2.7 C 3.67 g/m*3 2.7 C 0 km/h
970 22-04-2010 01:56:03 2.5 C 3.68 g/m*3 2.5 C 0 km/h
971 22-04-2010 02:08:03 2.3 C 3.69 g/m*3 2.3 C 0 km/h
972 22-04-2010 02:20:03 2.2 C 3.72 g/m*3 2.2 C 0 km/h
973 22-04-2010 02:32:03 2 C 3.78 g/m*3 2 C 0 km/h
974 22-04-2010 02:44:03 2 C 3.78 g/m*3 2 C 0 km/h
975 22-04-2010 02:56:03 1.7 C 3.76 g/m*3 1.7 C 0 km/h
Sensor: Nr:Datum:Temp:Abs-Feuchte:Windchill:Wind:
Aussen-T/F 976 22-04-2010 03:08:03 1.5 C 3.71 g/m*3 1.5 C 0 km/h
977 22-04-2010 03:20:03 1.3 C 3.71 g/m*3 1.3 C 0 km/h
978 22-04-2010 03:32:03 1.3 C 3.76 g/m*3 1.3 C 0 km/h
979 22-04-2010 03:44:03 1.2 C 3.74 g/m*3 1.2 C 0 km/h
980 22-04-2010 03:56:03 1.1 C 3.76 g/m*3 1.1 C 0 km/h
981 22-04-2010 04:08:03 1 C 3.79 g/m*3 1 C 0 km/h
982 22-04-2010 04:20:03 0.9 C 3.81 g/m*3 0.9 C 0 km/h
983 22-04-2010 04:32:03 0.8 C 3.79 g/m*3 0.8 C 0 km/h
984 22-04-2010 04:44:04 0.7 C 3.81 g/m*3 0.7 C 0 km/h
985 22-04-2010 04:56:04 0.6 C 3.84 g/m*3 0.6 C 0 km/h
986 22-04-2010 05:08:04 0.5 C 3.76 g/m*3 0.5 C 0 km/h
987 22-04-2010 05:20:04 0.5 C 3.81 g/m*3 0.5 C 0 km/h
988 22-04-2010 05:32:04 0.3 C 3.76 g/m*3 0.3 C 0 km/h
989 22-04-2010 05:44:04 0.2 C 3.78 g/m*3 0.2 C 0 km/h
990 22-04-2010 05:56:04 0 C 3.73 g/m*3 0 C 0 km/h
991 22-04-2010 06:08:04 -0.2 C 3.68 g/m*3 -0.2 C 0 km/h
992 22-04-2010 06:20:04 -0.2 C 3.73 g/m*3 -0.2 C 0 km/h
993 22-04-2010 06:32:04 -0.2 C 3.73 g/m*3 -0.2 C 0 km/h
994 22-04-2010 06:44:04 -0.1 C 3.8 g/m*3 -0.1 C 0 km/h
995 22-04-2010 06:56:04 -0.1 C 3.85 g/m*3 -0.1 C 0 km/h
996 22-04-2010 07:08:03 -0.2 C 3.82 g/m*3 -0.2 C 0 km/h
997 22-04-2010 07:20:02 -0.2 C 3.87 g/m*3 -0.2 C 0 km/h
998 22-04-2010 07:32:02 0 C 3.92 g/m*3 0 C 0 km/h
999 22-04-2010 07:44:02 0.1 C 3.95 g/m*3 0.1 C 0 km/h
1000 22-04-2010 07:56:02 0.3 C 4.01 g/m*3 0.3 C 0 km/h
Sensor: Nr:Datum:Temp:Abs-Feuchte:Windchill:Wind:
Aussen-T/F 1001 22-04-2010 08:08:02 0.3 C 3.96 g/m*3 0.3 C 0 km/h
1002 22-04-2010 08:20:02 0.5 C 4.01 g/m*3 0.5 C 0 km/h
1003 22-04-2010 08:32:02 0.6 C 3.99 g/m*3 0.6 C 0 km/h
1004 22-04-2010 08:44:02 0.9 C 4.02 g/m*3 0.9 C 0 km/h
1005 22-04-2010 08:56:02 1.3 C 4.08 g/m*3 1.3 C 0 km/h
1006 22-04-2010 09:08:02 1.7 C 4.08 g/m*3 1.7 C 0 km/h
1007 22-04-2010 09:20:02 2.2 C 4 g/m*3 2.2 C 0 km/h
1008 22-04-2010 09:32:03 2.8 C 4.05 g/m*3 2.8 C 0 km/h
1009 22-04-2010 09:44:03 3.5 C 4.12 g/m*3 3.5 C 0 km/h
1010 22-04-2010 09:56:02 4.5 C 4.21 g/m*3 4.5 C 0 km/h
1011 22-04-2010 10:08:01 5.2 C 3.99 g/m*3 5.2 C 0 km/h
1012 22-04-2010 10:20:02 5.7 C 3.99 g/m*3 5.7 C 0 km/h
1013 22-04-2010 10:32:02 6.4 C 3.73 g/m*3 6.4 C 0 km/h
1014 22-04-2010 10:44:02 6.8 C 3.44 g/m*3 6.8 C 0 km/h
1015 22-04-2010 10:56:02 7.3 C 3.24 g/m*3 7.3 C 0 km/h
1016 22-04-2010 11:08:02 8.3 C 3.2 g/m*3 8.3 C 0 km/h
1017 22-04-2010 11:20:02 8.7 C 3.03 g/m*3 8.7 C 0 km/h
1018 22-04-2010 11:32:03 9 C 2.91 g/m*3 9 C 0 km/h
1019 22-04-2010 11:44:03 9.7 C 3.04 g/m*3 9.7 C 0 km/h
1020 22-04-2010 11:56:02 9.9 C 2.89 g/m*3 9.9 C 0 km/h
1021 22-04-2010 12:08:01 10 C 2.82 g/m*3 10 C 0 km/h
1022 22-04-2010 12:20:02 10.4 C 2.89 g/m*3 10.4 C 0 km/h
1023 22-04-2010 12:32:02 10.9 C 2.88 g/m*3 10.9 C 0 km/h
1024 22-04-2010 12:44:02 11.1 C 2.92 g/m*3 11.1 C 0 km/h
1025 22-04-2010 12:56:02 11.4 C 2.77 g/m*3 11.4 C 0 km/h
Sensor: Nr:Datum:Temp:Abs-Feuchte:Windchill:Wind:
Aussen-T/F 1026 22-04-2010 13:08:01 12 C 2.66 g/m*3 12 C 0 km/h
1027 22-04-2010 13:20:01 12 C 2.13 g/m*3 12 C 0 km/h
1028 22-04-2010 13:32:02 13 C 2.27 g/m*3 13 C 0 km/h
1029 22-04-2010 13:44:02 13.5 C 2.34 g/m*3 13.5 C 0 km/h
1030 22-04-2010 13:56:02 13.3 C 2.31 g/m*3 13.3 C 0 km/h
1031 22-04-2010 14:08:02 13.8 C 2.38 g/m*3 13.8 C 0 km/h
1032 22-04-2010 14:20:02 14.9 C 2.55 g/m*3 14.9 C 0 km/h
1033 22-04-2010 14:32:02 15.5 C 2.64 g/m*3 15.5 C 0 km/h
1034 22-04-2010 14:44:02 16 C 2.72 g/m*3 16 C 0 km/h
1035 22-04-2010 14:56:02 16.3 C 2.77 g/m*3 16.3 C 0 km/h
1036 22-04-2010 15:08:01 16.1 C 2.74 g/m*3 16.1 C 0 km/h
1037 22-04-2010 15:20:02 16 C 2.72 g/m*3 16 C 0 km/h
1038 22-04-2010 15:32:02 16 C 2.72 g/m*3 16 C 0 km/h
1039 22-04-2010 15:44:02 17.5 C 2.98 g/m*3 17.5 C 0 km/h
1040 22-04-2010 15:56:02 16.3 C 2.77 g/m*3 16.3 C 0 km/h
1041 22-04-2010 16:08:02 16.3 C 2.77 g/m*3 16.3 C 0 km/h
1042 22-04-2010 16:20:02 17.9 C 3.05 g/m*3 17.9 C 0 km/h
1043 22-04-2010 16:32:03 18.9 C 3.24 g/m*3 18.9 C 0 km/h
1044 22-04-2010 16:44:03 17.5 C 2.98 g/m*3 17.5 C 0 km/h
1045 22-04-2010 16:56:02 18.8 C 3.22 g/m*3 18.8 C 0 km/h
1046 22-04-2010 17:08:01 19.4 C 3.34 g/m*3 19.4 C 0 km/h
1047 22-04-2010 17:20:02 19.4 C 3.34 g/m*3 19.4 C 0 km/h
1048 22-04-2010 17:32:02 19.8 C 3.42 g/m*3 19.8 C 0 km/h
1049 22-04-2010 17:44:02 21.6 C 3.79 g/m*3 21.6 C 0 km/h
1050 22-04-2010 17:56:02 21.2 C 3.71 g/m*3 21.2 C 0 km/h
Sensor: Nr:Datum:Temp:Abs-Feuchte:Windchill:Wind:
Aussen-T/F 1051 22-04-2010 18:08:03 19.3 C 3.32 g/m*3 19.3 C 0 km/h
1052 22-04-2010 18:20:02 18.5 C 3.16 g/m*3 18.5 C 0 km/h
1053 22-04-2010 18:32:02 18.9 C 3.24 g/m*3 18.9 C 0 km/h
1054 22-04-2010 18:44:02 18.7 C 3.2 g/m*3 18.7 C 0 km/h
1055 22-04-2010 18:56:02 17.8 C 3.04 g/m*3 17.8 C 0 km/h
1056 22-04-2010 19:08:02 17.2 C 2.93 g/m*3 17.2 C 0 km/h
1057 22-04-2010 19:20:01 17 C 2.89 g/m*3 17 C 0 km/h
1058 22-04-2010 19:32:02 16.9 C 2.88 g/m*3 16.9 C 0 km/h
1059 22-04-2010 19:44:02 16.5 C 2.81 g/m*3 16.5 C 0 km/h
1060 22-04-2010 19:56:02 16.3 C 2.77 g/m*3 16.3 C 0 km/h
1061 22-04-2010 20:08:02 15.1 C 2.58 g/m*3 15.1 C 0 km/h
1062 22-04-2010 20:20:02 13.9 C 2.4 g/m*3 13.9 C 0 km/h
1063 22-04-2010 20:32:02 13.5 C 2.34 g/m*3 13.5 C 0 km/h
1064 22-04-2010 20:44:03 12.6 C 2.21 g/m*3 12.6 C 0 km/h
1065 22-04-2010 20:56:02 12 C 2.13 g/m*3 12 C 0 km/h
1066 22-04-2010 21:08:03 11.7 C 2.41 g/m*3 11.7 C 0 km/h
1067 22-04-2010 21:20:02 11.2 C 2.64 g/m*3 11.2 C 0 km/h
1068 22-04-2010 21:32:02 10.7 C 2.65 g/m*3 10.7 C 0 km/h
1069 22-04-2010 21:44:02 10.3 C 2.68 g/m*3 10.3 C 0 km/h
1070 22-04-2010 21:57:02 10 C 2.82 g/m*3 10 C 0 km/h
1071 22-04-2010 22:09:02 9.9 C 2.8 g/m*3 9.9 C 0 km/h
1072 22-04-2010 22:21:02 9.5 C 2.73 g/m*3 9.5 C 0 km/h
1073 22-04-2010 22:33:02 9.2 C 2.77 g/m*3 9.2 C 0 km/h
1074 22-04-2010 22:45:02 9.1 C 2.75 g/m*3 9.1 C 0 km/h
1075 22-04-2010 22:57:02 8.7 C 2.94 g/m*3 8.7 C 0 km/h
Sensor: Nr:Datum:Temp:Abs-Feuchte:Windchill:Wind:
Aussen-T/F 1076 22-04-2010 23:09:02 8.5 C 2.99 g/m*3 8.5 C 0 km/h
1077 22-04-2010 23:21:02 8.3 C 3.12 g/m*3 8.3 C 0 km/h
1078 22-04-2010 23:33:02 8.2 C 3.18 g/m*3 8.2 C 0 km/h
1079 22-04-2010 23:45:02 7.9 C 3.29 g/m*3 7.9 C 0 km/h
1080 22-04-2010 23:57:02 7.7 C 3.32 g/m*3 7.7 C 0 km/h
1081 23-04-2010 00:09:02 7.3 C 3.32 g/m*3 7.3 C 0 km/h
1082 23-04-2010 00:21:02 7.1 C 3.28 g/m*3 7.1 C 0 km/h
1083 23-04-2010 00:33:02 6.8 C 3.44 g/m*3 6.8 C 0 km/h
1084 23-04-2010 00:45:02 6.5 C 3.37 g/m*3 6.5 C 0 km/h
1085 23-04-2010 00:57:03 6.2 C 3.46 g/m*3 6.2 C 0 km/h
1086 23-04-2010 01:09:03 6 C 3.41 g/m*3 6 C 0 km/h
1087 23-04-2010 01:21:03 5.8 C 3.51 g/m*3 5.8 C 0 km/h
1088 23-04-2010 01:33:03 5.5 C 3.51 g/m*3 5.5 C 0 km/h
1089 23-04-2010 01:45:03 5.4 C 3.49 g/m*3 5.4 C 0 km/h
1090 23-04-2010 01:57:03 5.3 C 3.53 g/m*3 5.3 C 0 km/h
1091 23-04-2010 02:09:03 5 C 3.47 g/m*3 5 C 0 km/h
1092 23-04-2010 02:21:03 4.8 C 3.62 g/m*3 4.8 C 0 km/h
1093 23-04-2010 02:33:03 4.5 C 3.55 g/m*3 4.5 C 0 km/h
1094 23-04-2010 02:45:03 4.4 C 3.59 g/m*3 4.4 C 0 km/h
1095 23-04-2010 02:57:03 4.2 C 3.61 g/m*3 4.2 C 0 km/h
1096 23-04-2010 03:09:03 3.9 C 3.73 g/m*3 3.9 C 0 km/h
1097 23-04-2010 03:21:03 3.7 C 3.68 g/m*3 3.7 C 0 km/h
1098 23-04-2010 03:33:03 3.5 C 3.75 g/m*3 3.5 C 0 km/h
1099 23-04-2010 03:45:03 3.3 C 3.76 g/m*3 3.3 C 0 km/h
1100 23-04-2010 03:57:03 3.2 C 3.74 g/m*3 3.2 C 0 km/h
Sensor: Nr:Datum:Temp:Abs-Feuchte:Windchill:Wind:
Aussen-T/F 1101 23-04-2010 04:09:03 2.9 C 3.78 g/m*3 2.9 C 0 km/h
1102 23-04-2010 04:21:03 2.8 C 3.75 g/m*3 2.8 C 0 km/h
1103 23-04-2010 04:33:03 2.7 C 3.73 g/m*3 2.7 C 0 km/h
1104 23-04-2010 04:45:03 2.5 C 3.68 g/m*3 2.5 C 0 km/h
1105 23-04-2010 04:57:03 2.4 C 3.77 g/m*3 2.4 C 0 km/h
1106 23-04-2010 05:09:04 2.2 C 3.66 g/m*3 2.2 C 0 km/h
1107 23-04-2010 05:21:04 2.1 C 3.69 g/m*3 2.1 C 0 km/h
1108 23-04-2010 05:33:04 1.9 C 3.7 g/m*3 1.9 C 0 km/h
1109 23-04-2010 05:45:04 1.7 C 3.7 g/m*3 1.7 C 0 km/h
1110 23-04-2010 05:57:04 1.6 C 3.79 g/m*3 1.6 C 0 km/h
1111 23-04-2010 06:09:04 1.6 C 3.79 g/m*3 1.6 C 0 km/h
1112 23-04-2010 06:21:04 1.4 C 3.79 g/m*3 1.4 C 0 km/h
1113 23-04-2010 06:33:04 1.3 C 3.81 g/m*3 1.3 C 0 km/h
1114 23-04-2010 06:45:04 1.2 C 3.79 g/m*3 1.2 C 0 km/h
1115 23-04-2010 06:57:04 1.3 C 3.81 g/m*3 1.3 C 0 km/h
1116 23-04-2010 07:09:02 1.3 C 3.81 g/m*3 1.3 C 0 km/h
1117 23-04-2010 07:21:01 1.3 C 3.81 g/m*3 1.3 C 0 km/h
1118 23-04-2010 07:33:02 1.5 C 3.87 g/m*3 1.5 C 0 km/h
1119 23-04-2010 07:45:01 1.6 C 3.95 g/m*3 1.6 C 0 km/h
1120 23-04-2010 07:57:01 1.8 C 4 g/m*3 1.8 C 0 km/h
1121 23-04-2010 08:09:02 2 C 3.95 g/m*3 2 C 0 km/h
1122 23-04-2010 08:21:01 2.3 C 4.03 g/m*3 2.3 C 0 km/h
1123 23-04-2010 08:33:02 2.5 C 4.02 g/m*3 2.5 C 0 km/h
1124 23-04-2010 08:45:02 2.9 C 4.13 g/m*3 2.9 C 0 km/h
1125 23-04-2010 08:57:02 3.3 C 4.19 g/m*3 3.3 C 0 km/h
Sensor: Nr:Datum:Temp:Abs-Feuchte:Windchill:Wind:
Aussen-T/F 1126 23-04-2010 09:09:02 3.8 C 4.27 g/m*3 3.8 C 0 km/h
1127 23-04-2010 09:21:01 4.6 C 4.23 g/m*3 4.6 C 0 km/h
1128 23-04-2010 09:33:02 5.4 C 4.19 g/m*3 5.4 C 0 km/h
1129 23-04-2010 09:45:02 6.1 C 4.09 g/m*3 6.1 C 0 km/h
1130 23-04-2010 09:57:02 6.7 C 3.95 g/m*3 6.7 C 0 km/h
1131 23-04-2010 10:09:02 7.5 C 4 g/m*3 7.5 C 0 km/h
1132 23-04-2010 10:21:01 8.3 C 3.96 g/m*3 8.3 C 0 km/h
1133 23-04-2010 10:33:02 9 C 3.97 g/m*3 9 C 0 km/h
1134 23-04-2010 10:45:02 9.6 C 3.94 g/m*3 9.6 C 0 km/h
1135 23-04-2010 10:57:02 10.3 C 3.83 g/m*3 10.3 C 0 km/h
1136 23-04-2010 11:09:02 11 C 3.8 g/m*3 11 C 0 km/h
1137 23-04-2010 11:21:01 11.7 C 3.87 g/m*3 11.7 C 0 km/h
1138 23-04-2010 11:33:02 12.5 C 3.85 g/m*3 12.5 C 0 km/h
1139 23-04-2010 11:45:02 12.9 C 3.49 g/m*3 12.9 C 0 km/h
1140 23-04-2010 11:57:02 13.5 C 3.04 g/m*3 13.5 C 0 km/h
1141 23-04-2010 12:09:02 14.2 C 3.05 g/m*3 14.2 C 0 km/h
1142 23-04-2010 12:21:02 14.4 C 2.47 g/m*3 14.4 C 0 km/h
1143 23-04-2010 12:33:02 14.9 C 2.55 g/m*3 14.9 C 0 km/h
1144 23-04-2010 12:45:02 15.2 C 2.6 g/m*3 15.2 C 0 km/h
1145 23-04-2010 12:57:02 15.7 C 2.68 g/m*3 15.7 C 0 km/h
1146 23-04-2010 13:09:02 16.2 C 2.76 g/m*3 16.2 C 0 km/h
1147 23-04-2010 13:21:03 17 C 2.89 g/m*3 17 C 0 km/h
1148 23-04-2010 13:33:02 17.4 C 2.96 g/m*3 17.4 C 0 km/h
1149 23-04-2010 13:45:02 17.8 C 3.04 g/m*3 17.8 C 0 km/h
1150 23-04-2010 13:57:02 17.5 C 2.98 g/m*3 17.5 C 0 km/h
Sensor: Nr:Datum:Temp:Abs-Feuchte:Windchill:Wind:
Aussen-T/F 1151 23-04-2010 14:09:02 18.4 C 3.15 g/m*3 18.4 C 0 km/h
1152 23-04-2010 14:21:02 18.5 C 3.16 g/m*3 18.5 C 0 km/h
1153 23-04-2010 14:33:02 19.1 C 3.28 g/m*3 19.1 C 0 km/h
1154 23-04-2010 14:45:02 19.6 C 3.38 g/m*3 19.6 C 0 km/h
1155 23-04-2010 14:57:02 20.9 C 3.64 g/m*3 20.9 C 0 km/h
1156 23-04-2010 15:09:02 22.1 C 3.9 g/m*3 22.1 C 0 km/h
1157 23-04-2010 15:21:02 21.6 C 3.79 g/m*3 21.6 C 0 km/h
1158 23-04-2010 15:33:02 22.5 C 3.99 g/m*3 22.5 C 0 km/h
1159 23-04-2010 15:45:03 22.6 C 4.02 g/m*3 22.6 C 0 km/h
1160 23-04-2010 15:57:03 22.5 C 3.99 g/m*3 22.5 C 0 km/h
1161 23-04-2010 16:09:02 22.6 C 4.02 g/m*3 22.6 C 0 km/h
1162 23-04-2010 16:21:02 22.9 C 4.09 g/m*3 22.9 C 0 km/h
1163 23-04-2010 16:33:02 22.9 C 4.09 g/m*3 22.9 C 0 km/h
1164 23-04-2010 16:45:02 23 C 4.11 g/m*3 23 C 0 km/h
1165 23-04-2010 16:57:02 23.5 C 4.23 g/m*3 23.5 C 0 km/h
1166 23-04-2010 17:09:03 24.5 C 4.48 g/m*3 24.5 C 0 km/h
1167 23-04-2010 17:21:03 22.9 C 4.09 g/m*3 22.9 C 0 km/h
1168 23-04-2010 17:33:02 22.5 C 3.99 g/m*3 22.5 C 0 km/h
1169 23-04-2010 17:45:03 23 C 4.11 g/m*3 23 C 0 km/h
1170 23-04-2010 17:57:03 24.5 C 4.48 g/m*3 24.5 C 0 km/h
1171 23-04-2010 18:09:02 24.1 C 4.38 g/m*3 24.1 C 0 km/h
1172 23-04-2010 18:21:03 22.9 C 4.09 g/m*3 22.9 C 0 km/h
1173 23-04-2010 18:33:02 22.6 C 4.02 g/m*3 22.6 C 0 km/h
1174 23-04-2010 18:45:02 22.1 C 3.9 g/m*3 22.1 C 0 km/h
1175 23-04-2010 18:57:02 21.9 C 3.86 g/m*3 21.9 C 0 km/h
Sensor: Nr:Datum:Temp:Abs-Feuchte:Windchill:Wind:
Aussen-T/F 1176 23-04-2010 19:09:02 21.9 C 3.86 g/m*3 21.9 C 0 km/h
1177 23-04-2010 19:21:02 20.9 C 3.64 g/m*3 20.9 C 0 km/h
1178 23-04-2010 19:33:02 20.2 C 3.5 g/m*3 20.2 C 0 km/h
1179 23-04-2010 19:45:01 19.4 C 3.34 g/m*3 19.4 C 0 km/h
1180 23-04-2010 19:57:01 19.2 C 3.3 g/m*3 19.2 C 0 km/h
1181 23-04-2010 20:09:02 18.3 C 3.13 g/m*3 18.3 C 0 km/h
1182 23-04-2010 20:21:01 17.6 C 3 g/m*3 17.6 C 0 km/h
1183 23-04-2010 20:33:01 17 C 2.89 g/m*3 17 C 0 km/h
1184 23-04-2010 20:45:01 16.5 C 2.81 g/m*3 16.5 C 0 km/h
1185 23-04-2010 20:57:01 15.6 C 2.66 g/m*3 15.6 C 0 km/h
1186 23-04-2010 21:09:01 14.9 C 2.55 g/m*3 14.9 C 0 km/h
1187 23-04-2010 21:21:02 14.3 C 2.46 g/m*3 14.3 C 0 km/h
1188 23-04-2010 21:33:02 14.2 C 2.44 g/m*3 14.2 C 0 km/h
1189 23-04-2010 21:45:02 13.8 C 2.38 g/m*3 13.8 C 0 km/h
1190 23-04-2010 21:57:02 13.4 C 2.67 g/m*3 13.4 C 0 km/h
1191 23-04-2010 22:09:02 13.1 C 2.62 g/m*3 13.1 C 0 km/h
1192 23-04-2010 22:21:03 12.8 C 2.91 g/m*3 12.8 C 0 km/h
1193 23-04-2010 22:33:02 12.6 C 2.88 g/m*3 12.6 C 0 km/h
1194 23-04-2010 22:46:04 12.4 C 2.84 g/m*3 12.4 C 0 km/h
1195 23-04-2010 22:58:04 12.1 C 3.22 g/m*3 12.1 C 0 km/h
1196 23-04-2010 23:10:04 11.7 C 3.24 g/m*3 11.7 C 0 km/h
1197 23-04-2010 23:22:04 11.2 C 3.34 g/m*3 11.2 C 0 km/h
1198 23-04-2010 23:34:04 10.7 C 3.44 g/m*3 10.7 C 0 km/h
1199 23-04-2010 23:46:04 10.5 C 3.39 g/m*3 10.5 C 0 km/h
1200 23-04-2010 23:58:04 10.2 C 3.43 g/m*3 10.2 C 0 km/h
Sensor: Nr:Datum:Temp:Abs-Feuchte:Windchill:Wind:
Aussen-T/F 1201 24-04-2010 00:10:04 10 C 3.38 g/m*3 10 C 0 km/h
1202 24-04-2010 00:22:04 9.6 C 3.48 g/m*3 9.6 C 0 km/h
1203 24-04-2010 00:34:04 9.5 C 3.46 g/m*3 9.5 C 0 km/h
1204 24-04-2010 00:46:04 9.4 C 3.53 g/m*3 9.4 C 0 km/h
1205 24-04-2010 00:58:04 9 C 3.7 g/m*3 9 C 0 km/h
1206 24-04-2010 01:10:05 8.6 C 3.52 g/m*3 8.6 C 0 km/h
1207 24-04-2010 01:22:05 8.5 C 3.5 g/m*3 8.5 C 0 km/h
1208 24-04-2010 01:34:05 8.4 C 3.56 g/m*3 8.4 C 0 km/h
1209 24-04-2010 01:46:05 8.1 C 3.58 g/m*3 8.1 C 0 km/h
1210 24-04-2010 01:58:05 7.9 C 3.61 g/m*3 7.9 C 0 km/h
1211 24-04-2010 02:10:05 7.6 C 3.63 g/m*3 7.6 C 0 km/h
1212 24-04-2010 02:22:05 7.2 C 3.61 g/m*3 7.2 C 0 km/h
1213 24-04-2010 02:34:05 7.1 C 3.59 g/m*3 7.1 C 0 km/h
1214 24-04-2010 02:46:05 6.9 C 3.62 g/m*3 6.9 C 0 km/h
1215 24-04-2010 02:58:05 6.7 C 3.65 g/m*3 6.7 C 0 km/h
1216 24-04-2010 03:10:05 6.6 C 3.62 g/m*3 6.6 C 0 km/h
1217 24-04-2010 03:22:05 6.6 C 3.7 g/m*3 6.6 C 0 km/h
1218 24-04-2010 03:34:05 6.2 C 3.6 g/m*3 6.2 C 0 km/h
1219 24-04-2010 03:46:05 5.9 C 3.68 g/m*3 5.9 C 0 km/h
1220 24-04-2010 03:58:05 5.7 C 3.63 g/m*3 5.7 C 0 km/h
1221 24-04-2010 04:10:05 5.6 C 3.68 g/m*3 5.6 C 0 km/h
1222 24-04-2010 04:22:05 5.4 C 3.7 g/m*3 5.4 C 0 km/h
1223 24-04-2010 04:34:05 5.1 C 3.76 g/m*3 5.1 C 0 km/h
1224 24-04-2010 04:46:05 5 C 3.74 g/m*3 5 C 0 km/h
1225 24-04-2010 04:58:05 4.8 C 3.82 g/m*3 4.8 C 0 km/h
Sensor: Nr:Datum:Temp:Abs-Feuchte:Windchill:Wind:
Aussen-T/F 1226 24-04-2010 05:10:05 4.6 C 3.77 g/m*3 4.6 C 0 km/h
1227 24-04-2010 05:22:06 4.5 C 3.88 g/m*3 4.5 C 0 km/h
1228 24-04-2010 05:34:06 4.4 C 3.85 g/m*3 4.4 C 0 km/h
1229 24-04-2010 05:46:06 4.1 C 3.84 g/m*3 4.1 C 0 km/h
1230 24-04-2010 05:58:06 4 C 3.88 g/m*3 4 C 0 km/h
1231 24-04-2010 06:10:06 3.9 C 3.85 g/m*3 3.9 C 0 km/h
1232 24-04-2010 06:22:06 3.7 C 3.86 g/m*3 3.7 C 0 km/h
1233 24-04-2010 06:34:06 3.6 C 3.96 g/m*3 3.6 C 0 km/h
1234 24-04-2010 06:46:06 3.5 C 4 g/m*3 3.5 C 0 km/h
1235 24-04-2010 06:58:06 3.5 C 4 g/m*3 3.5 C 0 km/h
1236 24-04-2010 07:10:06 3.6 C 3.96 g/m*3 3.6 C 0 km/h
1237 24-04-2010 07:22:06 3.6 C 3.96 g/m*3 3.6 C 0 km/h
1238 24-04-2010 07:34:03 3.7 C 4.05 g/m*3 3.7 C 0 km/h
1239 24-04-2010 07:46:02 3.9 C 4.11 g/m*3 3.9 C 0 km/h
1240 24-04-2010 07:58:02 4.1 C 4.1 g/m*3 4.1 C 0 km/h
1241 24-04-2010 08:10:01 4.3 C 4.15 g/m*3 4.3 C 0 km/h
1242 24-04-2010 08:22:02 4.5 C 4.14 g/m*3 4.5 C 0 km/h
1243 24-04-2010 08:34:01 4.8 C 4.16 g/m*3 4.8 C 0 km/h
1244 24-04-2010 08:46:02 5.2 C 4.06 g/m*3 5.2 C 0 km/h
1245 24-04-2010 08:58:02 5.4 C 4.05 g/m*3 5.4 C 0 km/h
1246 24-04-2010 09:10:02 6.1 C 4.24 g/m*3 6.1 C 0 km/h
1247 24-04-2010 09:22:02 7 C 4.26 g/m*3 7 C 0 km/h
1248 24-04-2010 09:34:03 7.7 C 4.3 g/m*3 7.7 C 0 km/h
1249 24-04-2010 09:46:02 8.4 C 4.16 g/m*3 8.4 C 0 km/h
1250 24-04-2010 09:58:03 9.2 C 4.11 g/m*3 9.2 C 0 km/h
Sensor: Nr:Datum:Temp:Abs-Feuchte:Windchill:Wind:
Aussen-T/F 1251 24-04-2010 10:10:01 10 C 4.13 g/m*3 10 C 0 km/h
1252 24-04-2010 10:22:02 10.5 C 4.07 g/m*3 10.5 C 0 km/h
1253 24-04-2010 10:34:02 11.3 C 4.28 g/m*3 11.3 C 0 km/h
1254 24-04-2010 10:46:02 12.1 C 4.29 g/m*3 12.1 C 0 km/h
1255 24-04-2010 10:58:03 13.1 C 4.11 g/m*3 13.1 C 0 km/h
1256 24-04-2010 11:10:02 13.8 C 4.05 g/m*3 13.8 C 0 km/h
1257 24-04-2010 11:22:02 14.5 C 3.98 g/m*3 14.5 C 0 km/h
1258 24-04-2010 11:34:03 15.1 C 3.87 g/m*3 15.1 C 0 km/h
1259 24-04-2010 11:46:02 16 C 3.68 g/m*3 16 C 0 km/h
1260 24-04-2010 11:58:03 16.8 C 3.86 g/m*3 16.8 C 0 km/h
1261 24-04-2010 12:10:01 17.6 C 3.75 g/m*3 17.6 C 0 km/h
1262 24-04-2010 12:22:02 18.4 C 3.15 g/m*3 18.4 C 0 km/h
1263 24-04-2010 12:34:02 19 C 3.75 g/m*3 19 C 0 km/h
1264 24-04-2010 12:46:02 19.6 C 3.38 g/m*3 19.6 C 0 km/h
1265 24-04-2010 12:58:02 19.7 C 3.4 g/m*3 19.7 C 0 km/h
1266 24-04-2010 13:10:02 20.5 C 3.56 g/m*3 20.5 C 0 km/h
1267 24-04-2010 13:22:02 21.6 C 3.79 g/m*3 21.6 C 0 km/h
1268 24-04-2010 13:34:03 22.3 C 3.95 g/m*3 22.3 C 0 km/h
1269 24-04-2010 13:46:02 22.6 C 4.02 g/m*3 22.6 C 0 km/h
1270 24-04-2010 13:58:03 22.9 C 4.09 g/m*3 22.9 C 0 km/h
1271 24-04-2010 14:10:01 23.2 C 4.16 g/m*3 23.2 C 0 km/h
1272 24-04-2010 14:22:02 22.9 C 4.09 g/m*3 22.9 C 0 km/h
1273 24-04-2010 14:34:02 23.6 C 4.25 g/m*3 23.6 C 0 km/h
1274 24-04-2010 14:46:01 24.6 C 4.5 g/m*3 24.6 C 0 km/h
1275 24-04-2010 14:58:01 25.3 C 4.68 g/m*3 25.3 C 0 km/h
Sensor: Nr:Datum:Temp:Abs-Feuchte:Windchill:Wind:
Aussen-T/F 1276 24-04-2010 15:10:01 25.8 C 4.82 g/m*3 25.8 C 0 km/h
1277 24-04-2010 15:22:01 24.7 C 4.53 g/m*3 24.7 C 0 km/h
1278 24-04-2010 15:34:02 25.6 C 4.76 g/m*3 25.6 C 0 km/h
1279 24-04-2010 15:46:02 25.6 C 4.76 g/m*3 25.6 C 0 km/h
1280 24-04-2010 15:58:02 26.4 C 4.98 g/m*3 26.4 C 0 km/h
1281 24-04-2010 16:10:01 27.3 C 5.23 g/m*3 27.3 C 0 km/h
1282 24-04-2010 16:22:02 27.9 C 5.41 g/m*3 27.9 C 0 km/h
1283 24-04-2010 16:34:02 27.7 C 5.35 g/m*3 27.7 C 0 km/h
1284 24-04-2010 16:46:01 28.5 C 5.59 g/m*3 28.5 C 0 km/h
1285 24-04-2010 16:58:01 28.9 C 5.71 g/m*3 28.9 C 0 km/h
1286 24-04-2010 17:10:01 28.9 C 5.71 g/m*3 28.9 C 0 km/h
1287 24-04-2010 17:22:01 27.3 C 5.23 g/m*3 27.3 C 0 km/h
1288 24-04-2010 17:34:02 28.3 C 5.53 g/m*3 28.3 C 0 km/h
1289 24-04-2010 17:46:01 29 C 5.74 g/m*3 29 C 0 km/h
1290 24-04-2010 17:58:01 28.8 C 5.68 g/m*3 28.8 C 0 km/h
1291 24-04-2010 18:10:02 28.7 C 5.65 g/m*3 28.7 C 0 km/h
1292 24-04-2010 18:22:01 28.2 C 5.5 g/m*3 28.2 C 0 km/h
1293 24-04-2010 18:34:02 26.9 C 5.12 g/m*3 26.9 C 0 km/h
1294 24-04-2010 18:46:01 27.5 C 5.29 g/m*3 27.5 C 0 km/h
1295 24-04-2010 18:58:01 27.7 C 5.35 g/m*3 27.7 C 0 km/h
1296 24-04-2010 19:10:02 27.2 C 5.2 g/m*3 27.2 C 0 km/h
1297 24-04-2010 19:22:01 26.8 C 5.09 g/m*3 26.8 C 0 km/h
1298 24-04-2010 19:34:02 26.3 C 4.95 g/m*3 26.3 C 0 km/h
1299 24-04-2010 19:46:02 25.9 C 4.84 g/m*3 25.9 C 0 km/h
1300 24-04-2010 19:58:02 25.4 C 4.71 g/m*3 25.4 C 0 km/h
Sensor: Nr:Datum:Temp:Abs-Feuchte:Windchill:Wind:
Aussen-T/F 1301 24-04-2010 20:10:02 24.3 C 4.43 g/m*3 24.3 C 0 km/h
1302 24-04-2010 20:22:02 22.9 C 4.09 g/m*3 22.9 C 0 km/h
1303 24-04-2010 20:34:02 21 C 3.66 g/m*3 21 C 0 km/h
1304 24-04-2010 20:46:02 20 C 3.46 g/m*3 20 C 0 km/h
1305 24-04-2010 20:58:02 19.4 C 3.34 g/m*3 19.4 C 0 km/h
1306 24-04-2010 21:10:02 19.2 C 3.3 g/m*3 19.2 C 0 km/h
1307 24-04-2010 21:22:02 18.4 C 3.15 g/m*3 18.4 C 0 km/h
1308 24-04-2010 21:34:02 18 C 3.07 g/m*3 18 C 0 km/h
1309 24-04-2010 21:46:02 17.5 C 2.98 g/m*3 17.5 C 0 km/h
1310 24-04-2010 21:58:02 16.8 C 2.86 g/m*3 16.8 C 0 km/h
1311 24-04-2010 22:10:02 16.6 C 2.83 g/m*3 16.6 C 0 km/h
1312 24-04-2010 22:22:03 16.5 C 2.95 g/m*3 16.5 C 0 km/h
1313 24-04-2010 22:34:02 16.2 C 3.17 g/m*3 16.2 C 0 km/h
1314 24-04-2010 22:47:03 15.8 C 3.37 g/m*3 15.8 C 0 km/h
1315 24-04-2010 22:59:03 15.3 C 3.4 g/m*3 15.3 C 0 km/h
1316 24-04-2010 23:11:03 14.8 C 3.55 g/m*3 14.8 C 0 km/h
1317 24-04-2010 23:23:03 14.6 C 3.75 g/m*3 14.6 C 0 km/h
1318 24-04-2010 23:35:03 14.1 C 3.76 g/m*3 14.1 C 0 km/h
1319 24-04-2010 23:47:03 13.6 C 3.77 g/m*3 13.6 C 0 km/h
1320 24-04-2010 23:59:04 13.4 C 3.84 g/m*3 13.4 C 0 km/h
1321 25-04-2010 00:11:04 13.1 C 3.88 g/m*3 13.1 C 0 km/h
1322 25-04-2010 00:23:04 12.8 C 3.92 g/m*3 12.8 C 0 km/h
1323 25-04-2010 00:35:04 12.7 C 4.01 g/m*3 12.7 C 0 km/h
1324 25-04-2010 00:47:04 12.2 C 3.99 g/m*3 12.2 C 0 km/h
1325 25-04-2010 00:59:04 12.1 C 4.18 g/m*3 12.1 C 0 km/h
Sensor: Nr:Datum:Temp:Abs-Feuchte:Windchill:Wind:
Aussen-T/F 1326 25-04-2010 01:11:04 11.8 C 4.32 g/m*3 11.8 C 0 km/h
1327 25-04-2010 01:23:04 11.4 C 4.21 g/m*3 11.4 C 0 km/h
1328 25-04-2010 01:35:04 11.1 C 4.13 g/m*3 11.1 C 0 km/h
1329 25-04-2010 01:47:04 11 C 4.2 g/m*3 11 C 0 km/h
1330 25-04-2010 01:59:04 10.7 C 4.42 g/m*3 10.7 C 0 km/h
1331 25-04-2010 02:11:04 10.5 C 4.27 g/m*3 10.5 C 0 km/h
1332 25-04-2010 02:23:04 10.4 C 4.34 g/m*3 10.4 C 0 km/h
1333 25-04-2010 02:35:04 10.1 C 4.26 g/m*3 10.1 C 0 km/h
1334 25-04-2010 02:47:04 9.9 C 4.2 g/m*3 9.9 C 0 km/h
1335 25-04-2010 02:59:04 9.7 C 4.24 g/m*3 9.7 C 0 km/h
1336 25-04-2010 03:11:04 9.3 C 4.22 g/m*3 9.3 C 0 km/h
1337 25-04-2010 03:23:04 9.1 C 4.26 g/m*3 9.1 C 0 km/h
1338 25-04-2010 03:35:04 9 C 4.23 g/m*3 9 C 0 km/h
1339 25-04-2010 03:47:04 8.7 C 4.32 g/m*3 8.7 C 0 km/h
1340 25-04-2010 03:59:05 8.5 C 4.44 g/m*3 8.5 C 0 km/h
1341 25-04-2010 04:11:05 8 C 4.55 g/m*3 8 C 0 km/h
1342 25-04-2010 04:23:05 8 C 4.55 g/m*3 8 C 0 km/h
1343 25-04-2010 04:35:05 7.8 C 4.49 g/m*3 7.8 C 0 km/h
1344 25-04-2010 04:47:05 7.7 C 4.54 g/m*3 7.7 C 0 km/h
1345 25-04-2010 04:59:05 7.6 C 4.51 g/m*3 7.6 C 0 km/h
1346 25-04-2010 05:11:05 7.5 C 4.48 g/m*3 7.5 C 0 km/h
1347 25-04-2010 05:23:05 7.2 C 4.4 g/m*3 7.2 C 0 km/h
1348 25-04-2010 05:35:05 7 C 4.49 g/m*3 7 C 0 km/h
1349 25-04-2010 05:47:05 6.8 C 4.59 g/m*3 6.8 C 0 km/h
1350 25-04-2010 05:59:05 6.7 C 4.56 g/m*3 6.7 C 0 km/h
Sensor: Nr:Datum:Temp:Abs-Feuchte:Windchill:Wind:
Aussen-T/F 1351 25-04-2010 06:11:05 6.4 C 4.55 g/m*3 6.4 C 0 km/h
1352 25-04-2010 06:23:05 6.3 C 4.59 g/m*3 6.3 C 0 km/h
1353 25-04-2010 06:35:05 6.2 C 4.63 g/m*3 6.2 C 0 km/h
1354 25-04-2010 06:47:05 6.2 C 4.63 g/m*3 6.2 C 0 km/h
1355 25-04-2010 06:59:05 6.2 C 4.63 g/m*3 6.2 C 0 km/h
1356 25-04-2010 07:11:04 6.2 C 4.63 g/m*3 6.2 C 0 km/h
1357 25-04-2010 07:23:03 6.3 C 4.74 g/m*3 6.3 C 0 km/h
1358 25-04-2010 07:35:03 6.5 C 4.8 g/m*3 6.5 C 0 km/h
1359 25-04-2010 07:47:02 6.6 C 4.91 g/m*3 6.6 C 0 km/h
1360 25-04-2010 07:59:02 6.7 C 4.86 g/m*3 6.7 C 0 km/h
1361 25-04-2010 08:11:01 7 C 4.88 g/m*3 7 C 0 km/h
1362 25-04-2010 08:23:02 7.3 C 4.9 g/m*3 7.3 C 0 km/h
1363 25-04-2010 08:35:01 7.7 C 4.95 g/m*3 7.7 C 0 km/h
1364 25-04-2010 08:47:01 8.1 C 4.99 g/m*3 8.1 C 0 km/h
1365 25-04-2010 08:59:01 8.5 C 4.95 g/m*3 8.5 C 0 km/h
1366 25-04-2010 09:11:02 9 C 4.94 g/m*3 9 C 0 km/h
1367 25-04-2010 09:23:02 9.6 C 4.86 g/m*3 9.6 C 0 km/h
1368 25-04-2010 09:35:01 10.4 C 5.01 g/m*3 10.4 C 0 km/h
1369 25-04-2010 09:47:02 11.3 C 5.2 g/m*3 11.3 C 0 km/h
1370 25-04-2010 09:59:02 12.2 C 5.18 g/m*3 12.2 C 0 km/h
1371 25-04-2010 10:11:01 13.6 C 5.3 g/m*3 13.6 C 0 km/h
1372 25-04-2010 10:23:02 14.8 C 5.32 g/m*3 14.8 C 0 km/h
1373 25-04-2010 10:35:01 15.9 C 5.28 g/m*3 15.9 C 0 km/h
1374 25-04-2010 10:47:03 16.7 C 5.4 g/m*3 16.7 C 0 km/h
1375 25-04-2010 10:59:03 17.4 C 5.34 g/m*3 17.4 C 0 km/h
Sensor: Nr:Datum:Temp:Abs-Feuchte:Windchill:Wind:
Aussen-T/F 1376 25-04-2010 11:11:02 18.8 C 5.31 g/m*3 18.8 C 0 km/h
1377 25-04-2010 11:23:02 19.8 C 4.27 g/m*3 19.8 C 0 km/h
1378 25-04-2010 11:35:02 20.8 C 3.62 g/m*3 20.8 C 0 km/h
1379 25-04-2010 11:47:02 21.2 C 3.71 g/m*3 21.2 C 0 km/h
1380 25-04-2010 11:59:02 21.7 C 3.82 g/m*3 21.7 C 0 km/h
1381 25-04-2010 12:11:02 22.1 C 3.9 g/m*3 22.1 C 0 km/h
1382 25-04-2010 12:23:02 22.5 C 3.99 g/m*3 22.5 C 0 km/h
1383 25-04-2010 12:35:02 22.5 C 3.99 g/m*3 22.5 C 0 km/h
1384 25-04-2010 12:47:02 22.9 C 4.09 g/m*3 22.9 C 0 km/h
1385 25-04-2010 12:59:02 24 C 4.35 g/m*3 24 C 0 km/h
1386 25-04-2010 13:11:01 24.4 C 4.45 g/m*3 24.4 C 0 km/h
1387 25-04-2010 13:23:02 24.9 C 4.58 g/m*3 24.9 C 0 km/h
1388 25-04-2010 13:35:01 24.8 C 4.55 g/m*3 24.8 C 0 km/h
1389 25-04-2010 13:47:02 25.2 C 4.66 g/m*3 25.2 C 0 km/h
1390 25-04-2010 13:59:02 25.3 C 4.68 g/m*3 25.3 C 0 km/h
1391 25-04-2010 14:11:01 25.9 C 4.84 g/m*3 25.9 C 0 km/h
1392 25-04-2010 14:23:01 25.8 C 4.82 g/m*3 25.8 C 0 km/h
1393 25-04-2010 14:35:01 26.8 C 5.09 g/m*3 26.8 C 0 km/h
1394 25-04-2010 14:47:02 26.8 C 5.09 g/m*3 26.8 C 0 km/h
1395 25-04-2010 14:59:02 27.4 C 5.26 g/m*3 27.4 C 0 km/h
1396 25-04-2010 15:11:02 28.1 C 5.47 g/m*3 28.1 C 0 km/h
1397 25-04-2010 15:23:02 27.8 C 5.38 g/m*3 27.8 C 0 km/h
1398 25-04-2010 15:35:02 28.7 C 5.65 g/m*3 28.7 C 0 km/h
1399 25-04-2010 15:47:02 28.1 C 5.47 g/m*3 28.1 C 0 km/h
1400 25-04-2010 15:59:03 28.5 C 5.59 g/m*3 28.5 C 0 km/h
Sensor: Nr:Datum:Temp:Abs-Feuchte:Windchill:Wind:
Aussen-T/F 1401 25-04-2010 16:11:01 29.1 C 5.78 g/m*3 29.1 C 0 km/h
1402 25-04-2010 16:23:01 28.5 C 5.59 g/m*3 28.5 C 0 km/h
1403 25-04-2010 16:35:02 28.5 C 5.59 g/m*3 28.5 C 0 km/h
1404 25-04-2010 16:47:02 29.9 C 6.03 g/m*3 29.9 C 0 km/h
1405 25-04-2010 16:59:03 30.2 C 6.13 g/m*3 30.2 C 0 km/h
1406 25-04-2010 17:11:02 29.5 C 5.9 g/m*3 29.5 C 0 km/h
1407 25-04-2010 17:23:02 27.5 C 5.29 g/m*3 27.5 C 0 km/h
1408 25-04-2010 17:35:02 26.4 C 4.98 g/m*3 26.4 C 0 km/h
1409 25-04-2010 17:47:02 25.9 C 4.84 g/m*3 25.9 C 0 km/h
1410 25-04-2010 17:59:02 25.7 C 4.79 g/m*3 25.7 C 0 km/h
1411 25-04-2010 18:11:01 25.6 C 4.76 g/m*3 25.6 C 0 km/h
1412 25-04-2010 18:23:01 26 C 4.87 g/m*3 26 C 0 km/h
1413 25-04-2010 18:35:02 26.4 C 4.98 g/m*3 26.4 C 0 km/h
1414 25-04-2010 18:47:02 26.5 C 5.01 g/m*3 26.5 C 0 km/h
1415 25-04-2010 18:59:02 25.3 C 4.68 g/m*3 25.3 C 0 km/h
1416 25-04-2010 19:11:01 24.7 C 4.53 g/m*3 24.7 C 0 km/h
1417 25-04-2010 19:23:02 24.4 C 4.45 g/m*3 24.4 C 0 km/h
1418 25-04-2010 19:35:02 24.1 C 4.38 g/m*3 24.1 C 0 km/h
1419 25-04-2010 19:47:02 23.4 C 4.21 g/m*3 23.4 C 0 km/h
1420 25-04-2010 19:59:02 22.9 C 4.09 g/m*3 22.9 C 0 km/h
1421 25-04-2010 20:11:01 22.3 C 3.95 g/m*3 22.3 C 0 km/h
1422 25-04-2010 20:23:02 21.6 C 3.98 g/m*3 21.6 C 0 km/h
1423 25-04-2010 20:35:01 21 C 3.85 g/m*3 21 C 0 km/h
1424 25-04-2010 20:47:03 20.5 C 4.09 g/m*3 20.5 C 0 km/h
1425 25-04-2010 20:59:03 20.2 C 4.37 g/m*3 20.2 C 0 km/h
Sensor: Nr:Datum:Temp:Abs-Feuchte:Windchill:Wind:
Aussen-T/F 1426 25-04-2010 21:11:02 19.9 C 4.3 g/m*3 19.9 C 0 km/h
1427 25-04-2010 21:23:02 19.5 C 4.36 g/m*3 19.5 C 0 km/h
1428 25-04-2010 21:35:02 19.2 C 4.45 g/m*3 19.2 C 0 km/h
1429 25-04-2010 21:47:02 19.1 C 4.75 g/m*3 19.1 C 0 km/h
1430 25-04-2010 21:59:02 19.1 C 4.59 g/m*3 19.1 C 0 km/h
1431 25-04-2010 22:11:02 19 C 4.73 g/m*3 19 C 0 km/h
1432 25-04-2010 22:23:02 18.8 C 4.83 g/m*3 18.8 C 0 km/h
1433 25-04-2010 22:35:02 18.5 C 5.06 g/m*3 18.5 C 0 km/h
1434 25-04-2010 22:47:02 18.5 C 4.9 g/m*3 18.5 C 0 km/h
1435 25-04-2010 22:59:02 18 C 5.07 g/m*3 18 C 0 km/h
1436 25-04-2010 23:11:02 18.6 C 5.41 g/m*3 18.6 C 0 km/h
1437 25-04-2010 23:23:02 18.6 C 5.73 g/m*3 18.6 C 0 km/h
1438 25-04-2010 23:35:02 18.2 C 5.75 g/m*3 18.2 C 0 km/h
1439 25-04-2010 23:47:02 18 C 5.99 g/m*3 18 C 0 km/h
1440 25-04-2010 23:59:02 17.5 C 5.96 g/m*3 17.5 C 0 km/h
1441 26-04-2010 00:11:02 17.3 C 6.04 g/m*3 17.3 C 0 km/h
1442 26-04-2010 00:23:02 17 C 6.22 g/m*3 17 C 0 km/h
1443 26-04-2010 00:35:02 17.2 C 6 g/m*3 17.2 C 0 km/h
1444 26-04-2010 00:47:02 17.1 C 5.82 g/m*3 17.1 C 0 km/h
1445 26-04-2010 00:59:03 16.9 C 5.75 g/m*3 16.9 C 0 km/h
1446 26-04-2010 01:11:03 16.7 C 5.83 g/m*3 16.7 C 0 km/h
1447 26-04-2010 01:23:03 16.4 C 5.86 g/m*3 16.4 C 0 km/h
1448 26-04-2010 01:35:03 16.1 C 6.03 g/m*3 16.1 C 0 km/h
1449 26-04-2010 01:47:03 15.9 C 6.09 g/m*3 15.9 C 0 km/h
1450 26-04-2010 01:59:03 16 C 6.13 g/m*3 16 C 0 km/h
Sensor: Nr:Datum:Temp:Abs-Feuchte:Windchill:Wind:
Aussen-T/F 1451 26-04-2010 02:11:03 14.6 C 7.38 g/m*3 14.6 C 0 km/h
1452 26-04-2010 02:23:03 13.3 C 8.43 g/m*3 13.3 C 0 km/h
1453 26-04-2010 02:35:03 13 C 8.96 g/m*3 13 C 0 km/h
1454 26-04-2010 02:47:03 12.5 C 9.02 g/m*3 12.5 C 0 km/h
1455 26-04-2010 02:59:03 12.7 C 9.24 g/m*3 12.7 C 0 km/h
1456 26-04-2010 03:11:03 12.4 C 9.07 g/m*3 12.4 C 0 km/h
1457 26-04-2010 03:23:03 12.6 C 9.18 g/m*3 12.6 C 0 km/h
1458 26-04-2010 03:35:03 12.7 C 9.13 g/m*3 12.7 C 0 km/h
1459 26-04-2010 03:47:03 12.8 C 8.96 g/m*3 12.8 C 0 km/h
1460 26-04-2010 03:59:03 12.7 C 8.79 g/m*3 12.7 C 0 km/h
1461 26-04-2010 04:11:03 12.4 C 8.63 g/m*3 12.4 C 0 km/h
1462 26-04-2010 04:23:03 12.3 C 8.58 g/m*3 12.3 C 0 km/h
1463 26-04-2010 04:35:03 12.2 C 8.52 g/m*3 12.2 C 0 km/h
1464 26-04-2010 04:47:03 12.2 C 8.52 g/m*3 12.2 C 0 km/h
1465 26-04-2010 04:59:04 12.2 C 8.52 g/m*3 12.2 C 0 km/h
1466 26-04-2010 05:11:04 11.8 C 8.42 g/m*3 11.8 C 0 km/h
1467 26-04-2010 05:23:04 11.6 C 8.42 g/m*3 11.6 C 0 km/h
1468 26-04-2010 05:35:04 11.5 C 8.37 g/m*3 11.5 C 0 km/h
1469 26-04-2010 05:47:04 11.6 C 8.52 g/m*3 11.6 C 0 km/h
1470 26-04-2010 05:59:04 11.2 C 8.31 g/m*3 11.2 C 0 km/h
1471 26-04-2010 06:11:04 11.1 C 8.36 g/m*3 11.1 C 0 km/h
1472 26-04-2010 06:23:04 11 C 8.31 g/m*3 11 C 0 km/h
1473 26-04-2010 06:35:04 10.8 C 8.2 g/m*3 10.8 C 0 km/h
1474 26-04-2010 06:47:01 10.7 C 8.15 g/m*3 10.7 C 0 km/h
1475 26-04-2010 06:59:01 10.7 C 8.25 g/m*3 10.7 C 0 km/h
Sensor: Nr:Datum:Temp:Abs-Feuchte:Windchill:Wind:
Aussen-T/F 1476 26-04-2010 07:11:01 11.1 C 8.36 g/m*3 11.1 C 0 km/h
1477 26-04-2010 07:23:02 10.9 C 8.16 g/m*3 10.9 C 0 km/h
1478 26-04-2010 07:35:01 10.8 C 8.11 g/m*3 10.8 C 0 km/h
1479 26-04-2010 07:47:02 10.7 C 8.15 g/m*3 10.7 C 0 km/h
1480 26-04-2010 07:59:02 11.2 C 8.41 g/m*3 11.2 C 0 km/h
1481 26-04-2010 08:11:01 11.2 C 8.31 g/m*3 11.2 C 0 km/h
1482 26-04-2010 08:23:01 11.5 C 8.47 g/m*3 11.5 C 0 km/h
1483 26-04-2010 08:35:02 12 C 8.42 g/m*3 12 C 0 km/h
1484 26-04-2010 08:47:01 12.4 C 8.19 g/m*3 12.4 C 0 km/h
1485 26-04-2010 08:59:01 12.7 C 7.9 g/m*3 12.7 C 0 km/h
1486 26-04-2010 09:11:01 12.4 C 7.32 g/m*3 12.4 C 0 km/h
1487 26-04-2010 09:23:01 12.8 C 7.39 g/m*3 12.8 C 0 km/h
1488 26-04-2010 09:35:02 13.1 C 7.19 g/m*3 13.1 C 0 km/h
1489 26-04-2010 09:47:01 13.2 C 7.12 g/m*3 13.2 C 0 km/h
1490 26-04-2010 09:59:01 13.3 C 6.82 g/m*3 13.3 C 0 km/h
1491 26-04-2010 10:11:02 13.7 C 7.34 g/m*3 13.7 C 0 km/h
1492 26-04-2010 10:23:01 14.3 C 7 g/m*3 14.3 C 0 km/h
1493 26-04-2010 10:35:02 14.9 C 7.01 g/m*3 14.9 C 0 km/h
1494 26-04-2010 10:47:01 15 C 6.8 g/m*3 15 C 0 km/h
1495 26-04-2010 10:59:01 15.2 C 6.75 g/m*3 15.2 C 0 km/h
1496 26-04-2010 11:11:01 15.5 C 6.74 g/m*3 15.5 C 0 km/h
1497 26-04-2010 11:23:01 15.8 C 6.87 g/m*3 15.8 C 0 km/h
1498 26-04-2010 11:35:02 16 C 6.54 g/m*3 16 C 0 km/h
1499 26-04-2010 11:47:01 16.1 C 6.44 g/m*3 16.1 C 0 km/h
1500 26-04-2010 11:59:01 16.2 C 6.48 g/m*3 16.2 C 0 km/h
Sensor: Nr:Datum:Temp:Abs-Feuchte:Windchill:Wind:
Aussen-T/F 1501 26-04-2010 12:11:02 16.5 C 6.46 g/m*3 16.5 C 0 km/h
1502 26-04-2010 12:23:01 17.8 C 6.98 g/m*3 17.8 C 0 km/h
1503 26-04-2010 12:35:02 18 C 6.14 g/m*3 18 C 0 km/h
1504 26-04-2010 12:47:01 17.7 C 6.34 g/m*3 17.7 C 0 km/h
1505 26-04-2010 12:59:01 17.7 C 6.49 g/m*3 17.7 C 0 km/h
1506 26-04-2010 13:11:02 18.1 C 6.49 g/m*3 18.1 C 0 km/h
1507 26-04-2010 13:23:01 19.1 C 6.56 g/m*3 19.1 C 0 km/h
1508 26-04-2010 13:35:02 20.2 C 6.29 g/m*3 20.2 C 0 km/h
1509 26-04-2010 13:47:01 19.5 C 6.04 g/m*3 19.5 C 0 km/h
1510 26-04-2010 13:59:01 18.1 C 6.18 g/m*3 18.1 C 0 km/h
1511 26-04-2010 14:11:02 18.3 C 6.41 g/m*3 18.3 C 0 km/h
1512 26-04-2010 14:23:01 19.4 C 6.51 g/m*3 19.4 C 0 km/h
1513 26-04-2010 14:35:02 20 C 6.05 g/m*3 20 C 0 km/h
1514 26-04-2010 14:47:01 20.5 C 6.23 g/m*3 20.5 C 0 km/h
1515 26-04-2010 14:59:01 19.1 C 6.07 g/m*3 19.1 C 0 km/h
1516 26-04-2010 15:11:02 19.2 C 6.1 g/m*3 19.2 C 0 km/h
1517 26-04-2010 15:23:01 19.4 C 6.01 g/m*3 19.4 C 0 km/h
1518 26-04-2010 15:35:01 19.5 C 5.87 g/m*3 19.5 C 0 km/h
1519 26-04-2010 15:47:01 19.4 C 5.84 g/m*3 19.4 C 0 km/h
1520 26-04-2010 15:59:01 18.4 C 5.35 g/m*3 18.4 C 0 km/h
1521 26-04-2010 16:11:02 20.2 C 5.6 g/m*3 20.2 C 0 km/h
1522 26-04-2010 16:23:01 19.8 C 5.3 g/m*3 19.8 C 0 km/h
1523 26-04-2010 16:35:01 19.3 C 5.31 g/m*3 19.3 C 0 km/h
1524 26-04-2010 16:47:01 19.6 C 5.4 g/m*3 19.6 C 0 km/h
1525 26-04-2010 16:59:01 19.5 C 5.37 g/m*3 19.5 C 0 km/h
Sensor: Nr:Datum:Temp:Abs-Feuchte:Windchill:Wind:
Aussen-T/F 1526 26-04-2010 17:11:02 21.2 C 5.37 g/m*3 21.2 C 0 km/h
1527 26-04-2010 17:23:01 22.3 C 5.13 g/m*3 22.3 C 0 km/h
1528 26-04-2010 17:35:01 21.5 C 5.09 g/m*3 21.5 C 0 km/h
1529 26-04-2010 17:47:01 20.1 C 5.04 g/m*3 20.1 C 0 km/h
1530 26-04-2010 17:59:01 19.3 C 5.31 g/m*3 19.3 C 0 km/h
1531 26-04-2010 18:11:02 19.1 C 5.57 g/m*3 19.1 C 0 km/h
1532 26-04-2010 18:23:01 19 C 5.54 g/m*3 19 C 0 km/h
1533 26-04-2010 18:35:01 18.9 C 5.51 g/m*3 18.9 C 0 km/h
1534 26-04-2010 18:47:01 19.7 C 5.6 g/m*3 19.7 C 0 km/h
1535 26-04-2010 18:59:01 20.2 C 5.25 g/m*3 20.2 C 0 km/h
1536 26-04-2010 19:11:02 19.5 C 5.37 g/m*3 19.5 C 0 km/h
1537 26-04-2010 19:23:01 18.7 C 5.44 g/m*3 18.7 C 0 km/h
1538 26-04-2010 19:35:01 18.3 C 5.63 g/m*3 18.3 C 0 km/h
1539 26-04-2010 19:47:01 18.2 C 5.44 g/m*3 18.2 C 0 km/h
1540 26-04-2010 19:59:01 18.5 C 5.7 g/m*3 18.5 C 0 km/h
1541 26-04-2010 20:11:01 18.8 C 5.64 g/m*3 18.8 C 0 km/h
1542 26-04-2010 20:23:01 18.1 C 5.56 g/m*3 18.1 C 0 km/h
1543 26-04-2010 20:35:01 17.1 C 5.39 g/m*3 17.1 C 0 km/h
1544 26-04-2010 20:47:01 16.7 C 5.68 g/m*3 16.7 C 0 km/h
1545 26-04-2010 20:59:01 16.2 C 5.52 g/m*3 16.2 C 0 km/h
1546 26-04-2010 21:11:01 16.1 C 5.35 g/m*3 16.1 C 0 km/h
1547 26-04-2010 21:23:01 15.9 C 5.55 g/m*3 15.9 C 0 km/h
1548 26-04-2010 21:35:01 15.8 C 5.52 g/m*3 15.8 C 0 km/h
1549 26-04-2010 21:47:01 15.8 C 5.65 g/m*3 15.8 C 0 km/h
1550 26-04-2010 21:59:01 15.7 C 5.62 g/m*3 15.7 C 0 km/h
Sensor: Nr:Datum:Temp:Abs-Feuchte:Windchill:Wind:
Aussen-T/F 1551 26-04-2010 22:11:02 15.6 C 5.72 g/m*3 15.6 C 0 km/h
1552 26-04-2010 22:23:01 15.4 C 5.78 g/m*3 15.4 C 0 km/h
1553 26-04-2010 22:35:02 15.4 C 5.65 g/m*3 15.4 C 0 km/h
1554 26-04-2010 22:49:05 15.2 C 5.71 g/m*3 15.2 C 0 km/h
1555 26-04-2010 23:01:05 15.2 C 5.84 g/m*3 15.2 C 0 km/h
1556 26-04-2010 23:13:05 15.1 C 5.81 g/m*3 15.1 C 0 km/h
1557 26-04-2010 23:25:05 14.6 C 6.01 g/m*3 14.6 C 0 km/h
1558 26-04-2010 23:37:05 14.2 C 5.98 g/m*3 14.2 C 0 km/h
1559 26-04-2010 23:49:05 14.1 C 5.95 g/m*3 14.1 C 0 km/h
1560 27-04-2010 00:01:05 14 C 6.03 g/m*3 14 C 0 km/h
1561 27-04-2010 00:13:05 13.7 C 6.04 g/m*3 13.7 C 0 km/h
1562 27-04-2010 00:25:05 13.7 C 6.16 g/m*3 13.7 C 0 km/h
1563 27-04-2010 00:37:06 13.5 C 6.08 g/m*3 13.5 C 0 km/h
1564 27-04-2010 00:49:06 13.6 C 6.24 g/m*3 13.6 C 0 km/h
1565 27-04-2010 01:01:06 13.6 C 6.24 g/m*3 13.6 C 0 km/h
1566 27-04-2010 01:13:06 13.4 C 6.16 g/m*3 13.4 C 0 km/h
1567 27-04-2010 01:25:06 13.4 C 6.28 g/m*3 13.4 C 0 km/h
1568 27-04-2010 01:37:06 13.2 C 6.2 g/m*3 13.2 C 0 km/h
1569 27-04-2010 01:49:06 12.9 C 6.31 g/m*3 12.9 C 0 km/h
1570 27-04-2010 02:01:06 13 C 6.35 g/m*3 13 C 0 km/h
1571 27-04-2010 02:13:06 13 C 6.46 g/m*3 13 C 0 km/h
1572 27-04-2010 02:25:06 12.6 C 6.42 g/m*3 12.6 C 0 km/h
1573 27-04-2010 02:37:06 12.4 C 6.45 g/m*3 12.4 C 0 km/h
1574 27-04-2010 02:49:06 12 C 6.5 g/m*3 12 C 0 km/h
1575 27-04-2010 03:01:06 11.8 C 6.53 g/m*3 11.8 C 0 km/h
Sensor: Nr:Datum:Temp:Abs-Feuchte:Windchill:Wind:
Aussen-T/F 1576 27-04-2010 03:13:06 11.6 C 6.55 g/m*3 11.6 C 0 km/h
1577 27-04-2010 03:25:06 11.2 C 6.49 g/m*3 11.2 C 0 km/h
1578 27-04-2010 03:37:06 10.9 C 6.56 g/m*3 10.9 C 0 km/h
1579 27-04-2010 03:49:06 10.8 C 6.52 g/m*3 10.8 C 0 km/h
1580 27-04-2010 04:01:06 10.8 C 6.62 g/m*3 10.8 C 0 km/h
1581 27-04-2010 04:13:06 10.6 C 6.44 g/m*3 10.6 C 0 km/h
1582 27-04-2010 04:25:06 10.3 C 6.42 g/m*3 10.3 C 0 km/h
1583 27-04-2010 04:37:07 10.1 C 6.52 g/m*3 10.1 C 0 km/h
1584 27-04-2010 04:49:07 9.8 C 6.68 g/m*3 9.8 C 0 km/h
1585 27-04-2010 05:01:07 9.6 C 6.6 g/m*3 9.6 C 0 km/h
1586 27-04-2010 05:13:07 9.4 C 6.6 g/m*3 9.4 C 0 km/h
1587 27-04-2010 05:25:07 9.2 C 6.61 g/m*3 9.2 C 0 km/h
1588 27-04-2010 05:37:07 9 C 6.52 g/m*3 9 C 0 km/h
1589 27-04-2010 05:49:07 8.7 C 6.49 g/m*3 8.7 C 0 km/h
1590 27-04-2010 06:01:07 8.8 C 6.61 g/m*3 8.8 C 0 km/h
1591 27-04-2010 06:13:07 8.4 C 6.62 g/m*3 8.4 C 0 km/h
1592 27-04-2010 06:25:07 8.2 C 6.62 g/m*3 8.2 C 0 km/h
1593 27-04-2010 06:37:05 8.1 C 6.57 g/m*3 8.1 C 0 km/h
1594 27-04-2010 06:49:01 8.1 C 6.66 g/m*3 8.1 C 0 km/h
1595 27-04-2010 07:01:02 8.1 C 6.74 g/m*3 8.1 C 0 km/h
1596 27-04-2010 07:13:02 8.1 C 6.74 g/m*3 8.1 C 0 km/h
1597 27-04-2010 07:25:02 8 C 6.7 g/m*3 8 C 0 km/h
1598 27-04-2010 07:37:02 8.2 C 6.78 g/m*3 8.2 C 0 km/h
1599 27-04-2010 07:49:01 8.6 C 6.96 g/m*3 8.6 C 0 km/h
1600 27-04-2010 08:01:02 8.6 C 6.87 g/m*3 8.6 C 0 km/h
Sensor: Nr:Datum:Temp:Abs-Feuchte:Windchill:Wind:
Aussen-T/F 1601 27-04-2010 08:13:02 8.9 C 6.92 g/m*3 8.9 C 0 km/h
1602 27-04-2010 08:25:01 9.2 C 6.88 g/m*3 9.2 C 0 km/h
1603 27-04-2010 08:37:02 9.2 C 6.88 g/m*3 9.2 C 0 km/h
1604 27-04-2010 08:49:02 9.7 C 7.01 g/m*3 9.7 C 0 km/h
1605 27-04-2010 09:01:02 10.1 C 7 g/m*3 10.1 C 0 km/h
1606 27-04-2010 09:13:02 10.6 C 7.03 g/m*3 10.6 C 0 km/h
1607 27-04-2010 09:25:01 11.1 C 7.05 g/m*3 11.1 C 0 km/h
1608 27-04-2010 09:37:02 11.8 C 7.37 g/m*3 11.8 C 0 km/h
1609 27-04-2010 09:49:01 12.4 C 7.32 g/m*3 12.4 C 0 km/h
1610 27-04-2010 10:01:02 13 C 7.14 g/m*3 13 C 0 km/h
1611 27-04-2010 10:13:02 13.6 C 7.06 g/m*3 13.6 C 0 km/h
1612 27-04-2010 10:25:02 14.1 C 6.92 g/m*3 14.1 C 0 km/h
1613 27-04-2010 10:37:02 14.3 C 6.76 g/m*3 14.3 C 0 km/h
1614 27-04-2010 10:49:01 14 C 6.27 g/m*3 14 C 0 km/h
1615 27-04-2010 11:01:02 14.6 C 6.51 g/m*3 14.6 C 0 km/h
1616 27-04-2010 11:13:02 15.3 C 6.53 g/m*3 15.3 C 0 km/h
1617 27-04-2010 11:25:02 16.1 C 6.44 g/m*3 16.1 C 0 km/h
1618 27-04-2010 11:37:02 16.9 C 6.62 g/m*3 16.9 C 0 km/h
1619 27-04-2010 11:49:01 17.4 C 6.52 g/m*3 17.4 C 0 km/h
1620 27-04-2010 12:01:02 18.1 C 6.49 g/m*3 18.1 C 0 km/h
1621 27-04-2010 12:13:02 17.8 C 6.37 g/m*3 17.8 C 0 km/h
1622 27-04-2010 12:25:02 18.8 C 6.44 g/m*3 18.8 C 0 km/h
1623 27-04-2010 12:37:02 19.3 C 6.14 g/m*3 19.3 C 0 km/h
1624 27-04-2010 12:49:01 18.6 C 5.73 g/m*3 18.6 C 0 km/h
1625 27-04-2010 13:01:02 19.1 C 5.74 g/m*3 19.1 C 0 km/h
Sensor: Nr:Datum:Temp:Abs-Feuchte:Windchill:Wind:
Aussen-T/F 1626 27-04-2010 13:13:02 19.7 C 5.94 g/m*3 19.7 C 0 km/h
1627 27-04-2010 13:25:02 21 C 5.68 g/m*3 21 C 0 km/h
1628 27-04-2010 13:37:01 20.9 C 5.28 g/m*3 20.9 C 0 km/h
1629 27-04-2010 13:49:02 21 C 4.95 g/m*3 21 C 0 km/h
1630 27-04-2010 14:01:01 21.3 C 4.85 g/m*3 21.3 C 0 km/h
1631 27-04-2010 14:13:01 22.1 C 4.88 g/m*3 22.1 C 0 km/h
1632 27-04-2010 14:25:02 21.9 C 5.21 g/m*3 21.9 C 0 km/h
1633 27-04-2010 14:37:01 21.8 C 4.8 g/m*3 21.8 C 0 km/h
1634 27-04-2010 14:49:02 20 C 4.84 g/m*3 20 C 0 km/h
1635 27-04-2010 15:01:01 21.5 C 4.9 g/m*3 21.5 C 0 km/h
1636 27-04-2010 15:13:01 23.9 C 4.98 g/m*3 23.9 C 0 km/h
1637 27-04-2010 15:25:02 22.6 C 4.22 g/m*3 22.6 C 0 km/h
1638 27-04-2010 15:37:01 23.2 C 4.78 g/m*3 23.2 C 0 km/h
1639 27-04-2010 15:49:03 21.9 C 4.25 g/m*3 21.9 C 0 km/h
1640 27-04-2010 16:01:02 22.5 C 4.39 g/m*3 22.5 C 0 km/h
1641 27-04-2010 16:13:02 22.6 C 4.02 g/m*3 22.6 C 0 km/h
1642 27-04-2010 16:25:02 23.3 C 4.39 g/m*3 23.3 C 0 km/h
1643 27-04-2010 16:37:02 23.9 C 4.33 g/m*3 23.9 C 0 km/h
1644 27-04-2010 16:49:02 23.7 C 4.28 g/m*3 23.7 C 0 km/h
1645 27-04-2010 17:01:02 24.2 C 4.4 g/m*3 24.2 C 0 km/h
1646 27-04-2010 17:13:02 22.7 C 4.24 g/m*3 22.7 C 0 km/h
1647 27-04-2010 17:25:02 24 C 4.35 g/m*3 24 C 0 km/h
1648 27-04-2010 17:37:02 23.8 C 4.3 g/m*3 23.8 C 0 km/h
1649 27-04-2010 17:49:02 23.1 C 4.13 g/m*3 23.1 C 0 km/h
1650 27-04-2010 18:01:02 24.2 C 4.4 g/m*3 24.2 C 0 km/h
Sensor: Nr:Datum:Temp:Abs-Feuchte:Windchill:Wind:
Aussen-T/F 1651 27-04-2010 18:13:02 24.1 C 4.38 g/m*3 24.1 C 0 km/h
1652 27-04-2010 18:25:02 23.2 C 4.16 g/m*3 23.2 C 0 km/h
1653 27-04-2010 18:37:01 22.4 C 3.97 g/m*3 22.4 C 0 km/h
1654 27-04-2010 18:49:02 22.2 C 3.93 g/m*3 22.2 C 0 km/h
1655 27-04-2010 19:01:01 21.3 C 3.73 g/m*3 21.3 C 0 km/h
1656 27-04-2010 19:13:01 21.3 C 4.1 g/m*3 21.3 C 0 km/h
1657 27-04-2010 19:25:02 20.6 C 4.12 g/m*3 20.6 C 0 km/h
1658 27-04-2010 19:37:01 20.2 C 4.37 g/m*3 20.2 C 0 km/h
1659 27-04-2010 19:49:02 20 C 4.67 g/m*3 20 C 0 km/h
1660 27-04-2010 20:01:01 19.7 C 4.92 g/m*3 19.7 C 0 km/h
1661 27-04-2010 20:13:01 19.3 C 4.98 g/m*3 19.3 C 0 km/h
1662 27-04-2010 20:25:02 18.4 C 5.03 g/m*3 18.4 C 0 km/h
1663 27-04-2010 20:37:01 17.5 C 5.22 g/m*3 17.5 C 0 km/h
1664 27-04-2010 20:49:02 16.8 C 5 g/m*3 16.8 C 0 km/h
1665 27-04-2010 21:01:02 16.3 C 4.99 g/m*3 16.3 C 0 km/h
1666 27-04-2010 21:13:02 15.9 C 5.01 g/m*3 15.9 C 0 km/h
1667 27-04-2010 21:25:02 15.5 C 5.02 g/m*3 15.5 C 0 km/h
1668 27-04-2010 21:37:02 15.2 C 4.93 g/m*3 15.2 C 0 km/h
1669 27-04-2010 21:50:02 15.1 C 5.16 g/m*3 15.1 C 0 km/h
1670 27-04-2010 22:02:02 14.9 C 5.23 g/m*3 14.9 C 0 km/h
1671 27-04-2010 22:14:02 14.7 C 5.16 g/m*3 14.7 C 0 km/h
1672 27-04-2010 22:26:02 14.4 C 5.19 g/m*3 14.4 C 0 km/h
1673 27-04-2010 22:38:02 14.2 C 5.13 g/m*3 14.2 C 0 km/h
1674 27-04-2010 22:50:02 14 C 5.19 g/m*3 14 C 0 km/h
1675 27-04-2010 23:02:03 13.7 C 5.33 g/m*3 13.7 C 0 km/h
Sensor: Nr:Datum:Temp:Abs-Feuchte:Windchill:Wind:
Aussen-T/F 1676 27-04-2010 23:14:03 13.4 C 5.35 g/m*3 13.4 C 0 km/h
1677 27-04-2010 23:26:03 13.1 C 5.36 g/m*3 13.1 C 0 km/h
1678 27-04-2010 23:38:03 12.7 C 5.34 g/m*3 12.7 C 0 km/h
1679 27-04-2010 23:50:03 12.6 C 5.42 g/m*3 12.6 C 0 km/h
1680 28-04-2010 00:02:03 12.5 C 5.5 g/m*3 12.5 C 0 km/h
1681 28-04-2010 00:14:03 12.3 C 5.43 g/m*3 12.3 C 0 km/h
1682 28-04-2010 00:26:03 12.2 C 5.5 g/m*3 12.2 C 0 km/h
1683 28-04-2010 00:38:03 12 C 5.54 g/m*3 12 C 0 km/h
1684 28-04-2010 00:50:03 11.9 C 5.61 g/m*3 11.9 C 0 km/h
1685 28-04-2010 01:02:03 11.7 C 5.65 g/m*3 11.7 C 0 km/h
1686 28-04-2010 01:14:03 11.5 C 5.58 g/m*3 11.5 C 0 km/h
1687 28-04-2010 01:26:03 11.1 C 5.74 g/m*3 11.1 C 0 km/h
1688 28-04-2010 01:38:03 10.8 C 5.83 g/m*3 10.8 C 0 km/h
1689 28-04-2010 01:50:03 10.8 C 5.83 g/m*3 10.8 C 0 km/h
1690 28-04-2010 02:02:03 10.8 C 5.83 g/m*3 10.8 C 0 km/h
1691 28-04-2010 02:14:03 10.7 C 5.8 g/m*3 10.7 C 0 km/h
1692 28-04-2010 02:26:03 10.5 C 5.82 g/m*3 10.5 C 0 km/h
1693 28-04-2010 02:38:03 10.3 C 5.75 g/m*3 10.3 C 0 km/h
1694 28-04-2010 02:50:03 10.1 C 5.67 g/m*3 10.1 C 0 km/h
1695 28-04-2010 03:02:04 9.9 C 5.79 g/m*3 9.9 C 0 km/h
1696 28-04-2010 03:14:04 9.8 C 5.75 g/m*3 9.8 C 0 km/h
1697 28-04-2010 03:26:04 9.7 C 5.81 g/m*3 9.7 C 0 km/h
1698 28-04-2010 03:38:04 9.5 C 5.83 g/m*3 9.5 C 0 km/h
1699 28-04-2010 03:50:04 9.3 C 5.84 g/m*3 9.3 C 0 km/h
1700 28-04-2010 04:02:04 9.1 C 5.86 g/m*3 9.1 C 0 km/h
Sensor: Nr:Datum:Temp:Abs-Feuchte:Windchill:Wind:
Aussen-T/F 1701 28-04-2010 04:14:04 8.9 C 5.96 g/m*3 8.9 C 0 km/h
1702 28-04-2010 04:26:04 8.7 C 5.97 g/m*3 8.7 C 0 km/h
1703 28-04-2010 04:38:04 8.5 C 5.98 g/m*3 8.5 C 0 km/h
1704 28-04-2010 04:50:04 8.3 C 5.9 g/m*3 8.3 C 0 km/h
1705 28-04-2010 05:02:04 8.2 C 5.95 g/m*3 8.2 C 0 km/h
1706 28-04-2010 05:14:04 7.9 C 5.91 g/m*3 7.9 C 0 km/h
1707 28-04-2010 05:26:04 7.9 C 5.91 g/m*3 7.9 C 0 km/h
1708 28-04-2010 05:38:04 7.7 C 5.84 g/m*3 7.7 C 0 km/h
1709 28-04-2010 05:50:04 7.6 C 5.8 g/m*3 7.6 C 0 km/h
1710 28-04-2010 06:02:04 7.5 C 5.76 g/m*3 7.5 C 0 km/h
1711 28-04-2010 06:14:04 7.3 C 5.77 g/m*3 7.3 C 0 km/h
1712 28-04-2010 06:26:04 7.2 C 5.81 g/m*3 7.2 C 0 km/h
1713 28-04-2010 06:38:04 7.1 C 5.85 g/m*3 7.1 C 0 km/h
1714 28-04-2010 06:50:04 7.1 C 5.85 g/m*3 7.1 C 0 km/h
1715 28-04-2010 07:02:01 7.2 C 5.89 g/m*3 7.2 C 0 km/h
1716 28-04-2010 07:14:01 7.3 C 6 g/m*3 7.3 C 0 km/h
1717 28-04-2010 07:26:02 7.4 C 5.96 g/m*3 7.4 C 0 km/h
1718 28-04-2010 07:38:01 7.6 C 6.12 g/m*3 7.6 C 0 km/h
1719 28-04-2010 07:50:02 7.7 C 6.08 g/m*3 7.7 C 0 km/h
1720 28-04-2010 08:02:01 7.9 C 6.16 g/m*3 7.9 C 0 km/h
1721 28-04-2010 08:14:01 8 C 6.04 g/m*3 8 C 0 km/h
1722 28-04-2010 08:26:02 8.2 C 6.11 g/m*3 8.2 C 0 km/h
1723 28-04-2010 08:38:01 8.6 C 6.19 g/m*3 8.6 C 0 km/h
1724 28-04-2010 08:50:02 8.8 C 6.18 g/m*3 8.8 C 0 km/h
1725 28-04-2010 09:02:02 9.2 C 6.16 g/m*3 9.2 C 0 km/h
Sensor: Nr:Datum:Temp:Abs-Feuchte:Windchill:Wind:
Aussen-T/F 1726 28-04-2010 09:14:02 9.8 C 6.31 g/m*3 9.8 C 0 km/h
1727 28-04-2010 09:26:02 10.5 C 6.4 g/m*3 10.5 C 0 km/h
1728 28-04-2010 09:38:02 11.1 C 6.45 g/m*3 11.1 C 0 km/h
1729 28-04-2010 09:50:02 11.7 C 6.38 g/m*3 11.7 C 0 km/h
1730 28-04-2010 10:02:02 12.4 C 6.56 g/m*3 12.4 C 0 km/h
1731 28-04-2010 10:14:02 13.2 C 6.43 g/m*3 13.2 C 0 km/h
1732 28-04-2010 10:26:02 13.8 C 6.43 g/m*3 13.8 C 0 km/h
1733 28-04-2010 10:38:02 14.8 C 6.21 g/m*3 14.8 C 0 km/h
1734 28-04-2010 10:50:02 15.6 C 6.12 g/m*3 15.6 C 0 km/h
1735 28-04-2010 11:02:01 16.3 C 5.97 g/m*3 16.3 C 0 km/h
1736 28-04-2010 11:14:01 17.3 C 6.19 g/m*3 17.3 C 0 km/h
1737 28-04-2010 11:26:02 18 C 6.14 g/m*3 18 C 0 km/h
1738 28-04-2010 11:38:01 18.4 C 5.82 g/m*3 18.4 C 0 km/h
1739 28-04-2010 11:50:03 18.8 C 5.31 g/m*3 18.8 C 0 km/h
1740 28-04-2010 12:02:02 19.1 C 5.25 g/m*3 19.1 C 0 km/h
1741 28-04-2010 12:14:02 19.7 C 4.58 g/m*3 19.7 C 0 km/h
1742 28-04-2010 12:26:02 20 C 4.49 g/m*3 20 C 0 km/h
1743 28-04-2010 12:38:02 20.6 C 4.47 g/m*3 20.6 C 0 km/h
1744 28-04-2010 12:50:02 21.1 C 4.24 g/m*3 21.1 C 0 km/h
1745 28-04-2010 13:02:01 21.4 C 4.12 g/m*3 21.4 C 0 km/h
1746 28-04-2010 13:14:01 22.6 C 4.02 g/m*3 22.6 C 0 km/h
1747 28-04-2010 13:26:02 23.5 C 4.23 g/m*3 23.5 C 0 km/h
1748 28-04-2010 13:38:01 23.3 C 4.18 g/m*3 23.3 C 0 km/h
1749 28-04-2010 13:50:02 23.5 C 4.23 g/m*3 23.5 C 0 km/h
1750 28-04-2010 14:02:01 24.1 C 4.38 g/m*3 24.1 C 0 km/h
Sensor: Nr:Datum:Temp:Abs-Feuchte:Windchill:Wind:
Aussen-T/F 1751 28-04-2010 14:14:01 24.6 C 4.5 g/m*3 24.6 C 0 km/h
1752 28-04-2010 14:26:02 24.9 C 4.58 g/m*3 24.9 C 0 km/h
1753 28-04-2010 14:38:01 24.5 C 4.48 g/m*3 24.5 C 0 km/h
1754 28-04-2010 14:50:02 24.7 C 4.53 g/m*3 24.7 C 0 km/h
1755 28-04-2010 15:02:02 25.8 C 4.82 g/m*3 25.8 C 0 km/h
1756 28-04-2010 15:14:02 25.5 C 4.73 g/m*3 25.5 C 0 km/h
1757 28-04-2010 15:26:02 25.8 C 4.82 g/m*3 25.8 C 0 km/h
1758 28-04-2010 15:38:02 26.4 C 4.98 g/m*3 26.4 C 0 km/h
1759 28-04-2010 15:50:02 26.6 C 5.03 g/m*3 26.6 C 0 km/h
1760 28-04-2010 16:02:02 27.4 C 5.26 g/m*3 27.4 C 0 km/h
1761 28-04-2010 16:14:02 27.6 C 5.32 g/m*3 27.6 C 0 km/h
1762 28-04-2010 16:26:02 28 C 5.44 g/m*3 28 C 0 km/h
1763 28-04-2010 16:38:01 28 C 5.44 g/m*3 28 C 0 km/h
1764 28-04-2010 16:50:02 27.9 C 5.41 g/m*3 27.9 C 0 km/h
1765 28-04-2010 17:02:01 28 C 5.44 g/m*3 28 C 0 km/h
1766 28-04-2010 17:14:01 29.2 C 5.81 g/m*3 29.2 C 0 km/h
1767 28-04-2010 17:26:02 28.9 C 5.71 g/m*3 28.9 C 0 km/h
1768 28-04-2010 17:38:01 27.9 C 5.41 g/m*3 27.9 C 0 km/h
1769 28-04-2010 17:50:02 28.5 C 5.59 g/m*3 28.5 C 0 km/h
1770 28-04-2010 18:02:02 28.2 C 5.5 g/m*3 28.2 C 0 km/h
1771 28-04-2010 18:14:02 28.4 C 5.56 g/m*3 28.4 C 0 km/h
1772 28-04-2010 18:26:02 28.4 C 5.56 g/m*3 28.4 C 0 km/h
1773 28-04-2010 18:38:02 28.3 C 5.53 g/m*3 28.3 C 0 km/h
1774 28-04-2010 18:50:02 27.9 C 5.41 g/m*3 27.9 C 0 km/h
1775 28-04-2010 19:02:01 27.1 C 5.18 g/m*3 27.1 C 0 km/h
Sensor: Nr:Datum:Temp:Abs-Feuchte:Windchill:Wind:
Aussen-T/F 1776 28-04-2010 19:14:01 26.5 C 5.01 g/m*3 26.5 C 0 km/h
1777 28-04-2010 19:26:02 25.9 C 4.84 g/m*3 25.9 C 0 km/h
1778 28-04-2010 19:38:01 25 C 4.83 g/m*3 25 C 0 km/h
1779 28-04-2010 19:50:02 24.6 C 4.95 g/m*3 24.6 C 0 km/h
1780 28-04-2010 20:02:01 23.9 C 5.41 g/m*3 23.9 C 0 km/h
1781 28-04-2010 20:14:01 23 C 5.34 g/m*3 23 C 0 km/h
1782 28-04-2010 20:26:01 22.1 C 5.47 g/m*3 22.1 C 0 km/h
1783 28-04-2010 20:38:02 21.3 C 5.59 g/m*3 21.3 C 0 km/h
1784 28-04-2010 20:50:02 20.4 C 5.48 g/m*3 20.4 C 0 km/h
1785 28-04-2010 21:02:02 19.7 C 5.6 g/m*3 19.7 C 0 km/h
1786 28-04-2010 21:14:02 19.3 C 5.47 g/m*3 19.3 C 0 km/h
1787 28-04-2010 21:26:02 18.9 C 5.67 g/m*3 18.9 C 0 km/h
1788 28-04-2010 21:38:01 18.8 C 5.64 g/m*3 18.8 C 0 km/h
1789 28-04-2010 21:51:04 18.5 C 5.54 g/m*3 18.5 C 0 km/h
1790 28-04-2010 22:03:04 18.5 C 5.7 g/m*3 18.5 C 0 km/h
1791 28-04-2010 22:15:04 18.3 C 5.63 g/m*3 18.3 C 0 km/h
1792 28-04-2010 22:27:04 18.2 C 5.6 g/m*3 18.2 C 0 km/h
1793 28-04-2010 22:39:04 18 C 5.68 g/m*3 18 C 0 km/h
1794 28-04-2010 22:51:04 18 C 5.53 g/m*3 18 C 0 km/h
1795 28-04-2010 23:03:04 17.7 C 5.73 g/m*3 17.7 C 0 km/h
1796 28-04-2010 23:15:04 17.3 C 5.75 g/m*3 17.3 C 0 km/h
1797 28-04-2010 23:27:04 17 C 5.64 g/m*3 17 C 0 km/h
1798 28-04-2010 23:39:04 16.6 C 5.79 g/m*3 16.6 C 0 km/h
1799 28-04-2010 23:51:04 16.2 C 5.79 g/m*3 16.2 C 0 km/h
1800 29-04-2010 00:03:04 16.2 C 5.79 g/m*3 16.2 C 0 km/h
Sensor: Nr:Datum:Temp:Abs-Feuchte:Windchill:Wind:
Aussen-T/F 1801 29-04-2010 00:15:04 15.8 C 6.06 g/m*3 15.8 C 0 km/h
1802 29-04-2010 00:27:05 15.4 C 5.78 g/m*3 15.4 C 0 km/h
1803 29-04-2010 00:39:05 15.1 C 5.93 g/m*3 15.1 C 0 km/h
1804 29-04-2010 00:51:05 14.7 C 5.79 g/m*3 14.7 C 0 km/h
1805 29-04-2010 01:03:05 14.6 C 5.88 g/m*3 14.6 C 0 km/h
1806 29-04-2010 01:15:05 14.2 C 5.74 g/m*3 14.2 C 0 km/h
1807 29-04-2010 01:27:05 14 C 5.67 g/m*3 14 C 0 km/h
1808 29-04-2010 01:39:05 13.8 C 5.72 g/m*3 13.8 C 0 km/h
1809 29-04-2010 01:51:05 13.5 C 5.85 g/m*3 13.5 C 0 km/h
1810 29-04-2010 02:03:05 13.6 C 5.88 g/m*3 13.6 C 0 km/h
1811 29-04-2010 02:15:05 12.8 C 6.05 g/m*3 12.8 C 0 km/h
1812 29-04-2010 02:27:05 12.9 C 6.09 g/m*3 12.9 C 0 km/h
1813 29-04-2010 02:39:05 12.7 C 6.01 g/m*3 12.7 C 0 km/h
1814 29-04-2010 02:51:05 12.5 C 6.16 g/m*3 12.5 C 0 km/h
1815 29-04-2010 03:03:05 12.2 C 6.37 g/m*3 12.2 C 0 km/h
1816 29-04-2010 03:15:05 12 C 6.29 g/m*3 12 C 0 km/h
1817 29-04-2010 03:27:05 11.8 C 6.21 g/m*3 11.8 C 0 km/h
1818 29-04-2010 03:39:05 11.8 C 6.31 g/m*3 11.8 C 0 km/h
1819 29-04-2010 03:51:05 11.7 C 6.38 g/m*3 11.7 C 0 km/h
1820 29-04-2010 04:03:05 11.7 C 6.38 g/m*3 11.7 C 0 km/h
1821 29-04-2010 04:15:05 11.5 C 6.4 g/m*3 11.5 C 0 km/h
1822 29-04-2010 04:27:06 11.2 C 6.49 g/m*3 11.2 C 0 km/h
1823 29-04-2010 04:39:06 10.9 C 6.56 g/m*3 10.9 C 0 km/h
1824 29-04-2010 04:51:06 10.8 C 6.42 g/m*3 10.8 C 0 km/h
1825 29-04-2010 05:03:06 10.7 C 6.38 g/m*3 10.7 C 0 km/h
Sensor: Nr:Datum:Temp:Abs-Feuchte:Windchill:Wind:
Aussen-T/F 1826 29-04-2010 05:15:06 10.6 C 6.34 g/m*3 10.6 C 0 km/h
1827 29-04-2010 05:27:06 10.4 C 6.26 g/m*3 10.4 C 0 km/h
1828 29-04-2010 05:39:06 10.3 C 6.32 g/m*3 10.3 C 0 km/h
1829 29-04-2010 05:51:06 10.2 C 6.28 g/m*3 10.2 C 0 km/h
1830 29-04-2010 06:03:06 10.1 C 6.24 g/m*3 10.1 C 0 km/h
1831 29-04-2010 06:15:06 9.9 C 6.35 g/m*3 9.9 C 0 km/h
1832 29-04-2010 06:27:06 9.7 C 6.45 g/m*3 9.7 C 0 km/h
1833 29-04-2010 06:39:06 9.8 C 6.49 g/m*3 9.8 C 0 km/h
1834 29-04-2010 06:51:01 9.8 C 6.49 g/m*3 9.8 C 0 km/h
1835 29-04-2010 07:03:02 10 C 6.48 g/m*3 10 C 0 km/h
1836 29-04-2010 07:15:01 10.1 C 6.52 g/m*3 10.1 C 0 km/h
1837 29-04-2010 07:27:01 10.3 C 6.61 g/m*3 10.3 C 0 km/h
1838 29-04-2010 07:39:02 10.3 C 6.61 g/m*3 10.3 C 0 km/h
1839 29-04-2010 07:51:02 10.4 C 6.65 g/m*3 10.4 C 0 km/h
1840 29-04-2010 08:03:02 10.9 C 6.76 g/m*3 10.9 C 0 km/h
1841 29-04-2010 08:15:02 11.9 C 6.88 g/m*3 11.9 C 0 km/h
1842 29-04-2010 08:27:02 12.5 C 6.71 g/m*3 12.5 C 0 km/h
1843 29-04-2010 08:39:02 12.8 C 6.72 g/m*3 12.8 C 0 km/h
1844 29-04-2010 08:51:01 12.9 C 6.76 g/m*3 12.9 C 0 km/h
1845 29-04-2010 09:03:02 12.8 C 6.72 g/m*3 12.8 C 0 km/h
1846 29-04-2010 09:15:02 13.1 C 6.62 g/m*3 13.1 C 0 km/h
1847 29-04-2010 09:27:02 14 C 6.39 g/m*3 14 C 0 km/h
1848 29-04-2010 09:39:02 14.9 C 6.5 g/m*3 14.9 C 0 km/h
1849 29-04-2010 09:51:01 15.7 C 6.15 g/m*3 15.7 C 0 km/h
1850 29-04-2010 10:03:02 16.6 C 6.36 g/m*3 16.6 C 0 km/h
Sensor: Nr:Datum:Temp:Abs-Feuchte:Windchill:Wind:
Aussen-T/F 1851 29-04-2010 10:15:02 17.4 C 6.37 g/m*3 17.4 C 0 km/h
1852 29-04-2010 10:27:02 17.7 C 6.49 g/m*3 17.7 C 0 km/h
1853 29-04-2010 10:39:01 18.3 C 6.88 g/m*3 18.3 C 0 km/h
1854 29-04-2010 10:51:01 19.3 C 6.8 g/m*3 19.3 C 0 km/h
1855 29-04-2010 11:03:01 20.1 C 6.78 g/m*3 20.1 C 0 km/h
1856 29-04-2010 11:15:02 20.9 C 6.74 g/m*3 20.9 C 0 km/h
1857 29-04-2010 11:27:02 22 C 6.4 g/m*3 22 C 0 km/h
1858 29-04-2010 11:39:01 22.3 C 6.12 g/m*3 22.3 C 0 km/h
1859 29-04-2010 11:51:01 22.5 C 6.39 g/m*3 22.5 C 0 km/h
1860 29-04-2010 12:03:01 22.7 C 6.26 g/m*3 22.7 C 0 km/h
1861 29-04-2010 12:15:02 23.7 C 6.2 g/m*3 23.7 C 0 km/h
1862 29-04-2010 12:27:02 24 C 5.87 g/m*3 24 C 0 km/h
1863 29-04-2010 12:39:01 24.3 C 5.75 g/m*3 24.3 C 0 km/h
1864 29-04-2010 12:51:03 24.7 C 4.75 g/m*3 24.7 C 0 km/h
1865 29-04-2010 13:03:02 25.2 C 4.66 g/m*3 25.2 C 0 km/h
1866 29-04-2010 13:15:03 25.7 C 4.79 g/m*3 25.7 C 0 km/h
1867 29-04-2010 13:27:03 25.9 C 4.84 g/m*3 25.9 C 0 km/h
1868 29-04-2010 13:39:02 26.1 C 4.9 g/m*3 26.1 C 0 km/h
1869 29-04-2010 13:51:03 26.4 C 4.98 g/m*3 26.4 C 0 km/h
1870 29-04-2010 14:03:02 26.4 C 4.98 g/m*3 26.4 C 0 km/h
1871 29-04-2010 14:15:02 26.6 C 5.03 g/m*3 26.6 C 0 km/h
1872 29-04-2010 14:27:02 27.1 C 5.18 g/m*3 27.1 C 0 km/h
1873 29-04-2010 14:39:02 27 C 5.15 g/m*3 27 C 0 km/h
1874 29-04-2010 14:51:02 28 C 5.44 g/m*3 28 C 0 km/h
1875 29-04-2010 15:03:02 27.9 C 5.41 g/m*3 27.9 C 0 km/h
Sensor: Nr:Datum:Temp:Abs-Feuchte:Windchill:Wind:
Aussen-T/F 1876 29-04-2010 15:15:02 27.6 C 5.32 g/m*3 27.6 C 0 km/h
1877 29-04-2010 15:27:02 27.6 C 5.32 g/m*3 27.6 C 0 km/h
1878 29-04-2010 15:39:01 27.6 C 5.32 g/m*3 27.6 C 0 km/h
1879 29-04-2010 15:51:02 27.6 C 5.32 g/m*3 27.6 C 0 km/h
1880 29-04-2010 16:03:01 27.9 C 5.41 g/m*3 27.9 C 0 km/h
1881 29-04-2010 16:15:02 27.8 C 5.38 g/m*3 27.8 C 0 km/h
1882 29-04-2010 16:27:02 27.9 C 5.41 g/m*3 27.9 C 0 km/h
1883 29-04-2010 16:39:01 27.6 C 5.32 g/m*3 27.6 C 0 km/h
1884 29-04-2010 16:51:03 27.8 C 5.38 g/m*3 27.8 C 0 km/h
1885 29-04-2010 17:03:02 27.8 C 5.38 g/m*3 27.8 C 0 km/h
1886 29-04-2010 17:15:02 27.8 C 5.38 g/m*3 27.8 C 0 km/h
1887 29-04-2010 17:27:02 27.5 C 5.29 g/m*3 27.5 C 0 km/h
1888 29-04-2010 17:39:02 27.8 C 5.38 g/m*3 27.8 C 0 km/h
1889 29-04-2010 17:51:02 28.4 C 5.56 g/m*3 28.4 C 0 km/h
1890 29-04-2010 18:03:02 28 C 5.44 g/m*3 28 C 0 km/h
1891 29-04-2010 18:15:02 27.8 C 5.38 g/m*3 27.8 C 0 km/h
1892 29-04-2010 18:27:02 27.5 C 5.29 g/m*3 27.5 C 0 km/h
1893 29-04-2010 18:39:02 27.5 C 5.29 g/m*3 27.5 C 0 km/h
1894 29-04-2010 18:51:02 27 C 5.15 g/m*3 27 C 0 km/h
1895 29-04-2010 19:03:02 26.5 C 5.01 g/m*3 26.5 C 0 km/h
1896 29-04-2010 19:15:02 26.1 C 4.9 g/m*3 26.1 C 0 km/h
1897 29-04-2010 19:27:02 25.7 C 4.79 g/m*3 25.7 C 0 km/h
1898 29-04-2010 19:39:02 25.3 C 4.68 g/m*3 25.3 C 0 km/h
1899 29-04-2010 19:51:01 24.8 C 5.01 g/m*3 24.8 C 0 km/h
1900 29-04-2010 20:03:02 24.4 C 5.12 g/m*3 24.4 C 0 km/h
Sensor: Nr:Datum:Temp:Abs-Feuchte:Windchill:Wind:
Aussen-T/F 1901 29-04-2010 20:15:02 23.9 C 5.41 g/m*3 23.9 C 0 km/h
1902 29-04-2010 20:27:02 23.6 C 5.53 g/m*3 23.6 C 0 km/h
1903 29-04-2010 20:39:02 23.1 C 5.58 g/m*3 23.1 C 0 km/h
1904 29-04-2010 20:51:02 22.6 C 6.03 g/m*3 22.6 C 0 km/h
1905 29-04-2010 21:03:02 22.2 C 6.09 g/m*3 22.2 C 0 km/h
1906 29-04-2010 21:15:02 21.9 C 6.37 g/m*3 21.9 C 0 km/h
1907 29-04-2010 21:27:02 21.7 C 6.29 g/m*3 21.7 C 0 km/h
1908 29-04-2010 21:39:01 21.6 C 6.45 g/m*3 21.6 C 0 km/h
1909 29-04-2010 21:51:02 21.5 C 6.41 g/m*3 21.5 C 0 km/h
1910 29-04-2010 22:03:01 21.4 C 6.56 g/m*3 21.4 C 0 km/h
1911 29-04-2010 22:15:02 21.3 C 6.52 g/m*3 21.3 C 0 km/h
1912 29-04-2010 22:27:02 21.1 C 6.63 g/m*3 21.1 C 0 km/h
1913 29-04-2010 22:39:01 20.7 C 7.02 g/m*3 20.7 C 0 km/h
1914 29-04-2010 22:51:02 20.5 C 7.12 g/m*3 20.5 C 0 km/h
1915 29-04-2010 23:04:01 20.4 C 7.08 g/m*3 20.4 C 0 km/h
1916 29-04-2010 23:16:01 20.1 C 7.13 g/m*3 20.1 C 0 km/h
1917 29-04-2010 23:28:01 19.7 C 7.3 g/m*3 19.7 C 0 km/h
1918 29-04-2010 23:40:01 19.5 C 7.22 g/m*3 19.5 C 0 km/h
1919 29-04-2010 23:52:01 19.3 C 7.13 g/m*3 19.3 C 0 km/h
1920 30-04-2010 00:04:01 19.4 C 7.17 g/m*3 19.4 C 0 km/h
1921 30-04-2010 00:16:02 19.6 C 7.09 g/m*3 19.6 C 0 km/h
1922 30-04-2010 00:28:02 19.7 C 6.96 g/m*3 19.7 C 0 km/h
1923 30-04-2010 00:40:02 20 C 6.91 g/m*3 20 C 0 km/h
1924 30-04-2010 00:52:02 20.3 C 6.68 g/m*3 20.3 C 0 km/h
1925 30-04-2010 01:04:02 20.5 C 6.58 g/m*3 20.5 C 0 km/h
Sensor: Nr:Datum:Temp:Abs-Feuchte:Windchill:Wind:
Aussen-T/F 1926 30-04-2010 01:16:02 20.8 C 6.7 g/m*3 20.8 C 0 km/h
1927 30-04-2010 01:28:02 20.9 C 6.92 g/m*3 20.9 C 0 km/h
1928 30-04-2010 01:40:02 20.7 C 6.84 g/m*3 20.7 C 0 km/h
1929 30-04-2010 01:52:02 20.8 C 6.7 g/m*3 20.8 C 0 km/h
1930 30-04-2010 02:04:02 20.8 C 6.7 g/m*3 20.8 C 0 km/h
1931 30-04-2010 02:16:02 20.9 C 6.74 g/m*3 20.9 C 0 km/h
1932 30-04-2010 02:28:02 21 C 6.59 g/m*3 21 C 0 km/h
1933 30-04-2010 02:40:02 20.5 C 6.94 g/m*3 20.5 C 0 km/h
1934 30-04-2010 02:52:02 20.6 C 6.98 g/m*3 20.6 C 0 km/h
1935 30-04-2010 03:04:02 20.4 C 7.08 g/m*3 20.4 C 0 km/h
1936 30-04-2010 03:16:02 20.1 C 7.13 g/m*3 20.1 C 0 km/h
1937 30-04-2010 03:28:02 20.1 C 7.3 g/m*3 20.1 C 0 km/h
1938 30-04-2010 03:40:02 19.8 C 7.69 g/m*3 19.8 C 0 km/h
1939 30-04-2010 03:52:02 19.8 C 7.86 g/m*3 19.8 C 0 km/h
1940 30-04-2010 04:04:02 19.7 C 7.81 g/m*3 19.7 C 0 km/h
1941 30-04-2010 04:16:02 19.7 C 7.98 g/m*3 19.7 C 0 km/h
1942 30-04-2010 04:28:02 19.4 C 8.18 g/m*3 19.4 C 0 km/h
1943 30-04-2010 04:40:03 19.2 C 8.24 g/m*3 19.2 C 0 km/h
1944 30-04-2010 04:52:03 18.9 C 8.42 g/m*3 18.9 C 0 km/h
1945 30-04-2010 05:04:03 18.7 C 8.33 g/m*3 18.7 C 0 km/h
1946 30-04-2010 05:16:03 18.6 C 8.44 g/m*3 18.6 C 0 km/h
1947 30-04-2010 05:28:03 18.2 C 8.39 g/m*3 18.2 C 0 km/h
1948 30-04-2010 05:40:03 17.9 C 8.7 g/m*3 17.9 C 0 km/h
1949 30-04-2010 05:52:03 17.8 C 8.65 g/m*3 17.8 C 0 km/h
1950 30-04-2010 06:04:03 17.5 C 8.65 g/m*3 17.5 C 0 km/h
Sensor: Nr:Datum:Temp:Abs-Feuchte:Windchill:Wind:
Aussen-T/F 1951 30-04-2010 06:16:03 17.4 C 8.74 g/m*3 17.4 C 0 km/h
1952 30-04-2010 06:28:03 17.3 C 8.69 g/m*3 17.3 C 0 km/h
1953 30-04-2010 06:40:03 17.4 C 8.74 g/m*3 17.4 C 0 km/h
1954 30-04-2010 06:52:03 17.2 C 8.64 g/m*3 17.2 C 0 km/h
1955 30-04-2010 07:04:02 17.1 C 8.73 g/m*3 17.1 C 0 km/h
1956 30-04-2010 07:16:01 17.3 C 8.84 g/m*3 17.3 C 0 km/h
1957 30-04-2010 07:28:01 17.5 C 8.95 g/m*3 17.5 C 0 km/h
1958 30-04-2010 07:40:02 17.7 C 8.9 g/m*3 17.7 C 0 km/h
1959 30-04-2010 07:52:02 17.6 C 8.55 g/m*3 17.6 C 0 km/h
1960 30-04-2010 08:04:02 18.1 C 8.19 g/m*3 18.1 C 0 km/h
1961 30-04-2010 08:16:02 18.3 C 7.97 g/m*3 18.3 C 0 km/h
1962 30-04-2010 08:28:02 18.3 C 7.97 g/m*3 18.3 C 0 km/h
1963 30-04-2010 08:40:02 18.2 C 7.93 g/m*3 18.2 C 0 km/h
1964 30-04-2010 08:52:02 18.4 C 8.02 g/m*3 18.4 C 0 km/h
1965 30-04-2010 09:04:03 18.3 C 7.97 g/m*3 18.3 C 0 km/h
1966 30-04-2010 09:16:02 18.3 C 7.82 g/m*3 18.3 C 0 km/h
1967 30-04-2010 09:28:02 18.4 C 7.24 g/m*3 18.4 C 0 km/h
1968 30-04-2010 09:40:02 18.5 C 6.65 g/m*3 18.5 C 0 km/h
1969 30-04-2010 09:52:01 18.4 C 6.61 g/m*3 18.4 C 0 km/h
1970 30-04-2010 10:04:02 18.3 C 6.57 g/m*3 18.3 C 0 km/h
1971 30-04-2010 10:16:01 18.5 C 6.33 g/m*3 18.5 C 0 km/h
1972 30-04-2010 10:28:01 18.6 C 6.37 g/m*3 18.6 C 0 km/h
1973 30-04-2010 10:40:02 18.8 C 6.44 g/m*3 18.8 C 0 km/h
1974 30-04-2010 10:52:02 18.6 C 5.73 g/m*3 18.6 C 0 km/h
1975 30-04-2010 11:04:02 19 C 5.87 g/m*3 19 C 0 km/h
Sensor: Nr:Datum:Temp:Abs-Feuchte:Windchill:Wind:
Aussen-T/F 1976 30-04-2010 11:16:02 18.9 C 5.83 g/m*3 18.9 C 0 km/h
1977 30-04-2010 11:28:02 19 C 5.87 g/m*3 19 C 0 km/h
1978 30-04-2010 11:40:02 19.5 C 6.04 g/m*3 19.5 C 0 km/h
1979 30-04-2010 11:52:02 19.7 C 6.11 g/m*3 19.7 C 0 km/h
1980 30-04-2010 12:04:02 20.6 C 6.09 g/m*3 20.6 C 0 km/h
1981 30-04-2010 12:16:02 20.8 C 5.79 g/m*3 20.8 C 0 km/h
1982 30-04-2010 12:28:02 19.9 C 6.01 g/m*3 19.9 C 0 km/h
1983 30-04-2010 12:40:02 19.8 C 5.98 g/m*3 19.8 C 0 km/h
1984 30-04-2010 12:52:01 20 C 5.88 g/m*3 20 C 0 km/h
1985 30-04-2010 13:04:02 20.6 C 5.73 g/m*3 20.6 C 0 km/h
1986 30-04-2010 13:16:01 20.7 C 5.76 g/m*3 20.7 C 0 km/h
1987 30-04-2010 13:28:01 21 C 5.5 g/m*3 21 C 0 km/h
1988 30-04-2010 13:40:01 21 C 5.5 g/m*3 21 C 0 km/h
1989 30-04-2010 13:52:01 20.8 C 5.61 g/m*3 20.8 C 0 km/h
1990 30-04-2010 14:04:02 20.5 C 5.69 g/m*3 20.5 C 0 km/h
1991 30-04-2010 14:16:01 21.4 C 5.81 g/m*3 21.4 C 0 km/h
1992 30-04-2010 14:28:01 20.9 C 5.65 g/m*3 20.9 C 0 km/h
1993 30-04-2010 14:40:02 20.8 C 5.79 g/m*3 20.8 C 0 km/h
1994 30-04-2010 14:52:02 20.8 C 6.34 g/m*3 20.8 C 0 km/h
1995 30-04-2010 15:04:02 20.4 C 6.01 g/m*3 20.4 C 0 km/h
1996 30-04-2010 15:16:01 20.7 C 6.12 g/m*3 20.7 C 0 km/h
1997 30-04-2010 15:28:01 20.6 C 6.09 g/m*3 20.6 C 0 km/h
1998 30-04-2010 15:40:02 20.9 C 6.19 g/m*3 20.9 C 0 km/h
1999 30-04-2010 15:52:02 20.6 C 6.09 g/m*3 20.6 C 0 km/h
2000 30-04-2010 16:04:02 19.7 C 5.94 g/m*3 19.7 C 0 km/h
Sensor: Nr:Datum:Temp:Abs-Feuchte:Windchill:Wind:
Aussen-T/F 2001 30-04-2010 16:16:01 19.4 C 5.84 g/m*3 19.4 C 0 km/h
2002 30-04-2010 16:28:01 19.6 C 5.91 g/m*3 19.6 C 0 km/h
2003 30-04-2010 16:40:02 19.7 C 5.94 g/m*3 19.7 C 0 km/h
2004 30-04-2010 16:52:02 19.5 C 6.04 g/m*3 19.5 C 0 km/h
2005 30-04-2010 17:04:02 19.7 C 6.11 g/m*3 19.7 C 0 km/h
2006 30-04-2010 17:16:02 19.8 C 5.98 g/m*3 19.8 C 0 km/h
2007 30-04-2010 17:28:02 20 C 6.22 g/m*3 20 C 0 km/h
2008 30-04-2010 17:40:02 19.4 C 6.01 g/m*3 19.4 C 0 km/h
2009 30-04-2010 17:52:02 19.5 C 6.04 g/m*3 19.5 C 0 km/h
2010 30-04-2010 18:04:02 19.5 C 6.04 g/m*3 19.5 C 0 km/h
2011 30-04-2010 18:16:02 19.7 C 6.28 g/m*3 19.7 C 0 km/h
2012 30-04-2010 18:28:02 19.2 C 5.94 g/m*3 19.2 C 0 km/h
2013 30-04-2010 18:40:02 19.1 C 6.07 g/m*3 19.1 C 0 km/h
2014 30-04-2010 18:52:02 18.9 C 6.16 g/m*3 18.9 C 0 km/h
2015 30-04-2010 19:04:02 18.8 C 6.44 g/m*3 18.8 C 0 km/h
2016 30-04-2010 19:16:03 18.7 C 6.24 g/m*3 18.7 C 0 km/h
2017 30-04-2010 19:28:03 18.4 C 6.13 g/m*3 18.4 C 0 km/h
2018 30-04-2010 19:40:02 18.1 C 6.18 g/m*3 18.1 C 0 km/h
2019 30-04-2010 19:52:02 18.1 C 6.33 g/m*3 18.1 C 0 km/h
2020 30-04-2010 20:04:02 18 C 6.3 g/m*3 18 C 0 km/h
2021 30-04-2010 20:16:03 17.9 C 6.41 g/m*3 17.9 C 0 km/h
2022 30-04-2010 20:28:03 17.7 C 6.49 g/m*3 17.7 C 0 km/h
2023 30-04-2010 20:40:02 17 C 7.23 g/m*3 17 C 0 km/h
2024 30-04-2010 20:52:02 16.3 C 7.77 g/m*3 16.3 C 0 km/h
2025 30-04-2010 21:04:02 15.1 C 8.26 g/m*3 15.1 C 0 km/h
Sensor: Nr:Datum:Temp:Abs-Feuchte:Windchill:Wind:
Aussen-T/F 2026 30-04-2010 21:16:02 14.7 C 8.69 g/m*3 14.7 C 0 km/h
2027 30-04-2010 21:28:02 15.1 C 8.9 g/m*3 15.1 C 0 km/h
2028 30-04-2010 21:40:02 15.3 C 8.75 g/m*3 15.3 C 0 km/h
2029 30-04-2010 21:52:02 15.2 C 8.44 g/m*3 15.2 C 0 km/h
2030 30-04-2010 22:04:02 15.3 C 8.23 g/m*3 15.3 C 0 km/h
2031 30-04-2010 22:16:02 15.2 C 8.05 g/m*3 15.2 C 0 km/h
2032 30-04-2010 22:28:02 14.9 C 8.16 g/m*3 14.9 C 0 km/h
2033 30-04-2010 22:40:02 14.9 C 8.16 g/m*3 14.9 C 0 km/h
2034 30-04-2010 22:52:01 14.8 C 8.11 g/m*3 14.8 C 0 km/h
2035 30-04-2010 23:05:02 14.2 C 7.33 g/m*3 14.2 C 0 km/h
2036 30-04-2010 23:17:02 13.8 C 7.15 g/m*3 13.8 C 0 km/h
2037 30-04-2010 23:29:02 13.4 C 6.74 g/m*3 13.4 C 0 km/h
2038 30-04-2010 23:41:02 13.1 C 6.39 g/m*3 13.1 C 0 km/h
2039 30-04-2010 23:53:02 13.1 C 6.28 g/m*3 13.1 C 0 km/h
2040 01-05-2010 00:05:02 13.2 C 6.32 g/m*3 13.2 C 0 km/h
2041 01-05-2010 00:17:02 13.3 C 6.47 g/m*3 13.3 C 0 km/h
2042 01-05-2010 00:29:02 13.3 C 6.47 g/m*3 13.3 C 0 km/h
2043 01-05-2010 00:41:03 13.4 C 6.86 g/m*3 13.4 C 0 km/h
2044 01-05-2010 00:53:03 13.4 C 6.86 g/m*3 13.4 C 0 km/h
2045 01-05-2010 01:05:03 13.4 C 6.86 g/m*3 13.4 C 0 km/h
2046 01-05-2010 01:17:03 13.3 C 6.59 g/m*3 13.3 C 0 km/h
2047 01-05-2010 01:29:03 13.2 C 6.77 g/m*3 13.2 C 0 km/h
2048 01-05-2010 01:41:03 13.1 C 7.07 g/m*3 13.1 C 0 km/h
2049 01-05-2010 01:53:03 13 C 7.03 g/m*3 13 C 0 km/h
2050 01-05-2010 02:05:03 12.9 C 7.1 g/m*3 12.9 C 0 km/h
Sensor: Nr:Datum:Temp:Abs-Feuchte:Windchill:Wind:
Aussen-T/F 2051 01-05-2010 02:17:03 12.8 C 7.06 g/m*3 12.8 C 0 km/h
2052 01-05-2010 02:29:03 12.9 C 6.88 g/m*3 12.9 C 0 km/h
2053 01-05-2010 02:41:03 12.9 C 6.65 g/m*3 12.9 C 0 km/h
2054 01-05-2010 02:53:03 12.9 C 6.54 g/m*3 12.9 C 0 km/h
2055 01-05-2010 03:05:03 12.8 C 6.83 g/m*3 12.8 C 0 km/h
2056 01-05-2010 03:17:03 12.7 C 6.79 g/m*3 12.7 C 0 km/h
2057 01-05-2010 03:29:03 12.6 C 6.53 g/m*3 12.6 C 0 km/h
2058 01-05-2010 03:41:03 12.5 C 6.49 g/m*3 12.5 C 0 km/h
2059 01-05-2010 03:53:03 12.5 C 6.6 g/m*3 12.5 C 0 km/h
2060 01-05-2010 04:05:03 12.5 C 6.82 g/m*3 12.5 C 0 km/h
2061 01-05-2010 04:17:03 12.5 C 7.26 g/m*3 12.5 C 0 km/h
2062 01-05-2010 04:29:03 12.5 C 7.04 g/m*3 12.5 C 0 km/h
2063 01-05-2010 04:41:03 12.4 C 7.21 g/m*3 12.4 C 0 km/h
2064 01-05-2010 04:53:03 12.4 C 7.21 g/m*3 12.4 C 0 km/h
2065 01-05-2010 05:05:04 12.4 C 7.21 g/m*3 12.4 C 0 km/h
2066 01-05-2010 05:17:04 12.4 C 7.32 g/m*3 12.4 C 0 km/h
2067 01-05-2010 05:29:04 12.4 C 7.43 g/m*3 12.4 C 0 km/h
2068 01-05-2010 05:41:04 12.3 C 7.49 g/m*3 12.3 C 0 km/h
2069 01-05-2010 05:53:04 11.8 C 7.79 g/m*3 11.8 C 0 km/h
2070 01-05-2010 06:05:04 11.6 C 8.11 g/m*3 11.6 C 0 km/h
2071 01-05-2010 06:17:04 11.5 C 8.16 g/m*3 11.5 C 0 km/h
2072 01-05-2010 06:29:04 11.5 C 8.37 g/m*3 11.5 C 0 km/h
2073 01-05-2010 06:41:04 11.5 C 8.47 g/m*3 11.5 C 0 km/h
2074 01-05-2010 06:53:04 11.4 C 8.42 g/m*3 11.4 C 0 km/h
2075 01-05-2010 07:05:04 11.4 C 8.42 g/m*3 11.4 C 0 km/h
Sensor: Nr:Datum:Temp:Abs-Feuchte:Windchill:Wind:
Aussen-T/F 2076 01-05-2010 07:17:04 11.4 C 8.31 g/m*3 11.4 C 0 km/h
2077 01-05-2010 07:29:04 11.6 C 8.52 g/m*3 11.6 C 0 km/h
2078 01-05-2010 07:41:02 11.8 C 8.63 g/m*3 11.8 C 0 km/h
2079 01-05-2010 07:53:01 12.1 C 8.69 g/m*3 12.1 C 0 km/h
2080 01-05-2010 08:05:02 12.6 C 8.85 g/m*3 12.6 C 0 km/h
2081 01-05-2010 08:17:01 12.7 C 8.24 g/m*3 12.7 C 0 km/h
2082 01-05-2010 08:29:01 13 C 7.94 g/m*3 13 C 0 km/h
2083 01-05-2010 08:41:01 13.4 C 8.14 g/m*3 13.4 C 0 km/h
2084 01-05-2010 08:53:01 13.6 C 8.12 g/m*3 13.6 C 0 km/h
2085 01-05-2010 09:05:02 13.9 C 8.15 g/m*3 13.9 C 0 km/h
2086 01-05-2010 09:17:01 14.3 C 7.99 g/m*3 14.3 C 0 km/h
2087 01-05-2010 09:29:01 14.3 C 7.86 g/m*3 14.3 C 0 km/h
2088 01-05-2010 09:41:01 14.2 C 8.06 g/m*3 14.2 C 0 km/h
2089 01-05-2010 09:53:01 14 C 7.96 g/m*3 14 C 0 km/h
2090 01-05-2010 10:05:02 14.3 C 7.74 g/m*3 14.3 C 0 km/h
2091 01-05-2010 10:17:01 14.3 C 7.49 g/m*3 14.3 C 0 km/h
2092 01-05-2010 10:29:01 14.7 C 7.81 g/m*3 14.7 C 0 km/h
2093 01-05-2010 10:41:02 14.7 C 7.43 g/m*3 14.7 C 0 km/h
2094 01-05-2010 10:53:02 15.1 C 7.22 g/m*3 15.1 C 0 km/h
2095 01-05-2010 11:05:02 15.8 C 7.4 g/m*3 15.8 C 0 km/h
2096 01-05-2010 11:17:01 15.9 C 6.91 g/m*3 15.9 C 0 km/h
2097 01-05-2010 11:29:01 16.5 C 6.46 g/m*3 16.5 C 0 km/h
2098 01-05-2010 11:41:02 16.9 C 6.33 g/m*3 16.9 C 0 km/h
2099 01-05-2010 11:53:02 17.2 C 5.71 g/m*3 17.2 C 0 km/h
2100 01-05-2010 12:05:02 17.6 C 5.85 g/m*3 17.6 C 0 km/h
Sensor: Nr:Datum:Temp:Abs-Feuchte:Windchill:Wind:
Aussen-T/F 2101 01-05-2010 12:17:02 17.7 C 5.88 g/m*3 17.7 C 0 km/h
2102 01-05-2010 12:29:02 17.6 C 5.85 g/m*3 17.6 C 0 km/h
2103 01-05-2010 12:41:02 16.9 C 5.32 g/m*3 16.9 C 0 km/h
2104 01-05-2010 12:53:02 17.6 C 5.7 g/m*3 17.6 C 0 km/h
2105 01-05-2010 13:05:02 18.9 C 5.67 g/m*3 18.9 C 0 km/h
2106 01-05-2010 13:17:02 18.6 C 5.09 g/m*3 18.6 C 0 km/h
2107 01-05-2010 13:29:02 18.9 C 5.18 g/m*3 18.9 C 0 km/h
2108 01-05-2010 13:41:02 18.9 C 5.02 g/m*3 18.9 C 0 km/h
2109 01-05-2010 13:53:01 20.7 C 4.68 g/m*3 20.7 C 0 km/h
2110 01-05-2010 14:05:02 19.1 C 4.92 g/m*3 19.1 C 0 km/h
2111 01-05-2010 14:17:01 19.9 C 4.98 g/m*3 19.9 C 0 km/h
2112 01-05-2010 14:29:01 19.7 C 4.92 g/m*3 19.7 C 0 km/h
2113 01-05-2010 14:41:02 20.3 C 4.75 g/m*3 20.3 C 0 km/h
2114 01-05-2010 14:53:02 20.1 C 4.87 g/m*3 20.1 C 0 km/h
2115 01-05-2010 15:05:03 19.7 C 4.75 g/m*3 19.7 C 0 km/h
2116 01-05-2010 15:17:02 19.9 C 4.81 g/m*3 19.9 C 0 km/h
2117 01-05-2010 15:29:02 18.9 C 4.86 g/m*3 18.9 C 0 km/h
2118 01-05-2010 15:41:02 18.8 C 4.99 g/m*3 18.8 C 0 km/h
2119 01-05-2010 15:53:02 18.1 C 5.1 g/m*3 18.1 C 0 km/h
2120 01-05-2010 16:05:02 17.7 C 5.28 g/m*3 17.7 C 0 km/h
2121 01-05-2010 16:17:01 17.5 C 5.37 g/m*3 17.5 C 0 km/h
2122 01-05-2010 16:29:01 17.5 C 5.52 g/m*3 17.5 C 0 km/h
2123 01-05-2010 16:41:02 17.5 C 5.67 g/m*3 17.5 C 0 km/h
2124 01-05-2010 16:53:01 17.7 C 5.73 g/m*3 17.7 C 0 km/h
2125 01-05-2010 17:05:02 17.7 C 5.73 g/m*3 17.7 C 0 km/h
Sensor: Nr:Datum:Temp:Abs-Feuchte:Windchill:Wind:
Aussen-T/F 2126 01-05-2010 17:17:01 17.9 C 5.8 g/m*3 17.9 C 0 km/h
2127 01-05-2010 17:29:01 17.9 C 5.65 g/m*3 17.9 C 0 km/h
2128 01-05-2010 17:41:02 17.7 C 5.73 g/m*3 17.7 C 0 km/h
2129 01-05-2010 17:53:01 17.2 C 5.71 g/m*3 17.2 C 0 km/h
2130 01-05-2010 18:05:02 17.4 C 5.93 g/m*3 17.4 C 0 km/h
2131 01-05-2010 18:17:02 17.5 C 5.96 g/m*3 17.5 C 0 km/h
2132 01-05-2010 18:29:02 17.6 C 6.15 g/m*3 17.6 C 0 km/h
2133 01-05-2010 18:41:01 17.4 C 5.93 g/m*3 17.4 C 0 km/h
2134 01-05-2010 18:53:01 17.4 C 5.78 g/m*3 17.4 C 0 km/h
2135 01-05-2010 19:05:01 17 C 5.64 g/m*3 17 C 0 km/h
2136 01-05-2010 19:17:01 16.9 C 5.9 g/m*3 16.9 C 0 km/h
2137 01-05-2010 19:29:01 16.8 C 6 g/m*3 16.8 C 0 km/h
2138 01-05-2010 19:41:01 16.7 C 6.11 g/m*3 16.7 C 0 km/h
2139 01-05-2010 19:53:02 16.4 C 6 g/m*3 16.4 C 0 km/h
2140 01-05-2010 20:05:02 16.3 C 5.97 g/m*3 16.3 C 0 km/h
2141 01-05-2010 20:17:02 16 C 5.99 g/m*3 16 C 0 km/h
2142 01-05-2010 20:29:02 15.7 C 6.15 g/m*3 15.7 C 0 km/h
2143 01-05-2010 20:41:02 15.6 C 6.25 g/m*3 15.6 C 0 km/h
2144 01-05-2010 20:53:02 15.6 C 6.38 g/m*3 15.6 C 0 km/h
2145 01-05-2010 21:05:01 15.5 C 6.34 g/m*3 15.5 C 0 km/h
2146 01-05-2010 21:17:02 15.3 C 6.27 g/m*3 15.3 C 0 km/h
2147 01-05-2010 21:29:02 15 C 6.41 g/m*3 15 C 0 km/h
2148 01-05-2010 21:41:02 14.7 C 6.55 g/m*3 14.7 C 0 km/h
2149 01-05-2010 21:53:02 14.4 C 6.55 g/m*3 14.4 C 0 km/h
2150 01-05-2010 22:05:02 14.3 C 6.63 g/m*3 14.3 C 0 km/h
Sensor: Nr:Datum:Temp:Abs-Feuchte:Windchill:Wind:
Aussen-T/F 2151 01-05-2010 22:17:02 14.3 C 5.77 g/m*3 14.3 C 0 km/h
2152 01-05-2010 22:29:02 14.2 C 5.74 g/m*3 14.2 C 0 km/h
2153 01-05-2010 22:41:01 14.2 C 5.98 g/m*3 14.2 C 0 km/h
2154 01-05-2010 22:54:02 14.1 C 6.07 g/m*3 14.1 C 0 km/h
2155 01-05-2010 23:06:03 14.2 C 6.23 g/m*3 14.2 C 0 km/h
2156 01-05-2010 23:18:03 14.2 C 6.23 g/m*3 14.2 C 0 km/h
2157 01-05-2010 23:30:03 14.2 C 6.35 g/m*3 14.2 C 0 km/h
2158 01-05-2010 23:42:03 14 C 6.39 g/m*3 14 C 0 km/h
2159 01-05-2010 23:54:03 13.9 C 6.47 g/m*3 13.9 C 0 km/h
2160 02-05-2010 00:06:03 13.8 C 6.55 g/m*3 13.8 C 0 km/h
2161 02-05-2010 00:18:03 13.3 C 6.93 g/m*3 13.3 C 0 km/h
2162 02-05-2010 00:30:03 12.6 C 7.3 g/m*3 12.6 C 0 km/h
2163 02-05-2010 00:42:03 12.6 C 7.41 g/m*3 12.6 C 0 km/h
2164 02-05-2010 00:54:03 12.5 C 7.26 g/m*3 12.5 C 0 km/h
2165 02-05-2010 01:06:03 12.5 C 7.26 g/m*3 12.5 C 0 km/h
2166 02-05-2010 01:18:03 12.6 C 7.3 g/m*3 12.6 C 0 km/h
2167 02-05-2010 01:30:03 12.6 C 7.19 g/m*3 12.6 C 0 km/h
2168 02-05-2010 01:42:03 12.5 C 7.26 g/m*3 12.5 C 0 km/h
2169 02-05-2010 01:54:03 12.5 C 7.26 g/m*3 12.5 C 0 km/h
2170 02-05-2010 02:06:03 12.5 C 7.26 g/m*3 12.5 C 0 km/h
2171 02-05-2010 02:18:03 12.4 C 7.21 g/m*3 12.4 C 0 km/h
2172 02-05-2010 02:30:03 12.3 C 7.28 g/m*3 12.3 C 0 km/h
2173 02-05-2010 02:42:03 12.2 C 7.23 g/m*3 12.2 C 0 km/h
2174 02-05-2010 02:54:03 12.1 C 7.29 g/m*3 12.1 C 0 km/h
2175 02-05-2010 03:06:03 12 C 7.25 g/m*3 12 C 0 km/h
Sensor: Nr:Datum:Temp:Abs-Feuchte:Windchill:Wind:
Aussen-T/F 2176 02-05-2010 03:18:03 12 C 7.14 g/m*3 12 C 0 km/h
2177 02-05-2010 03:30:04 11.9 C 7.31 g/m*3 11.9 C 0 km/h
2178 02-05-2010 03:42:04 11.7 C 7.32 g/m*3 11.7 C 0 km/h
2179 02-05-2010 03:54:04 11.6 C 7.17 g/m*3 11.6 C 0 km/h
2180 02-05-2010 04:06:04 11.6 C 7.17 g/m*3 11.6 C 0 km/h
2181 02-05-2010 04:18:04 11.6 C 7.17 g/m*3 11.6 C 0 km/h
2182 02-05-2010 04:30:04 11.6 C 7.28 g/m*3 11.6 C 0 km/h
2183 02-05-2010 04:42:04 11.7 C 7.43 g/m*3 11.7 C 0 km/h
2184 02-05-2010 04:54:04 11.3 C 7.24 g/m*3 11.3 C 0 km/h
2185 02-05-2010 05:06:04 11.1 C 7.05 g/m*3 11.1 C 0 km/h
2186 02-05-2010 05:18:04 11.1 C 7.05 g/m*3 11.1 C 0 km/h
2187 02-05-2010 05:30:04 11.1 C 7.15 g/m*3 11.1 C 0 km/h
2188 02-05-2010 05:42:04 11 C 7.11 g/m*3 11 C 0 km/h
2189 02-05-2010 05:54:04 11 C 7.11 g/m*3 11 C 0 km/h
2190 02-05-2010 06:06:04 10.9 C 7.16 g/m*3 10.9 C 0 km/h
2191 02-05-2010 06:18:04 11 C 7.11 g/m*3 11 C 0 km/h
2192 02-05-2010 06:30:04 11 C 7.31 g/m*3 11 C 0 km/h
2193 02-05-2010 06:42:04 10.9 C 7.26 g/m*3 10.9 C 0 km/h
2194 02-05-2010 06:54:04 10.9 C 7.26 g/m*3 10.9 C 0 km/h
2195 02-05-2010 07:06:04 11 C 7.21 g/m*3 11 C 0 km/h
2196 02-05-2010 07:18:04 11.2 C 7.4 g/m*3 11.2 C 0 km/h
2197 02-05-2010 07:30:04 11.4 C 7.49 g/m*3 11.4 C 0 km/h
2198 02-05-2010 07:42:04 11.4 C 7.49 g/m*3 11.4 C 0 km/h
2199 02-05-2010 07:54:02 11.4 C 7.49 g/m*3 11.4 C 0 km/h
2200 02-05-2010 08:06:02 11.4 C 7.6 g/m*3 11.4 C 0 km/h
Sensor: Nr:Datum:Temp:Abs-Feuchte:Windchill:Wind:
Aussen-T/F 2201 02-05-2010 08:18:02 11.6 C 7.8 g/m*3 11.6 C 0 km/h
2202 02-05-2010 08:30:02 11.2 C 7.7 g/m*3 11.2 C 0 km/h
2203 02-05-2010 08:42:02 11.2 C 7.8 g/m*3 11.2 C 0 km/h
2204 02-05-2010 08:54:01 11.5 C 8.06 g/m*3 11.5 C 0 km/h
2205 02-05-2010 09:06:02 11.8 C 8.21 g/m*3 11.8 C 0 km/h
2206 02-05-2010 09:18:01 11.8 C 8 g/m*3 11.8 C 0 km/h
2207 02-05-2010 09:30:01 12.1 C 8.04 g/m*3 12.1 C 0 km/h
2208 02-05-2010 09:42:02 12.4 C 8.09 g/m*3 12.4 C 0 km/h
2209 02-05-2010 09:54:01 12.9 C 8.11 g/m*3 12.9 C 0 km/h
2210 02-05-2010 10:06:02 13.1 C 8.1 g/m*3 13.1 C 0 km/h
2211 02-05-2010 10:18:01 13.5 C 8.07 g/m*3 13.5 C 0 km/h
2212 02-05-2010 10:30:01 14.1 C 8.01 g/m*3 14.1 C 0 km/h
2213 02-05-2010 10:42:02 14.9 C 8.03 g/m*3 14.9 C 0 km/h
2214 02-05-2010 10:54:01 15.5 C 7.8 g/m*3 15.5 C 0 km/h
2215 02-05-2010 11:06:02 16.2 C 7.58 g/m*3 16.2 C 0 km/h
2216 02-05-2010 11:18:02 16.7 C 7.82 g/m*3 16.7 C 0 km/h
2217 02-05-2010 11:30:02 17.4 C 7.26 g/m*3 17.4 C 0 km/h
2218 02-05-2010 11:42:01 18.1 C 7.11 g/m*3 18.1 C 0 km/h
2219 02-05-2010 11:54:02 17.9 C 7.02 g/m*3 17.9 C 0 km/h
2220 02-05-2010 12:06:01 16.4 C 6.42 g/m*3 16.4 C 0 km/h
2221 02-05-2010 12:18:02 13.5 C 7.37 g/m*3 13.5 C 0 km/h
2222 02-05-2010 12:30:02 12.5 C 7.92 g/m*3 12.5 C 0 km/h
2223 02-05-2010 12:42:01 11.4 C 7.7 g/m*3 11.4 C 0 km/h
2224 02-05-2010 12:54:02 10.7 C 8.05 g/m*3 10.7 C 0 km/h
2225 02-05-2010 13:06:02 10.8 C 8.3 g/m*3 10.8 C 0 km/h
Sensor: Nr:Datum:Temp:Abs-Feuchte:Windchill:Wind:
Aussen-T/F 2226 02-05-2010 13:18:02 11.8 C 8.95 g/m*3 11.8 C 0 km/h
2227 02-05-2010 13:30:02 11.6 C 8.63 g/m*3 11.6 C 0 km/h
2228 02-05-2010 13:42:03 12.2 C 8.85 g/m*3 12.2 C 0 km/h
2229 02-05-2010 13:54:02 13.1 C 8.9 g/m*3 13.1 C 0 km/h
2230 02-05-2010 14:06:02 13.9 C 8.99 g/m*3 13.9 C 0 km/h
2231 02-05-2010 14:18:02 14.5 C 8.95 g/m*3 14.5 C 0 km/h
2232 02-05-2010 14:30:02 15.2 C 9.09 g/m*3 15.2 C 0 km/h
2233 02-05-2010 14:42:02 15.3 C 8.88 g/m*3 15.3 C 0 km/h
2234 02-05-2010 14:54:02 15.4 C 8.54 g/m*3 15.4 C 0 km/h
2235 02-05-2010 15:06:02 14.9 C 8.03 g/m*3 14.9 C 0 km/h
2236 02-05-2010 15:18:02 15.9 C 8.13 g/m*3 15.9 C 0 km/h
2237 02-05-2010 15:30:02 17.7 C 7.39 g/m*3 17.7 C 0 km/h
2238 02-05-2010 15:42:02 18.7 C 6.56 g/m*3 18.7 C 0 km/h
2239 02-05-2010 15:54:02 18.6 C 6.05 g/m*3 18.6 C 0 km/h
2240 02-05-2010 16:06:02 19.4 C 6.17 g/m*3 19.4 C 0 km/h
2241 02-05-2010 16:18:02 18.8 C 5.96 g/m*3 18.8 C 0 km/h
2242 02-05-2010 16:30:02 18 C 6.6 g/m*3 18 C 0 km/h
2243 02-05-2010 16:42:02 17.3 C 7.37 g/m*3 17.3 C 0 km/h
2244 02-05-2010 16:54:01 13.5 C 7.25 g/m*3 13.5 C 0 km/h
2245 02-05-2010 17:06:02 12.3 C 8.25 g/m*3 12.3 C 0 km/h
2246 02-05-2010 17:18:01 13.4 C 9.18 g/m*3 13.4 C 0 km/h
2247 02-05-2010 17:30:01 15.2 C 8.83 g/m*3 15.2 C 0 km/h
2248 02-05-2010 17:42:01 16.5 C 8.28 g/m*3 16.5 C 0 km/h
2249 02-05-2010 17:54:01 17.2 C 8.05 g/m*3 17.2 C 0 km/h
2250 02-05-2010 18:06:01 18.5 C 7.59 g/m*3 18.5 C 0 km/h
Sensor: Nr:Datum:Temp:Abs-Feuchte:Windchill:Wind:
Aussen-T/F 2251 02-05-2010 18:18:02 18 C 6.91 g/m*3 18 C 0 km/h
2252 02-05-2010 18:30:02 16.7 C 6.68 g/m*3 16.7 C 0 km/h
2253 02-05-2010 18:42:01 16.3 C 6.94 g/m*3 16.3 C 0 km/h
2254 02-05-2010 18:54:03 16.4 C 7.12 g/m*3 16.4 C 0 km/h
2255 02-05-2010 19:06:02 17.5 C 6.71 g/m*3 17.5 C 0 km/h
2256 02-05-2010 19:18:02 16.9 C 6.9 g/m*3 16.9 C 0 km/h
2257 02-05-2010 19:30:02 18 C 6.91 g/m*3 18 C 0 km/h
2258 02-05-2010 19:42:02 17.6 C 6.75 g/m*3 17.6 C 0 km/h
2259 02-05-2010 19:54:02 17.3 C 6.48 g/m*3 17.3 C 0 km/h
2260 02-05-2010 20:06:02 17.3 C 6.92 g/m*3 17.3 C 0 km/h
2261 02-05-2010 20:18:02 17 C 7.23 g/m*3 17 C 0 km/h
2262 02-05-2010 20:30:02 16.2 C 7.31 g/m*3 16.2 C 0 km/h
2263 02-05-2010 20:42:02 15.1 C 7.35 g/m*3 15.1 C 0 km/h
2264 02-05-2010 20:54:02 14.1 C 7.4 g/m*3 14.1 C 0 km/h
2265 02-05-2010 21:06:02 13.4 C 7.56 g/m*3 13.4 C 0 km/h
2266 02-05-2010 21:18:02 12.8 C 7.62 g/m*3 12.8 C 0 km/h
2267 02-05-2010 21:30:03 12.5 C 7.7 g/m*3 12.5 C 0 km/h
2268 02-05-2010 21:42:01 12.3 C 7.82 g/m*3 12.3 C 0 km/h
2269 02-05-2010 21:54:03 12.1 C 7.72 g/m*3 12.1 C 0 km/h
2270 02-05-2010 22:06:03 11.8 C 7.79 g/m*3 11.8 C 0 km/h
2271 02-05-2010 22:19:04 11.6 C 7.8 g/m*3 11.6 C 0 km/h
2272 02-05-2010 22:31:04 11.3 C 7.65 g/m*3 11.3 C 0 km/h
2273 02-05-2010 22:43:04 11.2 C 7.7 g/m*3 11.2 C 0 km/h
2274 02-05-2010 22:55:04 11 C 7.61 g/m*3 11 C 0 km/h
2275 02-05-2010 23:07:04 10.8 C 7.61 g/m*3 10.8 C 0 km/h
Sensor: Nr:Datum:Temp:Abs-Feuchte:Windchill:Wind:
Aussen-T/F 2276 02-05-2010 23:19:04 10.6 C 7.52 g/m*3 10.6 C 0 km/h
2277 02-05-2010 23:31:04 10.2 C 7.33 g/m*3 10.2 C 0 km/h
2278 02-05-2010 23:43:04 10.2 C 7.42 g/m*3 10.2 C 0 km/h
2279 02-05-2010 23:55:04 10.2 C 7.42 g/m*3 10.2 C 0 km/h
2280 03-05-2010 00:07:04 10.1 C 7.28 g/m*3 10.1 C 0 km/h
2281 03-05-2010 00:19:04 10 C 7.33 g/m*3 10 C 0 km/h
2282 03-05-2010 00:31:04 9.9 C 7.38 g/m*3 9.9 C 0 km/h
2283 03-05-2010 00:43:04 9.5 C 7.19 g/m*3 9.5 C 0 km/h
2284 03-05-2010 00:55:04 9.3 C 7.19 g/m*3 9.3 C 0 km/h
2285 03-05-2010 01:07:04 9.2 C 7.14 g/m*3 9.2 C 0 km/h
2286 03-05-2010 01:19:04 9.1 C 7.1 g/m*3 9.1 C 0 km/h
2287 03-05-2010 01:31:04 9.1 C 7.1 g/m*3 9.1 C 0 km/h
2288 03-05-2010 01:43:04 8.7 C 7.09 g/m*3 8.7 C 0 km/h
2289 03-05-2010 01:55:04 8.7 C 7.09 g/m*3 8.7 C 0 km/h
2290 03-05-2010 02:07:04 8.5 C 7 g/m*3 8.5 C 0 km/h
2291 03-05-2010 02:19:05 8.1 C 6.82 g/m*3 8.1 C 0 km/h
2292 03-05-2010 02:31:05 8 C 6.78 g/m*3 8 C 0 km/h
2293 03-05-2010 02:43:05 8 C 6.78 g/m*3 8 C 0 km/h
2294 03-05-2010 02:55:05 8 C 6.78 g/m*3 8 C 0 km/h
2295 03-05-2010 03:07:05 8.2 C 7.03 g/m*3 8.2 C 0 km/h
2296 03-05-2010 03:19:05 8.2 C 7.03 g/m*3 8.2 C 0 km/h
2297 03-05-2010 03:31:05 8 C 6.94 g/m*3 8 C 0 km/h
2298 03-05-2010 03:43:05 8 C 7.03 g/m*3 8 C 0 km/h
2299 03-05-2010 03:55:05 8.1 C 7.07 g/m*3 8.1 C 0 km/h
2300 03-05-2010 04:07:05 8.2 C 7.12 g/m*3 8.2 C 0 km/h
Sensor: Nr:Datum:Temp:Abs-Feuchte:Windchill:Wind:
Aussen-T/F 2301 03-05-2010 04:19:05 8.3 C 7.16 g/m*3 8.3 C 0 km/h
2302 03-05-2010 04:31:05 8.4 C 7.21 g/m*3 8.4 C 0 km/h
2303 03-05-2010 04:43:05 8.6 C 7.22 g/m*3 8.6 C 0 km/h
2304 03-05-2010 04:55:05 8.6 C 7.22 g/m*3 8.6 C 0 km/h
2305 03-05-2010 05:07:05 8.6 C 7.13 g/m*3 8.6 C 0 km/h
2306 03-05-2010 05:19:05 8.6 C 7.13 g/m*3 8.6 C 0 km/h
2307 03-05-2010 05:31:05 8.6 C 7.13 g/m*3 8.6 C 0 km/h
2308 03-05-2010 05:43:05 8.7 C 7.18 g/m*3 8.7 C 0 km/h
2309 03-05-2010 05:55:05 8.5 C 7.09 g/m*3 8.5 C 0 km/h
2310 03-05-2010 06:07:05 8.6 C 7.13 g/m*3 8.6 C 0 km/h
2311 03-05-2010 06:19:05 8.7 C 7.18 g/m*3 8.7 C 0 km/h
2312 03-05-2010 06:31:05 8.6 C 7.13 g/m*3 8.6 C 0 km/h
2313 03-05-2010 06:43:05 8.6 C 7.13 g/m*3 8.6 C 0 km/h
2314 03-05-2010 06:55:02 8.5 C 7.09 g/m*3 8.5 C 0 km/h
2315 03-05-2010 07:07:03 8.2 C 6.95 g/m*3 8.2 C 0 km/h
2316 03-05-2010 07:19:02 8.3 C 7 g/m*3 8.3 C 0 km/h
2317 03-05-2010 07:31:02 8.2 C 7.03 g/m*3 8.2 C 0 km/h
2318 03-05-2010 07:43:02 8.5 C 7.17 g/m*3 8.5 C 0 km/h
2319 03-05-2010 07:55:01 8.8 C 7.4 g/m*3 8.8 C 0 km/h
2320 03-05-2010 08:07:02 9.1 C 7.28 g/m*3 9.1 C 0 km/h
2321 03-05-2010 08:19:02 9.6 C 7.24 g/m*3 9.6 C 0 km/h
2322 03-05-2010 08:31:02 10 C 6.86 g/m*3 10 C 0 km/h
2323 03-05-2010 08:43:02 9.9 C 6.72 g/m*3 9.9 C 0 km/h
2324 03-05-2010 08:55:02 10 C 6.67 g/m*3 10 C 0 km/h
2325 03-05-2010 09:07:02 10.1 C 6.62 g/m*3 10.1 C 0 km/h
Sensor: Nr:Datum:Temp:Abs-Feuchte:Windchill:Wind:
Aussen-T/F 2326 03-05-2010 09:19:02 10.6 C 6.83 g/m*3 10.6 C 0 km/h
2327 03-05-2010 09:31:02 10.5 C 6.69 g/m*3 10.5 C 0 km/h
2328 03-05-2010 09:43:02 10.8 C 6.82 g/m*3 10.8 C 0 km/h
2329 03-05-2010 09:55:01 10.8 C 6.72 g/m*3 10.8 C 0 km/h
2330 03-05-2010 10:07:02 10.8 C 6.72 g/m*3 10.8 C 0 km/h
2331 03-05-2010 10:19:01 11 C 6.71 g/m*3 11 C 0 km/h
2332 03-05-2010 10:31:01 10.9 C 6.76 g/m*3 10.9 C 0 km/h
2333 03-05-2010 10:43:01 10.8 C 6.72 g/m*3 10.8 C 0 km/h
2334 03-05-2010 10:55:01 11.5 C 6.92 g/m*3 11.5 C 0 km/h
2335 03-05-2010 11:07:02 12.1 C 6.65 g/m*3 12.1 C 0 km/h
2336 03-05-2010 11:19:01 11.9 C 6.67 g/m*3 11.9 C 0 km/h
2337 03-05-2010 11:31:01 12.1 C 6.65 g/m*3 12.1 C 0 km/h
2338 03-05-2010 11:43:01 14.1 C 6.8 g/m*3 14.1 C 0 km/h
2339 03-05-2010 11:55:01 14.5 C 6.72 g/m*3 14.5 C 0 km/h
2340 03-05-2010 12:07:01 14.7 C 6.55 g/m*3 14.7 C 0 km/h
2341 03-05-2010 12:19:02 15.7 C 6.42 g/m*3 15.7 C 0 km/h
2342 03-05-2010 12:31:01 15.2 C 6.23 g/m*3 15.2 C 0 km/h
2343 03-05-2010 12:43:01 14.5 C 6.09 g/m*3 14.5 C 0 km/h
2344 03-05-2010 12:55:02 13.6 C 6.94 g/m*3 13.6 C 0 km/h
2345 03-05-2010 13:07:01 14.2 C 6.84 g/m*3 14.2 C 0 km/h
2346 03-05-2010 13:19:01 14.9 C 6.88 g/m*3 14.9 C 0 km/h
2347 03-05-2010 13:31:01 15.7 C 6.42 g/m*3 15.7 C 0 km/h
2348 03-05-2010 13:43:01 16.7 C 6.25 g/m*3 16.7 C 0 km/h
2349 03-05-2010 13:55:02 11.3 C 5.71 g/m*3 11.3 C 0 km/h
2350 03-05-2010 14:07:02 11.2 C 6.28 g/m*3 11.2 C 0 km/h
Sensor: Nr:Datum:Temp:Abs-Feuchte:Windchill:Wind:
Aussen-T/F 2351 03-05-2010 14:19:02 10.1 C 6.43 g/m*3 10.1 C 0 km/h
2352 03-05-2010 14:31:01 9.1 C 6.83 g/m*3 9.1 C 0 km/h
2353 03-05-2010 14:43:01 9 C 7.23 g/m*3 9 C 0 km/h
2354 03-05-2010 14:55:02 8.4 C 7.13 g/m*3 8.4 C 0 km/h
2355 03-05-2010 15:07:01 8.8 C 7.49 g/m*3 8.8 C 0 km/h
2356 03-05-2010 15:19:02 9 C 7.67 g/m*3 9 C 0 km/h
2357 03-05-2010 15:31:02 9.6 C 8.06 g/m*3 9.6 C 0 km/h
2358 03-05-2010 15:43:02 10.2 C 8.18 g/m*3 10.2 C 0 km/h
2359 03-05-2010 15:55:02 11.1 C 8.56 g/m*3 11.1 C 0 km/h
2360 03-05-2010 16:07:02 11.1 C 7.86 g/m*3 11.1 C 0 km/h
2361 03-05-2010 16:19:02 11 C 7.51 g/m*3 11 C 0 km/h
2362 03-05-2010 16:31:02 10.2 C 7.23 g/m*3 10.2 C 0 km/h
2363 03-05-2010 16:43:02 10.1 C 7.28 g/m*3 10.1 C 0 km/h
2364 03-05-2010 16:55:01 10.5 C 7.37 g/m*3 10.5 C 0 km/h
2365 03-05-2010 17:07:02 10.1 C 6.9 g/m*3 10.1 C 0 km/h
2366 03-05-2010 17:19:01 10.4 C 7.42 g/m*3 10.4 C 0 km/h
2367 03-05-2010 17:31:02 10.7 C 7.46 g/m*3 10.7 C 0 km/h
2368 03-05-2010 17:43:03 11.4 C 7.49 g/m*3 11.4 C 0 km/h
2369 03-05-2010 17:55:02 11.5 C 7.02 g/m*3 11.5 C 0 km/h
2370 03-05-2010 18:07:02 11.3 C 7.14 g/m*3 11.3 C 0 km/h
2371 03-05-2010 18:19:01 10.7 C 6.58 g/m*3 10.7 C 0 km/h
2372 03-05-2010 18:31:02 10.9 C 6.96 g/m*3 10.9 C 0 km/h
2373 03-05-2010 18:43:02 11 C 7.01 g/m*3 11 C 0 km/h
2374 03-05-2010 18:55:02 10.9 C 6.66 g/m*3 10.9 C 0 km/h
2375 03-05-2010 19:07:02 10.8 C 6.62 g/m*3 10.8 C 0 km/h
Sensor: Nr:Datum:Temp:Abs-Feuchte:Windchill:Wind:
Aussen-T/F 2376 03-05-2010 19:19:01 10.7 C 6.58 g/m*3 10.7 C 0 km/h
2377 03-05-2010 19:31:02 10.4 C 6.65 g/m*3 10.4 C 0 km/h
2378 03-05-2010 19:43:02 10.3 C 6.42 g/m*3 10.3 C 0 km/h
2379 03-05-2010 19:55:02 10.3 C 6.42 g/m*3 10.3 C 0 km/h
2380 03-05-2010 20:07:02 10.1 C 6.15 g/m*3 10.1 C 0 km/h
2381 03-05-2010 20:19:02 10 C 6.01 g/m*3 10 C 0 km/h
2382 03-05-2010 20:31:02 9.8 C 6.12 g/m*3 9.8 C 0 km/h
2383 03-05-2010 20:43:02 9.5 C 5.92 g/m*3 9.5 C 0 km/h
2384 03-05-2010 20:55:01 9.3 C 6.11 g/m*3 9.3 C 0 km/h
2385 03-05-2010 21:07:02 9.2 C 6.07 g/m*3 9.2 C 0 km/h
2386 03-05-2010 21:19:02 9.2 C 6.25 g/m*3 9.2 C 0 km/h
2387 03-05-2010 21:31:02 9.2 C 6.25 g/m*3 9.2 C 0 km/h
2388 03-05-2010 21:43:02 8.9 C 6.39 g/m*3 8.9 C 0 km/h
2389 03-05-2010 21:55:02 8.9 C 6.31 g/m*3 8.9 C 0 km/h
2390 03-05-2010 22:07:02 8.8 C 6.44 g/m*3 8.8 C 0 km/h
2391 03-05-2010 22:20:05 8.7 C 6.49 g/m*3 8.7 C 0 km/h
2392 03-05-2010 22:32:05 8.5 C 6.49 g/m*3 8.5 C 0 km/h
2393 03-05-2010 22:44:05 8.5 C 6.57 g/m*3 8.5 C 0 km/h
2394 03-05-2010 22:56:05 8.4 C 6.45 g/m*3 8.4 C 0 km/h
2395 03-05-2010 23:08:05 8.4 C 6.45 g/m*3 8.4 C 0 km/h
2396 03-05-2010 23:20:05 8.4 C 6.53 g/m*3 8.4 C 0 km/h
2397 03-05-2010 23:32:05 8.4 C 6.53 g/m*3 8.4 C 0 km/h
2398 03-05-2010 23:44:05 8.3 C 6.49 g/m*3 8.3 C 0 km/h
2399 03-05-2010 23:56:05 8.3 C 6.49 g/m*3 8.3 C 0 km/h
2400 04-05-2010 00:08:05 8 C 6.37 g/m*3 8 C 0 km/h
Sensor: Nr:Datum:Temp:Abs-Feuchte:Windchill:Wind:
Aussen-T/F 2401 04-05-2010 00:20:05 7.5 C 6.24 g/m*3 7.5 C 0 km/h
2402 04-05-2010 00:32:05 7.2 C 6.28 g/m*3 7.2 C 0 km/h
2403 04-05-2010 00:44:05 7.4 C 6.44 g/m*3 7.4 C 0 km/h
2404 04-05-2010 00:56:05 7.8 C 6.69 g/m*3 7.8 C 0 km/h
2405 04-05-2010 01:08:05 8 C 6.53 g/m*3 8 C 0 km/h
2406 04-05-2010 01:20:06 8.1 C 6.49 g/m*3 8.1 C 0 km/h
2407 04-05-2010 01:32:06 8.2 C 6.45 g/m*3 8.2 C 0 km/h
2408 04-05-2010 01:44:06 8.3 C 6.49 g/m*3 8.3 C 0 km/h
2409 04-05-2010 01:56:06 8.4 C 6.53 g/m*3 8.4 C 0 km/h
2410 04-05-2010 02:08:06 8.4 C 6.53 g/m*3 8.4 C 0 km/h
2411 04-05-2010 02:20:06 8.4 C 6.53 g/m*3 8.4 C 0 km/h
2412 04-05-2010 02:32:06 8.4 C 6.53 g/m*3 8.4 C 0 km/h
2413 04-05-2010 02:44:06 8.3 C 6.49 g/m*3 8.3 C 0 km/h
2414 04-05-2010 02:56:06 8.4 C 6.62 g/m*3 8.4 C 0 km/h
2415 04-05-2010 03:08:06 8.4 C 6.62 g/m*3 8.4 C 0 km/h
2416 04-05-2010 03:20:06 8.4 C 6.62 g/m*3 8.4 C 0 km/h
2417 04-05-2010 03:32:06 8.3 C 6.57 g/m*3 8.3 C 0 km/h
2418 04-05-2010 03:44:06 8.2 C 6.62 g/m*3 8.2 C 0 km/h
2419 04-05-2010 03:56:06 8.1 C 6.66 g/m*3 8.1 C 0 km/h
2420 04-05-2010 04:08:06 8 C 6.61 g/m*3 8 C 0 km/h
2421 04-05-2010 04:20:06 7.9 C 6.74 g/m*3 7.9 C 0 km/h
2422 04-05-2010 04:32:06 7.9 C 6.82 g/m*3 7.9 C 0 km/h
2423 04-05-2010 04:44:06 7.9 C 6.82 g/m*3 7.9 C 0 km/h
2424 04-05-2010 04:56:06 7.9 C 6.82 g/m*3 7.9 C 0 km/h
2425 04-05-2010 05:08:06 8 C 6.78 g/m*3 8 C 0 km/h
Sensor: Nr:Datum:Temp:Abs-Feuchte:Windchill:Wind:
Aussen-T/F 2426 04-05-2010 05:20:06 8.1 C 6.82 g/m*3 8.1 C 0 km/h
2427 04-05-2010 05:32:07 8.2 C 6.87 g/m*3 8.2 C 0 km/h
2428 04-05-2010 05:44:07 8.2 C 6.87 g/m*3 8.2 C 0 km/h
2429 04-05-2010 05:56:07 8.2 C 6.87 g/m*3 8.2 C 0 km/h
2430 04-05-2010 06:08:07 8.1 C 6.82 g/m*3 8.1 C 0 km/h
2431 04-05-2010 06:20:07 8.2 C 6.87 g/m*3 8.2 C 0 km/h
2432 04-05-2010 06:32:07 8.2 C 6.87 g/m*3 8.2 C 0 km/h
2433 04-05-2010 06:44:07 8.3 C 6.91 g/m*3 8.3 C 0 km/h
2434 04-05-2010 06:56:02 8.4 C 6.96 g/m*3 8.4 C 0 km/h
2435 04-05-2010 07:08:01 8.5 C 7 g/m*3 8.5 C 0 km/h
2436 04-05-2010 07:20:02 8.6 C 6.96 g/m*3 8.6 C 0 km/h
2437 04-05-2010 07:32:01 8.7 C 7.01 g/m*3 8.7 C 0 km/h
2438 04-05-2010 07:44:01 8.7 C 6.92 g/m*3 8.7 C 0 km/h
2439 04-05-2010 07:56:02 8.8 C 6.79 g/m*3 8.8 C 0 km/h
2440 04-05-2010 08:08:01 9.2 C 6.61 g/m*3 9.2 C 0 km/h
2441 04-05-2010 08:20:01 9 C 6.44 g/m*3 9 C 0 km/h
2442 04-05-2010 08:32:02 9.1 C 6.48 g/m*3 9.1 C 0 km/h
2443 04-05-2010 08:44:03 8.9 C 6.31 g/m*3 8.9 C 0 km/h
2444 04-05-2010 08:56:02 8.9 C 6.31 g/m*3 8.9 C 0 km/h
2445 04-05-2010 09:08:02 9.2 C 6.34 g/m*3 9.2 C 0 km/h
2446 04-05-2010 09:20:01 9.1 C 6.21 g/m*3 9.1 C 0 km/h
2447 04-05-2010 09:32:02 9.3 C 6.29 g/m*3 9.3 C 0 km/h
2448 04-05-2010 09:44:02 9.3 C 6.2 g/m*3 9.3 C 0 km/h
2449 04-05-2010 09:56:02 9.5 C 6.19 g/m*3 9.5 C 0 km/h
2450 04-05-2010 10:08:02 9.6 C 6.14 g/m*3 9.6 C 0 km/h
Sensor: Nr:Datum:Temp:Abs-Feuchte:Windchill:Wind:
Aussen-T/F 2451 04-05-2010 10:20:01 9.8 C 5.85 g/m*3 9.8 C 0 km/h
2452 04-05-2010 10:32:02 9.8 C 5.85 g/m*3 9.8 C 0 km/h
2453 04-05-2010 10:44:02 9.9 C 5.7 g/m*3 9.9 C 0 km/h
2454 04-05-2010 10:56:01 10 C 5.54 g/m*3 10 C 0 km/h
2455 04-05-2010 11:08:02 10.2 C 5.52 g/m*3 10.2 C 0 km/h
2456 04-05-2010 11:20:02 10.5 C 5.24 g/m*3 10.5 C 0 km/h
2457 04-05-2010 11:32:02 10.7 C 5.21 g/m*3 10.7 C 0 km/h
2458 04-05-2010 11:44:02 11.1 C 5.04 g/m*3 11.1 C 0 km/h
2459 04-05-2010 11:56:02 11.3 C 5 g/m*3 11.3 C 0 km/h
2460 04-05-2010 12:08:02 10.8 C 4.94 g/m*3 10.8 C 0 km/h
2461 04-05-2010 12:20:02 10.5 C 4.85 g/m*3 10.5 C 0 km/h
2462 04-05-2010 12:32:01 10.6 C 4.78 g/m*3 10.6 C 0 km/h
2463 04-05-2010 12:44:01 11.6 C 4.89 g/m*3 11.6 C 0 km/h
2464 04-05-2010 12:56:02 12 C 4.69 g/m*3 12 C 0 km/h
2465 04-05-2010 13:08:01 12.2 C 4.64 g/m*3 12.2 C 0 km/h
2466 04-05-2010 13:20:02 11.7 C 4.71 g/m*3 11.7 C 0 km/h
2467 04-05-2010 13:32:01 11.8 C 4.53 g/m*3 11.8 C 0 km/h
2468 04-05-2010 13:44:01 12 C 4.48 g/m*3 12 C 0 km/h
2469 04-05-2010 13:56:02 12.2 C 4.53 g/m*3 12.2 C 0 km/h
2470 04-05-2010 14:08:02 12.1 C 4.5 g/m*3 12.1 C 0 km/h
2471 04-05-2010 14:20:02 12.5 C 4.84 g/m*3 12.5 C 0 km/h
2472 04-05-2010 14:32:02 13.1 C 4.56 g/m*3 13.1 C 0 km/h
2473 04-05-2010 14:44:02 13.4 C 4.65 g/m*3 13.4 C 0 km/h
2474 04-05-2010 14:56:02 13.5 C 4.44 g/m*3 13.5 C 0 km/h
2475 04-05-2010 15:08:02 13.5 C 4.56 g/m*3 13.5 C 0 km/h
Sensor: Nr:Datum:Temp:Abs-Feuchte:Windchill:Wind:
Aussen-T/F 2476 04-05-2010 15:20:02 13.8 C 4.41 g/m*3 13.8 C 0 km/h
2477 04-05-2010 15:32:02 13.5 C 4.44 g/m*3 13.5 C 0 km/h
2478 04-05-2010 15:44:02 13.5 C 4.56 g/m*3 13.5 C 0 km/h
2479 04-05-2010 15:56:02 12.9 C 4.51 g/m*3 12.9 C 0 km/h
2480 04-05-2010 16:08:02 12.5 C 4.51 g/m*3 12.5 C 0 km/h
2481 04-05-2010 16:20:02 12.8 C 4.59 g/m*3 12.8 C 0 km/h
2482 04-05-2010 16:32:02 12.5 C 4.4 g/m*3 12.5 C 0 km/h
2483 04-05-2010 16:44:02 12.5 C 4.4 g/m*3 12.5 C 0 km/h
2484 04-05-2010 16:56:01 12 C 4.26 g/m*3 12 C 0 km/h
2485 04-05-2010 17:08:02 12 C 4.26 g/m*3 12 C 0 km/h
2486 04-05-2010 17:20:01 11.4 C 4.31 g/m*3 11.4 C 0 km/h
2487 04-05-2010 17:32:02 11.4 C 4.41 g/m*3 11.4 C 0 km/h
2488 04-05-2010 17:44:02 11.5 C 4.34 g/m*3 11.5 C 0 km/h
2489 04-05-2010 17:56:02 11.4 C 4.31 g/m*3 11.4 C 0 km/h
2490 04-05-2010 18:08:02 11.5 C 4.23 g/m*3 11.5 C 0 km/h
2491 04-05-2010 18:20:02 11.4 C 4.21 g/m*3 11.4 C 0 km/h
2492 04-05-2010 18:32:02 11.2 C 4.16 g/m*3 11.2 C 0 km/h
2493 04-05-2010 18:44:02 11.1 C 4.13 g/m*3 11.1 C 0 km/h
2494 04-05-2010 18:56:02 11 C 4.3 g/m*3 11 C 0 km/h
2495 04-05-2010 19:08:02 11 C 4.3 g/m*3 11 C 0 km/h
2496 04-05-2010 19:20:02 12 C 4.16 g/m*3 12 C 0 km/h
2497 04-05-2010 19:32:02 11.4 C 4 g/m*3 11.4 C 0 km/h
2498 04-05-2010 19:44:02 11 C 4 g/m*3 11 C 0 km/h
2499 04-05-2010 19:56:01 11 C 4.2 g/m*3 11 C 0 km/h
2500 04-05-2010 20:08:02 10.7 C 4.22 g/m*3 10.7 C 0 km/h
Sensor: Nr:Datum:Temp:Abs-Feuchte:Windchill:Wind:
Aussen-T/F 2501 04-05-2010 20:20:01 10.6 C 4.49 g/m*3 10.6 C 0 km/h
2502 04-05-2010 20:32:01 10.1 C 4.35 g/m*3 10.1 C 0 km/h
2503 04-05-2010 20:44:01 9.8 C 4.36 g/m*3 9.8 C 0 km/h
2504 04-05-2010 20:56:01 9.4 C 4.34 g/m*3 9.4 C 0 km/h
2505 04-05-2010 21:08:02 9.5 C 4.28 g/m*3 9.5 C 0 km/h
2506 04-05-2010 21:20:01 9.6 C 4.31 g/m*3 9.6 C 0 km/h
2507 04-05-2010 21:32:01 9.7 C 4.61 g/m*3 9.7 C 0 km/h
2508 04-05-2010 21:44:01 9.5 C 4.64 g/m*3 9.5 C 0 km/h
2509 04-05-2010 21:56:01 8.8 C 4.61 g/m*3 8.8 C 0 km/h
2510 04-05-2010 22:09:04 8.2 C 4.35 g/m*3 8.2 C 0 km/h
2511 04-05-2010 22:21:04 8.1 C 4.33 g/m*3 8.1 C 0 km/h
2512 04-05-2010 22:33:05 7.8 C 4.24 g/m*3 7.8 C 0 km/h
2513 04-05-2010 22:45:05 7.7 C 4.14 g/m*3 7.7 C 0 km/h
2514 04-05-2010 22:57:05 7.5 C 4.16 g/m*3 7.5 C 0 km/h
2515 04-05-2010 23:09:05 7.4 C 4.14 g/m*3 7.4 C 0 km/h
2516 04-05-2010 23:21:05 7.4 C 4.14 g/m*3 7.4 C 0 km/h
2517 04-05-2010 23:33:05 7.3 C 4.03 g/m*3 7.3 C 0 km/h
2518 04-05-2010 23:45:05 7.3 C 4.03 g/m*3 7.3 C 0 km/h
2519 04-05-2010 23:57:05 7 C 3.95 g/m*3 7 C 0 km/h
2520 05-05-2010 00:09:05 6.8 C 4.05 g/m*3 6.8 C 0 km/h
2521 05-05-2010 00:21:05 6.7 C 4.18 g/m*3 6.7 C 0 km/h
2522 05-05-2010 00:33:05 6.3 C 4.22 g/m*3 6.3 C 0 km/h
2523 05-05-2010 00:45:05 6 C 4.21 g/m*3 6 C 0 km/h
2524 05-05-2010 00:57:05 5.8 C 4.37 g/m*3 5.8 C 0 km/h
2525 05-05-2010 01:09:05 5.5 C 4.35 g/m*3 5.5 C 0 km/h
Sensor: Nr:Datum:Temp:Abs-Feuchte:Windchill:Wind:
Aussen-T/F 2526 05-05-2010 01:21:05 5.3 C 4.44 g/m*3 5.3 C 0 km/h
2527 05-05-2010 01:33:05 5.4 C 4.4 g/m*3 5.4 C 0 km/h
2528 05-05-2010 01:45:05 5.6 C 4.31 g/m*3 5.6 C 0 km/h
2529 05-05-2010 01:57:05 5.6 C 4.24 g/m*3 5.6 C 0 km/h
2530 05-05-2010 02:09:05 5.7 C 4.13 g/m*3 5.7 C 0 km/h
2531 05-05-2010 02:21:05 5.7 C 4.13 g/m*3 5.7 C 0 km/h
2532 05-05-2010 02:33:05 5.6 C 4.17 g/m*3 5.6 C 0 km/h
2533 05-05-2010 02:45:06 5.5 C 4.21 g/m*3 5.5 C 0 km/h
2534 05-05-2010 02:57:06 5.2 C 4.2 g/m*3 5.2 C 0 km/h
2535 05-05-2010 03:09:06 5.1 C 4.24 g/m*3 5.1 C 0 km/h
2536 05-05-2010 03:21:06 4.8 C 4.22 g/m*3 4.8 C 0 km/h
2537 05-05-2010 03:33:06 4.7 C 4.13 g/m*3 4.7 C 0 km/h
2538 05-05-2010 03:45:06 4.6 C 4.1 g/m*3 4.6 C 0 km/h
2539 05-05-2010 03:57:06 4.5 C 4.01 g/m*3 4.5 C 0 km/h
2540 05-05-2010 04:09:06 4.3 C 3.96 g/m*3 4.3 C 0 km/h
2541 05-05-2010 04:21:06 4 C 4.01 g/m*3 4 C 0 km/h
2542 05-05-2010 04:33:06 3.8 C 4.08 g/m*3 3.8 C 0 km/h
2543 05-05-2010 04:45:06 3.7 C 4.11 g/m*3 3.7 C 0 km/h
2544 05-05-2010 04:57:06 3.7 C 4.05 g/m*3 3.7 C 0 km/h
2545 05-05-2010 05:09:06 3.6 C 4.02 g/m*3 3.6 C 0 km/h
2546 05-05-2010 05:21:06 3.6 C 3.96 g/m*3 3.6 C 0 km/h
2547 05-05-2010 05:33:06 3.6 C 3.9 g/m*3 3.6 C 0 km/h
2548 05-05-2010 05:45:06 3.4 C 3.79 g/m*3 3.4 C 0 km/h
2549 05-05-2010 05:57:06 3.2 C 3.86 g/m*3 3.2 C 0 km/h
2550 05-05-2010 06:09:06 3 C 3.86 g/m*3 3 C 0 km/h
Sensor: Nr:Datum:Temp:Abs-Feuchte:Windchill:Wind:
Aussen-T/F 2551 05-05-2010 06:21:06 2.8 C 3.99 g/m*3 2.8 C 0 km/h
2552 05-05-2010 06:33:03 2.6 C 3.99 g/m*3 2.6 C 0 km/h
2553 05-05-2010 06:45:03 2.5 C 4.02 g/m*3 2.5 C 0 km/h
2554 05-05-2010 06:57:03 2.5 C 4.08 g/m*3 2.5 C 0 km/h
2555 05-05-2010 07:09:02 2.5 C 4.14 g/m*3 2.5 C 0 km/h
2556 05-05-2010 07:21:03 2.7 C 4.25 g/m*3 2.7 C 0 km/h
2557 05-05-2010 07:33:02 2.8 C 4.28 g/m*3 2.8 C 0 km/h
2558 05-05-2010 07:45:02 3 C 4.28 g/m*3 3 C 0 km/h
2559 05-05-2010 07:57:02 3.4 C 4.4 g/m*3 3.4 C 0 km/h
2560 05-05-2010 08:09:02 3.8 C 4.45 g/m*3 3.8 C 0 km/h
2561 05-05-2010 08:21:02 4.4 C 4.31 g/m*3 4.4 C 0 km/h
2562 05-05-2010 08:33:02 4.6 C 4.17 g/m*3 4.6 C 0 km/h
2563 05-05-2010 08:45:02 4.9 C 4.12 g/m*3 4.9 C 0 km/h
2564 05-05-2010 08:57:02 5.3 C 4.02 g/m*3 5.3 C 0 km/h
2565 05-05-2010 09:09:01 6 C 3.99 g/m*3 6 C 0 km/h
2566 05-05-2010 09:21:02 6.6 C 3.85 g/m*3 6.6 C 0 km/h
2567 05-05-2010 09:33:02 7.2 C 3.92 g/m*3 7.2 C 0 km/h
2568 05-05-2010 09:45:02 7.5 C 3.76 g/m*3 7.5 C 0 km/h
2569 05-05-2010 09:57:02 7.9 C 3.7 g/m*3 7.9 C 0 km/h
2570 05-05-2010 10:09:02 8.1 C 3.58 g/m*3 8.1 C 0 km/h
2571 05-05-2010 10:21:02 8.6 C 3.52 g/m*3 8.6 C 0 km/h
2572 05-05-2010 10:33:02 9.5 C 3.37 g/m*3 9.5 C 0 km/h
2573 05-05-2010 10:45:01 9.6 C 3.11 g/m*3 9.6 C 0 km/h
2574 05-05-2010 10:57:01 10 C 2.91 g/m*3 10 C 0 km/h
2575 05-05-2010 11:09:02 10.4 C 2.89 g/m*3 10.4 C 0 km/h
Sensor: Nr:Datum:Temp:Abs-Feuchte:Windchill:Wind:
Aussen-T/F 2576 05-05-2010 11:21:01 10.7 C 2.75 g/m*3 10.7 C 0 km/h
2577 05-05-2010 11:33:02 11.2 C 3.04 g/m*3 11.2 C 0 km/h
2578 05-05-2010 11:45:02 11.9 C 2.65 g/m*3 11.9 C 0 km/h
2579 05-05-2010 11:57:02 12.5 C 2.42 g/m*3 12.5 C 0 km/h
2580 05-05-2010 12:09:02 12.7 C 2.23 g/m*3 12.7 C 0 km/h
2581 05-05-2010 12:21:01 12.7 C 2.23 g/m*3 12.7 C 0 km/h
2582 05-05-2010 12:33:02 13.4 C 2.32 g/m*3 13.4 C 0 km/h
2583 05-05-2010 12:45:02 14.6 C 2.5 g/m*3 14.6 C 0 km/h
2584 05-05-2010 12:57:02 15.2 C 2.6 g/m*3 15.2 C 0 km/h
2585 05-05-2010 13:09:02 15.9 C 2.71 g/m*3 15.9 C 0 km/h
2586 05-05-2010 13:21:01 16.6 C 2.83 g/m*3 16.6 C 0 km/h
2587 05-05-2010 13:33:02 17.2 C 2.93 g/m*3 17.2 C 0 km/h
2588 05-05-2010 13:45:01 16.6 C 2.83 g/m*3 16.6 C 0 km/h
2589 05-05-2010 13:57:01 16.4 C 2.79 g/m*3 16.4 C 0 km/h
2590 05-05-2010 14:09:02 16.7 C 2.84 g/m*3 16.7 C 0 km/h
2591 05-05-2010 14:21:02 16.7 C 2.84 g/m*3 16.7 C 0 km/h
2592 05-05-2010 14:33:01 17 C 2.89 g/m*3 17 C 0 km/h
2593 05-05-2010 14:45:01 17.4 C 2.96 g/m*3 17.4 C 0 km/h
2594 05-05-2010 14:57:01 17.5 C 2.98 g/m*3 17.5 C 0 km/h
2595 05-05-2010 15:09:02 18.3 C 3.13 g/m*3 18.3 C 0 km/h
2596 05-05-2010 15:21:02 18.2 C 3.11 g/m*3 18.2 C 0 km/h
2597 05-05-2010 15:33:01 17.8 C 3.04 g/m*3 17.8 C 0 km/h
2598 05-05-2010 15:45:02 18 C 3.07 g/m*3 18 C 0 km/h
2599 05-05-2010 15:57:02 18.2 C 3.11 g/m*3 18.2 C 0 km/h
2600 05-05-2010 16:09:01 18.3 C 3.13 g/m*3 18.3 C 0 km/h
Sensor: Nr:Datum:Temp:Abs-Feuchte:Windchill:Wind:
Aussen-T/F 2601 05-05-2010 16:21:01 18.1 C 3.09 g/m*3 18.1 C 0 km/h
2602 05-05-2010 16:33:01 17.7 C 3.02 g/m*3 17.7 C 0 km/h
2603 05-05-2010 16:45:02 17.5 C 2.98 g/m*3 17.5 C 0 km/h
2604 05-05-2010 16:57:02 17.2 C 2.93 g/m*3 17.2 C 0 km/h
2605 05-05-2010 17:09:02 16.7 C 2.84 g/m*3 16.7 C 0 km/h
2606 05-05-2010 17:21:02 16.2 C 2.76 g/m*3 16.2 C 0 km/h
2607 05-05-2010 17:33:02 15.6 C 2.66 g/m*3 15.6 C 0 km/h
2608 05-05-2010 17:45:02 15.1 C 2.58 g/m*3 15.1 C 0 km/h
2609 05-05-2010 17:57:02 14.8 C 2.53 g/m*3 14.8 C 0 km/h
2610 05-05-2010 18:09:01 14.5 C 2.49 g/m*3 14.5 C 0 km/h
2611 05-05-2010 18:21:01 14.4 C 2.47 g/m*3 14.4 C 0 km/h
2612 05-05-2010 18:33:02 14.2 C 2.44 g/m*3 14.2 C 0 km/h
2613 05-05-2010 18:45:02 14.1 C 2.43 g/m*3 14.1 C 0 km/h
2614 05-05-2010 18:57:02 13.8 C 2.38 g/m*3 13.8 C 0 km/h
2615 05-05-2010 19:09:02 13.7 C 2.37 g/m*3 13.7 C 0 km/h
2616 05-05-2010 19:21:01 13.6 C 2.35 g/m*3 13.6 C 0 km/h
2617 05-05-2010 19:33:02 13.5 C 2.34 g/m*3 13.5 C 0 km/h
2618 05-05-2010 19:45:02 13.3 C 2.43 g/m*3 13.3 C 0 km/h
2619 05-05-2010 19:57:02 13.1 C 2.28 g/m*3 13.1 C 0 km/h
2620 05-05-2010 20:09:02 13 C 2.49 g/m*3 13 C 0 km/h
2621 05-05-2010 20:21:02 12.9 C 2.82 g/m*3 12.9 C 0 km/h
2622 05-05-2010 20:33:02 12.8 C 2.91 g/m*3 12.8 C 0 km/h
2623 05-05-2010 20:45:02 12.7 C 2.89 g/m*3 12.7 C 0 km/h
2624 05-05-2010 20:57:02 12.6 C 2.88 g/m*3 12.6 C 0 km/h
2625 05-05-2010 21:09:02 12.5 C 2.86 g/m*3 12.5 C 0 km/h
Sensor: Nr:Datum:Temp:Abs-Feuchte:Windchill:Wind:
Aussen-T/F 2626 05-05-2010 21:21:02 12.4 C 2.84 g/m*3 12.4 C 0 km/h
2627 05-05-2010 21:33:02 12.3 C 2.82 g/m*3 12.3 C 0 km/h
2628 05-05-2010 21:45:02 12.3 C 2.93 g/m*3 12.3 C 0 km/h
2629 05-05-2010 21:57:02 12.2 C 2.91 g/m*3 12.2 C 0 km/h
2630 05-05-2010 22:09:03 12.1 C 3 g/m*3 12.1 C 0 km/h
2631 05-05-2010 22:21:02 12 C 3.09 g/m*3 12 C 0 km/h
2632 05-05-2010 22:34:02 11.9 C 3.39 g/m*3 11.9 C 0 km/h
2633 05-05-2010 22:46:02 11.7 C 3.35 g/m*3 11.7 C 0 km/h
2634 05-05-2010 22:58:02 11.7 C 3.35 g/m*3 11.7 C 0 km/h
2635 05-05-2010 23:10:02 11.6 C 3.22 g/m*3 11.6 C 0 km/h
2636 05-05-2010 23:22:02 11.5 C 3.2 g/m*3 11.5 C 0 km/h
2637 05-05-2010 23:34:02 11.6 C 3.33 g/m*3 11.6 C 0 km/h
2638 05-05-2010 23:46:02 11.4 C 3.39 g/m*3 11.4 C 0 km/h
2639 05-05-2010 23:58:02 11.4 C 3.39 g/m*3 11.4 C 0 km/h
2640 06-05-2010 00:10:02 11.3 C 3.47 g/m*3 11.3 C 0 km/h
2641 06-05-2010 00:22:02 11.2 C 3.55 g/m*3 11.2 C 0 km/h
2642 06-05-2010 00:34:02 11.2 C 3.55 g/m*3 11.2 C 0 km/h
2643 06-05-2010 00:46:02 10.7 C 4.03 g/m*3 10.7 C 0 km/h
2644 06-05-2010 00:58:02 9.8 C 4.45 g/m*3 9.8 C 0 km/h
2645 06-05-2010 01:10:02 8.7 C 5.1 g/m*3 8.7 C 0 km/h
2646 06-05-2010 01:22:02 7.9 C 5.5 g/m*3 7.9 C 0 km/h
2647 06-05-2010 01:34:02 7.3 C 5.93 g/m*3 7.3 C 0 km/h
2648 06-05-2010 01:46:02 7.1 C 6.01 g/m*3 7.1 C 0 km/h
2649 06-05-2010 01:58:03 7 C 6.04 g/m*3 7 C 0 km/h
2650 06-05-2010 02:10:03 6.9 C 6.31 g/m*3 6.9 C 0 km/h
Sensor: Nr:Datum:Temp:Abs-Feuchte:Windchill:Wind:
Aussen-T/F 2651 06-05-2010 02:22:03 6.8 C 6.42 g/m*3 6.8 C 0 km/h
2652 06-05-2010 02:34:03 6.7 C 6.53 g/m*3 6.7 C 0 km/h
2653 06-05-2010 02:46:03 6.5 C 6.52 g/m*3 6.5 C 0 km/h
2654 06-05-2010 02:58:03 6.8 C 6.73 g/m*3 6.8 C 0 km/h
2655 06-05-2010 03:10:03 6.8 C 6.81 g/m*3 6.8 C 0 km/h
2656 06-05-2010 03:22:03 6.7 C 6.84 g/m*3 6.7 C 0 km/h
2657 06-05-2010 03:34:03 6.5 C 6.82 g/m*3 6.5 C 0 km/h
2658 06-05-2010 03:46:03 6.9 C 7.01 g/m*3 6.9 C 0 km/h
2659 06-05-2010 03:58:03 6.8 C 7.04 g/m*3 6.8 C 0 km/h
2660 06-05-2010 04:10:03 6.9 C 7.08 g/m*3 6.9 C 0 km/h
2661 06-05-2010 04:22:03 6.9 C 7.08 g/m*3 6.9 C 0 km/h
2662 06-05-2010 04:34:03 6.9 C 7.08 g/m*3 6.9 C 0 km/h
2663 06-05-2010 04:46:03 6.9 C 7.08 g/m*3 6.9 C 0 km/h
2664 06-05-2010 04:58:03 6.8 C 7.04 g/m*3 6.8 C 0 km/h
2665 06-05-2010 05:10:03 6.6 C 7.02 g/m*3 6.6 C 0 km/h
2666 06-05-2010 05:22:03 6.5 C 6.97 g/m*3 6.5 C 0 km/h
2667 06-05-2010 05:34:03 6.6 C 7.02 g/m*3 6.6 C 0 km/h
2668 06-05-2010 05:46:03 6.8 C 7.11 g/m*3 6.8 C 0 km/h
2669 06-05-2010 05:58:04 6.8 C 7.11 g/m*3 6.8 C 0 km/h
2670 06-05-2010 06:10:04 6.5 C 6.97 g/m*3 6.5 C 0 km/h
2671 06-05-2010 06:22:04 6.5 C 6.97 g/m*3 6.5 C 0 km/h
2672 06-05-2010 06:34:04 6.5 C 6.97 g/m*3 6.5 C 0 km/h
2673 06-05-2010 06:46:04 6.6 C 7.02 g/m*3 6.6 C 0 km/h
2674 06-05-2010 06:58:04 6.5 C 7.05 g/m*3 6.5 C 0 km/h
2675 06-05-2010 07:10:01 6.4 C 7 g/m*3 6.4 C 0 km/h
Sensor: Nr:Datum:Temp:Abs-Feuchte:Windchill:Wind:
Aussen-T/F 2676 06-05-2010 07:22:02 6.4 C 7 g/m*3 6.4 C 0 km/h
2677 06-05-2010 07:34:01 6.3 C 6.96 g/m*3 6.3 C 0 km/h
2678 06-05-2010 07:46:03 6.5 C 7.05 g/m*3 6.5 C 0 km/h
2679 06-05-2010 07:58:03 6.3 C 6.96 g/m*3 6.3 C 0 km/h
2680 06-05-2010 08:10:02 6.1 C 6.87 g/m*3 6.1 C 0 km/h
2681 06-05-2010 08:22:02 6.2 C 6.91 g/m*3 6.2 C 0 km/h
2682 06-05-2010 08:34:03 6.2 C 6.91 g/m*3 6.2 C 0 km/h
2683 06-05-2010 08:46:02 6.4 C 7 g/m*3 6.4 C 0 km/h
2684 06-05-2010 08:58:02 6.2 C 6.91 g/m*3 6.2 C 0 km/h
2685 06-05-2010 09:10:02 6.2 C 6.84 g/m*3 6.2 C 0 km/h
2686 06-05-2010 09:22:01 6.4 C 7 g/m*3 6.4 C 0 km/h
2687 06-05-2010 09:34:02 6.6 C 7.1 g/m*3 6.6 C 0 km/h
2688 06-05-2010 09:46:02 6.8 C 7.19 g/m*3 6.8 C 0 km/h
2689 06-05-2010 09:58:02 6.8 C 7.19 g/m*3 6.8 C 0 km/h
2690 06-05-2010 10:10:02 6.8 C 7.19 g/m*3 6.8 C 0 km/h
2691 06-05-2010 10:22:02 6.9 C 7.24 g/m*3 6.9 C 0 km/h
2692 06-05-2010 10:34:02 6.8 C 7.11 g/m*3 6.8 C 0 km/h
2693 06-05-2010 10:46:02 6.8 C 7.11 g/m*3 6.8 C 0 km/h
2694 06-05-2010 10:58:02 6.9 C 7.16 g/m*3 6.9 C 0 km/h
2695 06-05-2010 11:10:02 7 C 7.21 g/m*3 7 C 0 km/h
2696 06-05-2010 11:22:02 7 C 7.13 g/m*3 7 C 0 km/h
2697 06-05-2010 11:34:02 7 C 7.13 g/m*3 7 C 0 km/h
2698 06-05-2010 11:46:01 7.1 C 7.18 g/m*3 7.1 C 0 km/h
2699 06-05-2010 11:58:01 7.1 C 7.18 g/m*3 7.1 C 0 km/h
2700 06-05-2010 12:10:01 7.2 C 7.22 g/m*3 7.2 C 0 km/h
Sensor: Nr:Datum:Temp:Abs-Feuchte:Windchill:Wind:
Aussen-T/F 2701 06-05-2010 12:22:02 6.9 C 7.08 g/m*3 6.9 C 0 km/h
2702 06-05-2010 12:34:02 6.9 C 7.01 g/m*3 6.9 C 0 km/h
2703 06-05-2010 12:46:01 7.1 C 7.1 g/m*3 7.1 C 0 km/h
2704 06-05-2010 12:58:01 7.2 C 7.06 g/m*3 7.2 C 0 km/h
2705 06-05-2010 13:10:02 7.5 C 7.2 g/m*3 7.5 C 0 km/h
2706 06-05-2010 13:22:01 7.7 C 7.3 g/m*3 7.7 C 0 km/h
2707 06-05-2010 13:34:02 7.4 C 7.16 g/m*3 7.4 C 0 km/h
2708 06-05-2010 13:46:02 7.3 C 7.19 g/m*3 7.3 C 0 km/h
2709 06-05-2010 13:58:02 7.2 C 7.14 g/m*3 7.2 C 0 km/h
2710 06-05-2010 14:10:03 7.3 C 7.27 g/m*3 7.3 C 0 km/h
2711 06-05-2010 14:22:02 7.4 C 7.32 g/m*3 7.4 C 0 km/h
2712 06-05-2010 14:34:03 7.3 C 7.27 g/m*3 7.3 C 0 km/h
2713 06-05-2010 14:46:02 7.4 C 7.32 g/m*3 7.4 C 0 km/h
2714 06-05-2010 14:58:02 7.6 C 7.49 g/m*3 7.6 C 0 km/h
2715 06-05-2010 15:10:02 7.5 C 7.44 g/m*3 7.5 C 0 km/h
2716 06-05-2010 15:22:02 7.1 C 7.18 g/m*3 7.1 C 0 km/h
2717 06-05-2010 15:34:03 7.1 C 7.25 g/m*3 7.1 C 0 km/h
2718 06-05-2010 15:46:01 6.9 C 7.16 g/m*3 6.9 C 0 km/h
2719 06-05-2010 15:58:01 6.9 C 7.24 g/m*3 6.9 C 0 km/h
2720 06-05-2010 16:10:02 6.7 C 7.14 g/m*3 6.7 C 0 km/h
2721 06-05-2010 16:22:02 6.5 C 6.97 g/m*3 6.5 C 0 km/h
2722 06-05-2010 16:34:02 6.5 C 6.97 g/m*3 6.5 C 0 km/h
2723 06-05-2010 16:46:03 6.5 C 6.97 g/m*3 6.5 C 0 km/h
2724 06-05-2010 16:58:03 6.5 C 6.97 g/m*3 6.5 C 0 km/h
2725 06-05-2010 17:10:02 6.5 C 6.9 g/m*3 6.5 C 0 km/h
Sensor: Nr:Datum:Temp:Abs-Feuchte:Windchill:Wind:
Aussen-T/F 2726 06-05-2010 17:22:03 6.6 C 6.95 g/m*3 6.6 C 0 km/h
2727 06-05-2010 17:34:02 6.4 C 6.85 g/m*3 6.4 C 0 km/h
2728 06-05-2010 17:46:03 6.5 C 6.9 g/m*3 6.5 C 0 km/h
2729 06-05-2010 17:58:03 6.3 C 6.81 g/m*3 6.3 C 0 km/h
2730 06-05-2010 18:10:02 6 C 6.6 g/m*3 6 C 0 km/h
2731 06-05-2010 18:22:02 5.9 C 6.56 g/m*3 5.9 C 0 km/h
2732 06-05-2010 18:34:02 5.8 C 6.52 g/m*3 5.8 C 0 km/h
2733 06-05-2010 18:46:02 5.9 C 6.63 g/m*3 5.9 C 0 km/h
2734 06-05-2010 18:58:02 5.9 C 6.63 g/m*3 5.9 C 0 km/h
2735 06-05-2010 19:10:02 6 C 6.6 g/m*3 6 C 0 km/h
2736 06-05-2010 19:22:02 5.9 C 6.63 g/m*3 5.9 C 0 km/h
2737 06-05-2010 19:34:02 5.9 C 6.63 g/m*3 5.9 C 0 km/h
2738 06-05-2010 19:46:02 5.7 C 6.55 g/m*3 5.7 C 0 km/h
2739 06-05-2010 19:58:02 5.6 C 6.57 g/m*3 5.6 C 0 km/h
2740 06-05-2010 20:10:01 5.6 C 6.57 g/m*3 5.6 C 0 km/h
2741 06-05-2010 20:22:02 5.5 C 6.53 g/m*3 5.5 C 0 km/h
2742 06-05-2010 20:34:02 5.6 C 6.65 g/m*3 5.6 C 0 km/h
2743 06-05-2010 20:46:02 5.4 C 6.56 g/m*3 5.4 C 0 km/h
2744 06-05-2010 20:58:02 5.4 C 6.56 g/m*3 5.4 C 0 km/h
2745 06-05-2010 21:10:01 5.4 C 6.56 g/m*3 5.4 C 0 km/h
2746 06-05-2010 21:22:02 5.4 C 6.56 g/m*3 5.4 C 0 km/h
2747 06-05-2010 21:34:01 5.3 C 6.52 g/m*3 5.3 C 0 km/h
2748 06-05-2010 21:46:03 5.4 C 6.56 g/m*3 5.4 C 0 km/h
2749 06-05-2010 21:58:03 5.4 C 6.56 g/m*3 5.4 C 0 km/h
2750 06-05-2010 22:10:02 5.4 C 6.63 g/m*3 5.4 C 0 km/h
Sensor: Nr:Datum:Temp:Abs-Feuchte:Windchill:Wind:
Aussen-T/F 2751 06-05-2010 22:22:02 5.4 C 6.63 g/m*3 5.4 C 0 km/h
2752 06-05-2010 22:34:02 5.4 C 6.63 g/m*3 5.4 C 0 km/h
2753 06-05-2010 22:47:02 5.4 C 6.63 g/m*3 5.4 C 0 km/h
2754 06-05-2010 22:59:02 5.4 C 6.63 g/m*3 5.4 C 0 km/h
2755 06-05-2010 23:11:02 5.4 C 6.63 g/m*3 5.4 C 0 km/h
2756 06-05-2010 23:23:02 5.4 C 6.63 g/m*3 5.4 C 0 km/h
2757 06-05-2010 23:35:02 5.4 C 6.63 g/m*3 5.4 C 0 km/h
2758 06-05-2010 23:47:02 5.3 C 6.58 g/m*3 5.3 C 0 km/h
2759 06-05-2010 23:59:02 5.3 C 6.58 g/m*3 5.3 C 0 km/h
2760 07-05-2010 00:11:02 5.4 C 6.63 g/m*3 5.4 C 0 km/h
2761 07-05-2010 00:23:02 5.4 C 6.63 g/m*3 5.4 C 0 km/h
2762 07-05-2010 00:35:02 5.4 C 6.63 g/m*3 5.4 C 0 km/h
2763 07-05-2010 00:47:02 5.4 C 6.63 g/m*3 5.4 C 0 km/h
2764 07-05-2010 00:59:02 5.4 C 6.63 g/m*3 5.4 C 0 km/h
2765 07-05-2010 01:11:03 5.4 C 6.63 g/m*3 5.4 C 0 km/h
2766 07-05-2010 01:23:03 5.4 C 6.63 g/m*3 5.4 C 0 km/h
2767 07-05-2010 01:35:03 5.4 C 6.63 g/m*3 5.4 C 0 km/h
2768 07-05-2010 01:47:03 5.4 C 6.63 g/m*3 5.4 C 0 km/h
2769 07-05-2010 01:59:03 5.4 C 6.63 g/m*3 5.4 C 0 km/h
2770 07-05-2010 02:11:03 5.4 C 6.63 g/m*3 5.4 C 0 km/h
2771 07-05-2010 02:23:03 5.4 C 6.63 g/m*3 5.4 C 0 km/h
2772 07-05-2010 02:35:03 5.4 C 6.63 g/m*3 5.4 C 0 km/h
2773 07-05-2010 02:47:03 5.4 C 6.63 g/m*3 5.4 C 0 km/h
2774 07-05-2010 02:59:03 5.4 C 6.63 g/m*3 5.4 C 0 km/h
2775 07-05-2010 03:11:03 5.4 C 6.63 g/m*3 5.4 C 0 km/h
Sensor: Nr:Datum:Temp:Abs-Feuchte:Windchill:Wind:
Aussen-T/F 2776 07-05-2010 03:23:03 5.4 C 6.63 g/m*3 5.4 C 0 km/h
2777 07-05-2010 03:35:03 5.3 C 6.58 g/m*3 5.3 C 0 km/h
2778 07-05-2010 03:47:03 5.3 C 6.58 g/m*3 5.3 C 0 km/h
2779 07-05-2010 03:59:03 5.2 C 6.54 g/m*3 5.2 C 0 km/h
2780 07-05-2010 04:11:03 5.2 C 6.54 g/m*3 5.2 C 0 km/h
2781 07-05-2010 04:23:03 5.2 C 6.54 g/m*3 5.2 C 0 km/h
2782 07-05-2010 04:35:03 5.2 C 6.54 g/m*3 5.2 C 0 km/h
2783 07-05-2010 04:47:03 5.2 C 6.54 g/m*3 5.2 C 0 km/h
2784 07-05-2010 04:59:03 5.1 C 6.5 g/m*3 5.1 C 0 km/h
2785 07-05-2010 05:11:04 5 C 6.46 g/m*3 5 C 0 km/h
2786 07-05-2010 05:23:04 5 C 6.46 g/m*3 5 C 0 km/h
2787 07-05-2010 05:35:04 4.9 C 6.41 g/m*3 4.9 C 0 km/h
2788 07-05-2010 05:47:04 4.8 C 6.37 g/m*3 4.8 C 0 km/h
2789 07-05-2010 05:59:04 4.7 C 6.33 g/m*3 4.7 C 0 km/h
2790 07-05-2010 06:11:04 4.7 C 6.33 g/m*3 4.7 C 0 km/h
2791 07-05-2010 06:23:04 4.6 C 6.29 g/m*3 4.6 C 0 km/h
2792 07-05-2010 06:35:04 4.5 C 6.24 g/m*3 4.5 C 0 km/h
2793 07-05-2010 06:47:04 4.6 C 6.29 g/m*3 4.6 C 0 km/h
2794 07-05-2010 06:59:04 4.6 C 6.29 g/m*3 4.6 C 0 km/h
2795 07-05-2010 07:11:04 4.6 C 6.29 g/m*3 4.6 C 0 km/h
2796 07-05-2010 07:23:04 4.7 C 6.33 g/m*3 4.7 C 0 km/h
2797 07-05-2010 07:35:04 4.6 C 6.29 g/m*3 4.6 C 0 km/h
2798 07-05-2010 07:47:04 4.7 C 6.33 g/m*3 4.7 C 0 km/h
2799 07-05-2010 07:59:04 4.8 C 6.37 g/m*3 4.8 C 0 km/h
2800 07-05-2010 08:11:04 4.9 C 6.41 g/m*3 4.9 C 0 km/h
Sensor: Nr:Datum:Temp:Abs-Feuchte:Windchill:Wind:
Aussen-T/F 2801 07-05-2010 08:23:04 4.8 C 6.37 g/m*3 4.8 C 0 km/h
2802 07-05-2010 08:35:02 5 C 6.46 g/m*3 5 C 0 km/h
2803 07-05-2010 08:47:02 4.8 C 6.3 g/m*3 4.8 C 0 km/h
2804 07-05-2010 08:59:02 4.6 C 6.22 g/m*3 4.6 C 0 km/h
2805 07-05-2010 09:11:02 4.9 C 6.28 g/m*3 4.9 C 0 km/h
2806 07-05-2010 09:23:03 4.8 C 6.24 g/m*3 4.8 C 0 km/h
2807 07-05-2010 09:35:02 4.7 C 6.13 g/m*3 4.7 C 0 km/h
2808 07-05-2010 09:47:02 5 C 6.12 g/m*3 5 C 0 km/h
2809 07-05-2010 09:59:02 4.9 C 6.08 g/m*3 4.9 C 0 km/h
2810 07-05-2010 10:11:02 5 C 6.05 g/m*3 5 C 0 km/h
2811 07-05-2010 10:23:02 5.3 C 6.17 g/m*3 5.3 C 0 km/h
2812 07-05-2010 10:35:02 6 C 6.39 g/m*3 6 C 0 km/h
2813 07-05-2010 10:47:02 5.6 C 6.15 g/m*3 5.6 C 0 km/h
2814 07-05-2010 10:59:02 5.7 C 6.12 g/m*3 5.7 C 0 km/h
2815 07-05-2010 11:11:01 6.8 C 6.58 g/m*3 6.8 C 0 km/h
2816 07-05-2010 11:23:02 7 C 6.66 g/m*3 7 C 0 km/h
2817 07-05-2010 11:35:02 7.1 C 6.71 g/m*3 7.1 C 0 km/h
2818 07-05-2010 11:47:02 7.1 C 6.71 g/m*3 7.1 C 0 km/h
2819 07-05-2010 11:59:02 7.1 C 6.63 g/m*3 7.1 C 0 km/h
2820 07-05-2010 12:11:03 7.1 C 6.4 g/m*3 7.1 C 0 km/h
2821 07-05-2010 12:23:02 7 C 6.28 g/m*3 7 C 0 km/h
2822 07-05-2010 12:35:02 7.1 C 6.4 g/m*3 7.1 C 0 km/h
2823 07-05-2010 12:47:01 7.3 C 6.48 g/m*3 7.3 C 0 km/h
2824 07-05-2010 12:59:01 7.2 C 6.2 g/m*3 7.2 C 0 km/h
2825 07-05-2010 13:11:02 7.3 C 6.4 g/m*3 7.3 C 0 km/h
Sensor: Nr:Datum:Temp:Abs-Feuchte:Windchill:Wind:
Aussen-T/F 2826 07-05-2010 13:23:01 7.8 C 6.61 g/m*3 7.8 C 0 km/h
2827 07-05-2010 13:35:02 8.3 C 6.66 g/m*3 8.3 C 0 km/h
2828 07-05-2010 13:47:01 7.9 C 6.49 g/m*3 7.9 C 0 km/h
2829 07-05-2010 13:59:01 7.7 C 6.41 g/m*3 7.7 C 0 km/h
2830 07-05-2010 14:11:02 8.6 C 6.87 g/m*3 8.6 C 0 km/h
2831 07-05-2010 14:23:01 8.4 C 6.79 g/m*3 8.4 C 0 km/h
2832 07-05-2010 14:35:02 8.5 C 6.92 g/m*3 8.5 C 0 km/h
2833 07-05-2010 14:47:01 8.3 C 6.83 g/m*3 8.3 C 0 km/h
2834 07-05-2010 14:59:01 8.3 C 6.66 g/m*3 8.3 C 0 km/h
2835 07-05-2010 15:11:02 8.4 C 6.87 g/m*3 8.4 C 0 km/h
2836 07-05-2010 15:23:02 7.8 C 6.61 g/m*3 7.8 C 0 km/h
2837 07-05-2010 15:35:02 7.7 C 6.57 g/m*3 7.7 C 0 km/h
2838 07-05-2010 15:47:02 8.5 C 7 g/m*3 8.5 C 0 km/h
2839 07-05-2010 15:59:02 8.6 C 7.05 g/m*3 8.6 C 0 km/h
2840 07-05-2010 16:11:01 9.3 C 7.19 g/m*3 9.3 C 0 km/h
2841 07-05-2010 16:23:01 9.2 C 6.97 g/m*3 9.2 C 0 km/h
2842 07-05-2010 16:35:01 9 C 6.61 g/m*3 9 C 0 km/h
2843 07-05-2010 16:47:01 9.2 C 6.97 g/m*3 9.2 C 0 km/h
2844 07-05-2010 16:59:01 9.1 C 6.92 g/m*3 9.1 C 0 km/h
2845 07-05-2010 17:11:02 8.9 C 6.92 g/m*3 8.9 C 0 km/h
2846 07-05-2010 17:23:01 9.2 C 6.97 g/m*3 9.2 C 0 km/h
2847 07-05-2010 17:35:02 9.4 C 7.05 g/m*3 9.4 C 0 km/h
2848 07-05-2010 17:47:01 9.8 C 7.24 g/m*3 9.8 C 0 km/h
2849 07-05-2010 17:59:01 9.8 C 7.24 g/m*3 9.8 C 0 km/h
2850 07-05-2010 18:11:02 9.8 C 7.24 g/m*3 9.8 C 0 km/h
Sensor: Nr:Datum:Temp:Abs-Feuchte:Windchill:Wind:
Aussen-T/F 2851 07-05-2010 18:23:02 9.4 C 6.96 g/m*3 9.4 C 0 km/h
2852 07-05-2010 18:35:02 9 C 6.88 g/m*3 9 C 0 km/h
2853 07-05-2010 18:47:02 9 C 7.05 g/m*3 9 C 0 km/h
2854 07-05-2010 18:59:02 8.5 C 7 g/m*3 8.5 C 0 km/h
2855 07-05-2010 19:11:02 8.2 C 7.03 g/m*3 8.2 C 0 km/h
2856 07-05-2010 19:23:02 8.1 C 6.99 g/m*3 8.1 C 0 km/h
2857 07-05-2010 19:35:02 7.9 C 7.06 g/m*3 7.9 C 0 km/h
2858 07-05-2010 19:47:02 7.6 C 7.09 g/m*3 7.6 C 0 km/h
2859 07-05-2010 19:59:02 7.7 C 7.14 g/m*3 7.7 C 0 km/h
2860 07-05-2010 20:11:02 7.3 C 7.03 g/m*3 7.3 C 0 km/h
2861 07-05-2010 20:23:01 7.3 C 7.03 g/m*3 7.3 C 0 km/h
2862 07-05-2010 20:35:02 7.2 C 7.06 g/m*3 7.2 C 0 km/h
2863 07-05-2010 20:47:02 7.1 C 7.1 g/m*3 7.1 C 0 km/h
2864 07-05-2010 20:59:02 6.9 C 7.08 g/m*3 6.9 C 0 km/h
2865 07-05-2010 21:11:02 6.7 C 6.99 g/m*3 6.7 C 0 km/h
2866 07-05-2010 21:23:02 6.8 C 7.04 g/m*3 6.8 C 0 km/h
2867 07-05-2010 21:35:02 6.8 C 7.11 g/m*3 6.8 C 0 km/h
2868 07-05-2010 21:47:02 6.7 C 7.07 g/m*3 6.7 C 0 km/h
2869 07-05-2010 21:59:02 6.4 C 6.93 g/m*3 6.4 C 0 km/h
2870 07-05-2010 22:11:02 6.1 C 6.79 g/m*3 6.1 C 0 km/h
2871 07-05-2010 22:23:02 5.9 C 6.71 g/m*3 5.9 C 0 km/h
2872 07-05-2010 22:35:02 5.7 C 6.62 g/m*3 5.7 C 0 km/h
2873 07-05-2010 22:47:02 5.6 C 6.57 g/m*3 5.6 C 0 km/h
2874 07-05-2010 22:59:02 5.7 C 6.69 g/m*3 5.7 C 0 km/h
2875 07-05-2010 23:11:01 5.9 C 6.78 g/m*3 5.9 C 0 km/h
Sensor: Nr:Datum:Temp:Abs-Feuchte:Windchill:Wind:
Aussen-T/F 2876 07-05-2010 23:23:02 5.9 C 6.78 g/m*3 5.9 C 0 km/h
2877 07-05-2010 23:35:02 5.9 C 6.85 g/m*3 5.9 C 0 km/h
2878 07-05-2010 23:47:02 6 C 6.82 g/m*3 6 C 0 km/h
2879 07-05-2010 23:59:03 6.1 C 6.87 g/m*3 6.1 C 0 km/h
2880 08-05-2010 00:11:01 6.2 C 6.91 g/m*3 6.2 C 0 km/h
2881 08-05-2010 00:23:02 6.2 C 6.91 g/m*3 6.2 C 0 km/h
2882 08-05-2010 00:35:01 6 C 6.82 g/m*3 6 C 0 km/h
2883 08-05-2010 00:47:02 5.6 C 6.65 g/m*3 5.6 C 0 km/h
2884 08-05-2010 00:59:02 5.5 C 6.6 g/m*3 5.5 C 0 km/h
2885 08-05-2010 01:11:02 5.4 C 6.56 g/m*3 5.4 C 0 km/h
2886 08-05-2010 01:23:02 5.1 C 6.43 g/m*3 5.1 C 0 km/h
2887 08-05-2010 01:35:02 4.9 C 6.35 g/m*3 4.9 C 0 km/h
2888 08-05-2010 01:47:02 4.7 C 6.26 g/m*3 4.7 C 0 km/h
2889 08-05-2010 01:59:02 4.7 C 6.33 g/m*3 4.7 C 0 km/h
2890 08-05-2010 02:11:01 4.5 C 6.18 g/m*3 4.5 C 0 km/h
2891 08-05-2010 02:23:02 4.5 C 6.24 g/m*3 4.5 C 0 km/h
2892 08-05-2010 02:35:02 4.6 C 6.29 g/m*3 4.6 C 0 km/h
2893 08-05-2010 02:48:03 4.4 C 6.2 g/m*3 4.4 C 0 km/h
2894 08-05-2010 03:00:03 4.5 C 6.24 g/m*3 4.5 C 0 km/h
2895 08-05-2010 03:12:03 4.6 C 6.29 g/m*3 4.6 C 0 km/h
2896 08-05-2010 03:24:03 4.7 C 6.33 g/m*3 4.7 C 0 km/h
2897 08-05-2010 03:36:02 4.6 C 6.29 g/m*3 4.6 C 0 km/h
2898 08-05-2010 03:48:02 4.6 C 6.29 g/m*3 4.6 C 0 km/h
2899 08-05-2010 04:00:02 4.7 C 6.33 g/m*3 4.7 C 0 km/h
2900 08-05-2010 04:12:02 4.6 C 6.29 g/m*3 4.6 C 0 km/h
Sensor: Nr:Datum:Temp:Abs-Feuchte:Windchill:Wind:
Aussen-T/F 2901 08-05-2010 04:24:02 4.4 C 6.2 g/m*3 4.4 C 0 km/h
2902 08-05-2010 04:36:02 4 C 6.04 g/m*3 4 C 0 km/h
2903 08-05-2010 04:48:02 4 C 6.04 g/m*3 4 C 0 km/h
2904 08-05-2010 05:00:02 4.1 C 6.08 g/m*3 4.1 C 0 km/h
2905 08-05-2010 05:12:01 4.2 C 6.12 g/m*3 4.2 C 0 km/h
2906 08-05-2010 05:24:02 4.4 C 6.2 g/m*3 4.4 C 0 km/h
2907 08-05-2010 05:36:02 4.5 C 6.24 g/m*3 4.5 C 0 km/h
2908 08-05-2010 05:48:02 4.5 C 6.24 g/m*3 4.5 C 0 km/h
2909 08-05-2010 06:00:02 4.5 C 6.24 g/m*3 4.5 C 0 km/h
2910 08-05-2010 06:12:03 4.6 C 6.29 g/m*3 4.6 C 0 km/h
2911 08-05-2010 06:24:02 4.6 C 6.29 g/m*3 4.6 C 0 km/h
2912 08-05-2010 06:36:02 4.8 C 6.37 g/m*3 4.8 C 0 km/h
2913 08-05-2010 06:48:01 4.8 C 6.37 g/m*3 4.8 C 0 km/h
2914 08-05-2010 07:00:01 4.8 C 6.37 g/m*3 4.8 C 0 km/h
2915 08-05-2010 07:12:02 5 C 6.46 g/m*3 5 C 0 km/h
2916 08-05-2010 07:24:01 5.2 C 6.54 g/m*3 5.2 C 0 km/h
2917 08-05-2010 07:36:01 5.5 C 6.67 g/m*3 5.5 C 0 km/h
2918 08-05-2010 07:48:01 5.6 C 6.72 g/m*3 5.6 C 0 km/h
2919 08-05-2010 08:00:01 5.9 C 6.78 g/m*3 5.9 C 0 km/h
2920 08-05-2010 08:12:02 6 C 6.68 g/m*3 6 C 0 km/h
2921 08-05-2010 08:24:01 5.8 C 6.52 g/m*3 5.8 C 0 km/h
2922 08-05-2010 08:36:01 6.2 C 6.55 g/m*3 6.2 C 0 km/h
2923 08-05-2010 08:48:01 6.5 C 6.6 g/m*3 6.5 C 0 km/h
2924 08-05-2010 09:00:01 7.3 C 6.87 g/m*3 7.3 C 0 km/h
2925 08-05-2010 09:12:02 8 C 7.03 g/m*3 8 C 0 km/h
Sensor: Nr:Datum:Temp:Abs-Feuchte:Windchill:Wind:
Aussen-T/F 2926 08-05-2010 09:24:01 8.1 C 6.82 g/m*3 8.1 C 0 km/h
2927 08-05-2010 09:36:01 8.7 C 7.01 g/m*3 8.7 C 0 km/h
2928 08-05-2010 09:48:01 9.2 C 7.05 g/m*3 9.2 C 0 km/h
2929 08-05-2010 10:00:01 9.1 C 6.74 g/m*3 9.1 C 0 km/h
2930 08-05-2010 10:12:02 9.1 C 6.57 g/m*3 9.1 C 0 km/h
2931 08-05-2010 10:24:01 9.6 C 6.87 g/m*3 9.6 C 0 km/h
2932 08-05-2010 10:36:01 10.1 C 6.9 g/m*3 10.1 C 0 km/h
2933 08-05-2010 10:48:01 10.4 C 7.04 g/m*3 10.4 C 0 km/h
2934 08-05-2010 11:00:01 11.2 C 7.3 g/m*3 11.2 C 0 km/h
2935 08-05-2010 11:12:02 12.1 C 7.18 g/m*3 12.1 C 0 km/h
2936 08-05-2010 11:24:01 12.8 C 7.06 g/m*3 12.8 C 0 km/h
2937 08-05-2010 11:36:01 14.1 C 6.31 g/m*3 14.1 C 0 km/h
2938 08-05-2010 11:48:01 15.1 C 5.55 g/m*3 15.1 C 0 km/h
2939 08-05-2010 12:00:01 14.8 C 5.32 g/m*3 14.8 C 0 km/h
2940 08-05-2010 12:12:01 14.5 C 4.97 g/m*3 14.5 C 0 km/h
2941 08-05-2010 12:24:02 15.6 C 5.19 g/m*3 15.6 C 0 km/h
2942 08-05-2010 12:36:01 15 C 4.74 g/m*3 15 C 0 km/h
2943 08-05-2010 12:48:03 16.3 C 5.13 g/m*3 16.3 C 0 km/h
2944 08-05-2010 13:00:03 16.5 C 5.2 g/m*3 16.5 C 0 km/h
2945 08-05-2010 13:12:02 16 C 5.31 g/m*3 16 C 0 km/h
2946 08-05-2010 13:24:02 15.8 C 5.25 g/m*3 15.8 C 0 km/h
2947 08-05-2010 13:36:02 17.5 C 5.37 g/m*3 17.5 C 0 km/h
2948 08-05-2010 13:48:02 18.4 C 4.88 g/m*3 18.4 C 0 km/h
2949 08-05-2010 14:00:02 16.4 C 4.19 g/m*3 16.4 C 0 km/h
2950 08-05-2010 14:12:02 15.5 C 4.1 g/m*3 15.5 C 0 km/h
Sensor: Nr:Datum:Temp:Abs-Feuchte:Windchill:Wind:
Aussen-T/F 2951 08-05-2010 14:24:02 15 C 4.36 g/m*3 15 C 0 km/h
2952 08-05-2010 14:36:01 15.6 C 4.39 g/m*3 15.6 C 0 km/h
2953 08-05-2010 14:48:02 15.6 C 4.12 g/m*3 15.6 C 0 km/h
2954 08-05-2010 15:00:02 16 C 4.22 g/m*3 16 C 0 km/h
2955 08-05-2010 15:12:01 16.1 C 4.25 g/m*3 16.1 C 0 km/h
2956 08-05-2010 15:24:02 16 C 4.36 g/m*3 16 C 0 km/h
2957 08-05-2010 15:36:02 16 C 4.36 g/m*3 16 C 0 km/h
2958 08-05-2010 15:48:02 15.5 C 4.63 g/m*3 15.5 C 0 km/h
2959 08-05-2010 16:00:02 16.4 C 4.61 g/m*3 16.4 C 0 km/h
2960 08-05-2010 16:12:03 16.6 C 4.38 g/m*3 16.6 C 0 km/h
2961 08-05-2010 16:24:02 16.4 C 4.47 g/m*3 16.4 C 0 km/h
2962 08-05-2010 16:36:02 17.5 C 4.32 g/m*3 17.5 C 0 km/h
2963 08-05-2010 16:48:01 17.6 C 4.2 g/m*3 17.6 C 0 km/h
2964 08-05-2010 17:00:01 17.4 C 4.15 g/m*3 17.4 C 0 km/h
2965 08-05-2010 17:12:02 17.5 C 4.17 g/m*3 17.5 C 0 km/h
2966 08-05-2010 17:24:01 18.5 C 4.27 g/m*3 18.5 C 0 km/h
2967 08-05-2010 17:36:02 17.9 C 4.12 g/m*3 17.9 C 0 km/h
2968 08-05-2010 17:48:01 18.7 C 4.16 g/m*3 18.7 C 0 km/h
2969 08-05-2010 18:00:01 19.2 C 4.12 g/m*3 19.2 C 0 km/h
2970 08-05-2010 18:12:02 19.9 C 3.95 g/m*3 19.9 C 0 km/h
2971 08-05-2010 18:24:01 19.4 C 4 g/m*3 19.4 C 0 km/h
2972 08-05-2010 18:36:02 19.5 C 4.2 g/m*3 19.5 C 0 km/h
2973 08-05-2010 18:48:01 19.8 C 4.27 g/m*3 19.8 C 0 km/h
2974 08-05-2010 19:00:01 19.1 C 4.1 g/m*3 19.1 C 0 km/h
2975 08-05-2010 19:12:02 18.8 C 4.03 g/m*3 18.8 C 0 km/h
Sensor: Nr:Datum:Temp:Abs-Feuchte:Windchill:Wind:
Aussen-T/F 2976 08-05-2010 19:24:02 18.4 C 4.25 g/m*3 18.4 C 0 km/h
2977 08-05-2010 19:36:02 17.5 C 4.47 g/m*3 17.5 C 0 km/h
2978 08-05-2010 19:48:01 17.6 C 4.65 g/m*3 17.6 C 0 km/h
2979 08-05-2010 20:00:01 17.3 C 5.16 g/m*3 17.3 C 0 km/h
2980 08-05-2010 20:12:02 16.5 C 6.04 g/m*3 16.5 C 0 km/h
2981 08-05-2010 20:24:02 15.7 C 6.42 g/m*3 15.7 C 0 km/h
2982 08-05-2010 20:36:02 15.1 C 6.06 g/m*3 15.1 C 0 km/h
2983 08-05-2010 20:48:01 14.3 C 6.02 g/m*3 14.3 C 0 km/h
2984 08-05-2010 21:00:01 13.8 C 5.96 g/m*3 13.8 C 0 km/h
2985 08-05-2010 21:12:02 13.5 C 6.08 g/m*3 13.5 C 0 km/h
2986 08-05-2010 21:24:02 13.5 C 6.43 g/m*3 13.5 C 0 km/h
2987 08-05-2010 21:36:02 13.5 C 6.08 g/m*3 13.5 C 0 km/h
2988 08-05-2010 21:48:02 12.9 C 5.97 g/m*3 12.9 C 0 km/h
2989 08-05-2010 22:00:02 12.4 C 5.9 g/m*3 12.4 C 0 km/h
2990 08-05-2010 22:12:02 11.9 C 6.04 g/m*3 11.9 C 0 km/h
2991 08-05-2010 22:24:02 11.7 C 5.86 g/m*3 11.7 C 0 km/h
2992 08-05-2010 22:36:01 11.8 C 6.21 g/m*3 11.8 C 0 km/h
2993 08-05-2010 22:48:02 12 C 6.39 g/m*3 12 C 0 km/h
2994 08-05-2010 23:00:02 11.8 C 6.21 g/m*3 11.8 C 0 km/h
2995 08-05-2010 23:12:01 11.6 C 6.34 g/m*3 11.6 C 0 km/h
2996 08-05-2010 23:24:02 11 C 6.21 g/m*3 11 C 0 km/h
2997 08-05-2010 23:36:01 10.6 C 6.25 g/m*3 10.6 C 0 km/h
2998 08-05-2010 23:48:02 10.3 C 6.22 g/m*3 10.3 C 0 km/h
2999 09-05-2010 00:00:02 10.2 C 6.38 g/m*3 10.2 C 0 km/h
3000 09-05-2010 00:12:02 10 C 6.39 g/m*3 10 C 0 km/h
Sensor: Nr:Datum:Temp:Abs-Feuchte:Windchill:Wind:
Aussen-T/F 3001 09-05-2010 00:24:03 9.8 C 6.49 g/m*3 9.8 C 0 km/h
3002 09-05-2010 00:36:02 9.6 C 6.41 g/m*3 9.6 C 0 km/h
3003 09-05-2010 00:48:02 9.4 C 6.42 g/m*3 9.4 C 0 km/h
3004 09-05-2010 01:00:02 9.1 C 6.39 g/m*3 9.1 C 0 km/h
3005 09-05-2010 01:12:02 9 C 6.52 g/m*3 9 C 0 km/h
3006 09-05-2010 01:24:03 8.7 C 6.49 g/m*3 8.7 C 0 km/h
3007 09-05-2010 01:36:02 8.6 C 6.44 g/m*3 8.6 C 0 km/h
3008 09-05-2010 01:48:03 8.7 C 6.57 g/m*3 8.7 C 0 km/h
3009 09-05-2010 02:00:03 8.8 C 6.7 g/m*3 8.8 C 0 km/h
3010 09-05-2010 02:12:02 8.7 C 6.66 g/m*3 8.7 C 0 km/h
3011 09-05-2010 02:24:02 8.7 C 6.66 g/m*3 8.7 C 0 km/h
3012 09-05-2010 02:36:02 8.4 C 6.53 g/m*3 8.4 C 0 km/h
3013 09-05-2010 02:49:04 8.5 C 6.57 g/m*3 8.5 C 0 km/h
3014 09-05-2010 03:01:04 8.5 C 6.66 g/m*3 8.5 C 0 km/h
3015 09-05-2010 03:13:03 8.3 C 6.57 g/m*3 8.3 C 0 km/h
3016 09-05-2010 03:25:03 8.5 C 6.66 g/m*3 8.5 C 0 km/h
3017 09-05-2010 03:37:01 8.5 C 6.66 g/m*3 8.5 C 0 km/h
3018 09-05-2010 03:49:01 8.5 C 6.66 g/m*3 8.5 C 0 km/h
3019 09-05-2010 04:01:01 8.6 C 6.7 g/m*3 8.6 C 0 km/h
3020 09-05-2010 04:13:01 8.6 C 6.7 g/m*3 8.6 C 0 km/h
3021 09-05-2010 04:25:02 8.5 C 6.66 g/m*3 8.5 C 0 km/h
3022 09-05-2010 04:37:01 8.5 C 6.66 g/m*3 8.5 C 0 km/h
3023 09-05-2010 04:49:03 8.3 C 6.57 g/m*3 8.3 C 0 km/h
3024 09-05-2010 05:01:02 8 C 6.45 g/m*3 8 C 0 km/h
3025 09-05-2010 05:13:02 7.8 C 6.53 g/m*3 7.8 C 0 km/h
Sensor: Nr:Datum:Temp:Abs-Feuchte:Windchill:Wind:
Aussen-T/F 3026 09-05-2010 05:25:02 7.6 C 6.53 g/m*3 7.6 C 0 km/h
3027 09-05-2010 05:37:02 7.4 C 6.52 g/m*3 7.4 C 0 km/h
3028 09-05-2010 05:49:02 7.4 C 6.52 g/m*3 7.4 C 0 km/h
3029 09-05-2010 06:01:02 7.6 C 6.69 g/m*3 7.6 C 0 km/h
3030 09-05-2010 06:13:02 7.9 C 6.82 g/m*3 7.9 C 0 km/h
3031 09-05-2010 06:25:02 8 C 6.7 g/m*3 8 C 0 km/h
3032 09-05-2010 06:37:02 8.1 C 6.74 g/m*3 8.1 C 0 km/h
3033 09-05-2010 06:49:02 8.3 C 6.83 g/m*3 8.3 C 0 km/h
3034 09-05-2010 07:01:02 8.5 C 6.92 g/m*3 8.5 C 0 km/h
3035 09-05-2010 07:13:02 8.6 C 6.87 g/m*3 8.6 C 0 km/h
3036 09-05-2010 07:25:01 8.7 C 6.83 g/m*3 8.7 C 0 km/h
3037 09-05-2010 07:37:02 9.1 C 6.92 g/m*3 9.1 C 0 km/h
3038 09-05-2010 07:49:02 9.1 C 6.83 g/m*3 9.1 C 0 km/h
3039 09-05-2010 08:01:02 9.6 C 6.96 g/m*3 9.6 C 0 km/h
3040 09-05-2010 08:13:02 9.6 C 6.96 g/m*3 9.6 C 0 km/h
3041 09-05-2010 08:25:02 9.6 C 6.87 g/m*3 9.6 C 0 km/h
3042 09-05-2010 08:37:02 10 C 7.05 g/m*3 10 C 0 km/h
3043 09-05-2010 08:49:02 10.4 C 7.04 g/m*3 10.4 C 0 km/h
3044 09-05-2010 09:01:02 10.8 C 7.02 g/m*3 10.8 C 0 km/h
3045 09-05-2010 09:13:02 10.9 C 7.16 g/m*3 10.9 C 0 km/h
3046 09-05-2010 09:25:02 11.1 C 6.95 g/m*3 11.1 C 0 km/h
3047 09-05-2010 09:37:03 11.7 C 7.11 g/m*3 11.7 C 0 km/h
3048 09-05-2010 09:49:02 12 C 6.93 g/m*3 12 C 0 km/h
3049 09-05-2010 10:01:01 12.4 C 6.99 g/m*3 12.4 C 0 km/h
3050 09-05-2010 10:13:01 12.7 C 7.12 g/m*3 12.7 C 0 km/h
Sensor: Nr:Datum:Temp:Abs-Feuchte:Windchill:Wind:
Aussen-T/F 3051 09-05-2010 10:25:01 12.2 C 7.23 g/m*3 12.2 C 0 km/h
3052 09-05-2010 10:37:02 12.2 C 7.55 g/m*3 12.2 C 0 km/h
3053 09-05-2010 10:49:02 12 C 7.35 g/m*3 12 C 0 km/h
3054 09-05-2010 11:01:01 12.2 C 7.55 g/m*3 12.2 C 0 km/h
3055 09-05-2010 11:13:01 12.4 C 7.54 g/m*3 12.4 C 0 km/h
3056 09-05-2010 11:25:02 12.3 C 7.38 g/m*3 12.3 C 0 km/h
3057 09-05-2010 11:37:01 12.3 C 7.28 g/m*3 12.3 C 0 km/h
3058 09-05-2010 11:49:02 12.2 C 7.23 g/m*3 12.2 C 0 km/h
3059 09-05-2010 12:01:02 12.3 C 7.28 g/m*3 12.3 C 0 km/h
3060 09-05-2010 12:13:02 13 C 7.37 g/m*3 13 C 0 km/h
3061 09-05-2010 12:25:02 13.4 C 7.21 g/m*3 13.4 C 0 km/h
3062 09-05-2010 12:37:02 14 C 7.24 g/m*3 14 C 0 km/h
3063 09-05-2010 12:49:02 14.4 C 7.17 g/m*3 14.4 C 0 km/h
3064 09-05-2010 13:01:01 15 C 6.92 g/m*3 15 C 0 km/h
3065 09-05-2010 13:13:01 16.2 C 7.03 g/m*3 16.2 C 0 km/h
3066 09-05-2010 13:25:01 17.2 C 6.59 g/m*3 17.2 C 0 km/h
3067 09-05-2010 13:37:02 18.5 C 6.33 g/m*3 18.5 C 0 km/h
3068 09-05-2010 13:49:02 18.2 C 6.22 g/m*3 18.2 C 0 km/h
3069 09-05-2010 14:01:02 17.9 C 6.11 g/m*3 17.9 C 0 km/h
3070 09-05-2010 14:13:02 17.5 C 6.11 g/m*3 17.5 C 0 km/h
3071 09-05-2010 14:25:02 16.7 C 6.11 g/m*3 16.7 C 0 km/h
3072 09-05-2010 14:37:01 16.7 C 6.11 g/m*3 16.7 C 0 km/h
3073 09-05-2010 14:49:02 17 C 6.22 g/m*3 17 C 0 km/h
3074 09-05-2010 15:01:01 17 C 6.22 g/m*3 17 C 0 km/h
3075 09-05-2010 15:13:01 17.3 C 6.33 g/m*3 17.3 C 0 km/h
Sensor: Nr:Datum:Temp:Abs-Feuchte:Windchill:Wind:
Aussen-T/F 3076 09-05-2010 15:25:02 17.6 C 6.3 g/m*3 17.6 C 0 km/h
3077 09-05-2010 15:37:01 17.8 C 6.37 g/m*3 17.8 C 0 km/h
3078 09-05-2010 15:49:03 17.9 C 6.26 g/m*3 17.9 C 0 km/h
3079 09-05-2010 16:01:02 18 C 6.3 g/m*3 18 C 0 km/h
3080 09-05-2010 16:13:02 18.7 C 6.4 g/m*3 18.7 C 0 km/h
3081 09-05-2010 16:25:02 19.1 C 6.23 g/m*3 19.1 C 0 km/h
3082 09-05-2010 16:37:02 18.7 C 6.08 g/m*3 18.7 C 0 km/h
3083 09-05-2010 16:49:02 18 C 5.68 g/m*3 18 C 0 km/h
3084 09-05-2010 17:01:02 17.8 C 5.77 g/m*3 17.8 C 0 km/h
3085 09-05-2010 17:13:02 19.6 C 5.74 g/m*3 19.6 C 0 km/h
3086 09-05-2010 17:25:02 19.5 C 5.03 g/m*3 19.5 C 0 km/h
3087 09-05-2010 17:37:02 19.1 C 5.41 g/m*3 19.1 C 0 km/h
3088 09-05-2010 17:49:02 19.4 C 5.17 g/m*3 19.4 C 0 km/h
3089 09-05-2010 18:01:02 19.5 C 5.71 g/m*3 19.5 C 0 km/h
3090 09-05-2010 18:13:02 18.9 C 5.67 g/m*3 18.9 C 0 km/h
3091 09-05-2010 18:25:03 18.7 C 5.76 g/m*3 18.7 C 0 km/h
3092 09-05-2010 18:37:02 18.3 C 5.79 g/m*3 18.3 C 0 km/h
3093 09-05-2010 18:49:03 18.1 C 6.03 g/m*3 18.1 C 0 km/h
3094 09-05-2010 19:01:02 17.6 C 6.6 g/m*3 17.6 C 0 km/h
3095 09-05-2010 19:13:03 17 C 6.8 g/m*3 17 C 0 km/h
3096 09-05-2010 19:25:02 17 C 6.95 g/m*3 17 C 0 km/h
3097 09-05-2010 19:37:02 16.6 C 6.92 g/m*3 16.6 C 0 km/h
3098 09-05-2010 19:49:01 16.2 C 6.9 g/m*3 16.2 C 0 km/h
3099 09-05-2010 20:01:02 15.8 C 7 g/m*3 15.8 C 0 km/h
3100 09-05-2010 20:13:02 15.2 C 6.88 g/m*3 15.2 C 0 km/h
Sensor: Nr:Datum:Temp:Abs-Feuchte:Windchill:Wind:
Aussen-T/F 3101 09-05-2010 20:25:01 14.8 C 6.84 g/m*3 14.8 C 0 km/h
3102 09-05-2010 20:37:01 14.3 C 6.88 g/m*3 14.3 C 0 km/h
3103 09-05-2010 20:49:01 14 C 6.75 g/m*3 14 C 0 km/h
3104 09-05-2010 21:01:02 13.4 C 6.97 g/m*3 13.4 C 0 km/h
3105 09-05-2010 21:13:02 12.8 C 7.06 g/m*3 12.8 C 0 km/h
3106 09-05-2010 21:25:02 12.5 C 7.15 g/m*3 12.5 C 0 km/h
3107 09-05-2010 21:37:02 12.1 C 7.08 g/m*3 12.1 C 0 km/h
3108 09-05-2010 21:49:02 11.7 C 7.11 g/m*3 11.7 C 0 km/h
3109 09-05-2010 22:01:03 11.5 C 7.13 g/m*3 11.5 C 0 km/h
3110 09-05-2010 22:13:03 11.3 C 7.14 g/m*3 11.3 C 0 km/h
3111 09-05-2010 22:25:02 11.1 C 7.05 g/m*3 11.1 C 0 km/h
3112 09-05-2010 22:38:04 10.9 C 6.96 g/m*3 10.9 C 0 km/h
3113 09-05-2010 22:50:04 10.8 C 7.02 g/m*3 10.8 C 0 km/h
3114 09-05-2010 23:02:04 10.8 C 7.12 g/m*3 10.8 C 0 km/h
3115 09-05-2010 23:14:04 10.9 C 7.06 g/m*3 10.9 C 0 km/h
3116 09-05-2010 23:26:05 10.7 C 7.07 g/m*3 10.7 C 0 km/h
3117 09-05-2010 23:38:05 10.8 C 7.22 g/m*3 10.8 C 0 km/h
3118 09-05-2010 23:50:05 10.5 C 7.08 g/m*3 10.5 C 0 km/h
3119 10-05-2010 00:02:05 10.4 C 7.13 g/m*3 10.4 C 0 km/h
3120 10-05-2010 00:14:05 10.5 C 7.18 g/m*3 10.5 C 0 km/h
3121 10-05-2010 00:26:05 10.3 C 7.09 g/m*3 10.3 C 0 km/h
3122 10-05-2010 00:38:05 10.1 C 7.09 g/m*3 10.1 C 0 km/h
3123 10-05-2010 00:50:05 9.8 C 7.24 g/m*3 9.8 C 0 km/h
3124 10-05-2010 01:02:05 9.8 C 7.24 g/m*3 9.8 C 0 km/h
3125 10-05-2010 01:14:05 9.8 C 7.33 g/m*3 9.8 C 0 km/h
Sensor: Nr:Datum:Temp:Abs-Feuchte:Windchill:Wind:
Aussen-T/F 3126 10-05-2010 01:26:05 9.9 C 7.38 g/m*3 9.9 C 0 km/h
3127 10-05-2010 01:38:05 10 C 7.24 g/m*3 10 C 0 km/h
3128 10-05-2010 01:50:05 9.8 C 7.24 g/m*3 9.8 C 0 km/h
3129 10-05-2010 02:02:05 9.7 C 7.19 g/m*3 9.7 C 0 km/h
3130 10-05-2010 02:14:05 9.5 C 7.19 g/m*3 9.5 C 0 km/h
3131 10-05-2010 02:26:05 9.4 C 7.24 g/m*3 9.4 C 0 km/h
3132 10-05-2010 02:38:05 9.4 C 7.24 g/m*3 9.4 C 0 km/h
3133 10-05-2010 02:50:05 9.4 C 7.33 g/m*3 9.4 C 0 km/h
3134 10-05-2010 03:02:05 9.2 C 7.23 g/m*3 9.2 C 0 km/h
3135 10-05-2010 03:14:05 9 C 7.14 g/m*3 9 C 0 km/h
3136 10-05-2010 03:26:05 8.8 C 7.14 g/m*3 8.8 C 0 km/h
3137 10-05-2010 03:38:05 8.7 C 7.18 g/m*3 8.7 C 0 km/h
3138 10-05-2010 03:50:06 8.7 C 7.26 g/m*3 8.7 C 0 km/h
3139 10-05-2010 04:02:06 8.6 C 7.22 g/m*3 8.6 C 0 km/h
3140 10-05-2010 04:14:06 8.6 C 7.22 g/m*3 8.6 C 0 km/h
3141 10-05-2010 04:26:06 8.6 C 7.3 g/m*3 8.6 C 0 km/h
3142 10-05-2010 04:38:06 8.6 C 7.3 g/m*3 8.6 C 0 km/h
3143 10-05-2010 04:50:06 8.7 C 7.26 g/m*3 8.7 C 0 km/h
3144 10-05-2010 05:02:06 8.6 C 7.22 g/m*3 8.6 C 0 km/h
3145 10-05-2010 05:14:06 8.6 C 7.22 g/m*3 8.6 C 0 km/h
3146 10-05-2010 05:26:06 8.6 C 7.3 g/m*3 8.6 C 0 km/h
3147 10-05-2010 05:38:06 8.7 C 7.35 g/m*3 8.7 C 0 km/h
3148 10-05-2010 05:50:06 8.8 C 7.31 g/m*3 8.8 C 0 km/h
3149 10-05-2010 06:02:06 8.7 C 7.26 g/m*3 8.7 C 0 km/h
3150 10-05-2010 06:14:06 8.7 C 7.26 g/m*3 8.7 C 0 km/h
Sensor: Nr:Datum:Temp:Abs-Feuchte:Windchill:Wind:
Aussen-T/F 3151 10-05-2010 06:26:06 8.8 C 7.31 g/m*3 8.8 C 0 km/h
3152 10-05-2010 06:38:04 8.9 C 7.36 g/m*3 8.9 C 0 km/h
3153 10-05-2010 06:50:02 9 C 7.32 g/m*3 9 C 0 km/h
3154 10-05-2010 07:02:02 9.1 C 7.36 g/m*3 9.1 C 0 km/h
3155 10-05-2010 07:14:02 9.4 C 7.51 g/m*3 9.4 C 0 km/h
3156 10-05-2010 07:26:01 9.6 C 7.6 g/m*3 9.6 C 0 km/h
3157 10-05-2010 07:38:02 9.8 C 7.7 g/m*3 9.8 C 0 km/h
3158 10-05-2010 07:50:02 10.2 C 7.71 g/m*3 10.2 C 0 km/h
3159 10-05-2010 08:02:02 10.5 C 7.76 g/m*3 10.5 C 0 km/h
3160 10-05-2010 08:14:02 10.6 C 7.71 g/m*3 10.6 C 0 km/h
3161 10-05-2010 08:26:02 10.7 C 7.66 g/m*3 10.7 C 0 km/h
3162 10-05-2010 08:38:02 10.7 C 7.46 g/m*3 10.7 C 0 km/h
3163 10-05-2010 08:50:02 10.7 C 7.37 g/m*3 10.7 C 0 km/h
3164 10-05-2010 09:02:02 10.8 C 7.41 g/m*3 10.8 C 0 km/h
3165 10-05-2010 09:14:03 10.8 C 7.22 g/m*3 10.8 C 0 km/h
3166 10-05-2010 09:26:02 10.7 C 7.27 g/m*3 10.7 C 0 km/h
3167 10-05-2010 09:38:02 11 C 7.21 g/m*3 11 C 0 km/h
3168 10-05-2010 09:50:02 11.1 C 7.25 g/m*3 11.1 C 0 km/h
3169 10-05-2010 10:02:02 11.1 C 7.15 g/m*3 11.1 C 0 km/h
3170 10-05-2010 10:14:02 11.4 C 7.08 g/m*3 11.4 C 0 km/h
3171 10-05-2010 10:26:03 11.2 C 7.1 g/m*3 11.2 C 0 km/h
3172 10-05-2010 10:38:02 11.6 C 7.17 g/m*3 11.6 C 0 km/h
3173 10-05-2010 10:50:02 11.4 C 6.98 g/m*3 11.4 C 0 km/h
3174 10-05-2010 11:02:02 11.5 C 7.13 g/m*3 11.5 C 0 km/h
3175 10-05-2010 11:14:02 11.5 C 7.02 g/m*3 11.5 C 0 km/h
Sensor: Nr:Datum:Temp:Abs-Feuchte:Windchill:Wind:
Aussen-T/F 3176 10-05-2010 11:26:02 11.5 C 7.02 g/m*3 11.5 C 0 km/h
3177 10-05-2010 11:38:02 11.3 C 7.04 g/m*3 11.3 C 0 km/h
3178 10-05-2010 11:50:02 11.7 C 7.22 g/m*3 11.7 C 0 km/h
3179 10-05-2010 12:02:03 11.7 C 7.11 g/m*3 11.7 C 0 km/h
3180 10-05-2010 12:14:03 11.6 C 6.96 g/m*3 11.6 C 0 km/h
3181 10-05-2010 12:26:02 12.7 C 7.01 g/m*3 12.7 C 0 km/h
3182 10-05-2010 12:38:03 12.9 C 6.76 g/m*3 12.9 C 0 km/h
3183 10-05-2010 12:50:02 14.1 C 6.8 g/m*3 14.1 C 0 km/h
3184 10-05-2010 13:02:02 13.5 C 6.43 g/m*3 13.5 C 0 km/h
3185 10-05-2010 13:14:02 13.5 C 6.43 g/m*3 13.5 C 0 km/h
3186 10-05-2010 13:26:01 14.7 C 6.17 g/m*3 14.7 C 0 km/h
3187 10-05-2010 13:38:02 15.3 C 6.4 g/m*3 15.3 C 0 km/h
3188 10-05-2010 13:50:02 15.4 C 6.18 g/m*3 15.4 C 0 km/h
3189 10-05-2010 14:02:02 15.3 C 6.01 g/m*3 15.3 C 0 km/h
3190 10-05-2010 14:14:02 15.5 C 6.08 g/m*3 15.5 C 0 km/h
3191 10-05-2010 14:26:02 14.8 C 5.95 g/m*3 14.8 C 0 km/h
3192 10-05-2010 14:38:02 14.7 C 5.92 g/m*3 14.7 C 0 km/h
3193 10-05-2010 14:50:02 14.7 C 5.92 g/m*3 14.7 C 0 km/h
3194 10-05-2010 15:02:02 15 C 5.77 g/m*3 15 C 0 km/h
3195 10-05-2010 15:14:02 15.4 C 5.78 g/m*3 15.4 C 0 km/h
3196 10-05-2010 15:26:02 15.1 C 5.93 g/m*3 15.1 C 0 km/h
3197 10-05-2010 15:38:02 15.3 C 5.62 g/m*3 15.3 C 0 km/h
3198 10-05-2010 15:50:02 14.7 C 5.79 g/m*3 14.7 C 0 km/h
3199 10-05-2010 16:02:02 15.2 C 5.84 g/m*3 15.2 C 0 km/h
3200 10-05-2010 16:14:02 15.8 C 5.79 g/m*3 15.8 C 0 km/h
Sensor: Nr:Datum:Temp:Abs-Feuchte:Windchill:Wind:
Aussen-T/F 3201 10-05-2010 16:26:02 15.7 C 5.49 g/m*3 15.7 C 0 km/h
3202 10-05-2010 16:38:02 16.2 C 5.52 g/m*3 16.2 C 0 km/h
3203 10-05-2010 16:50:02 16.3 C 5.13 g/m*3 16.3 C 0 km/h
3204 10-05-2010 17:02:02 15.5 C 5.42 g/m*3 15.5 C 0 km/h
3205 10-05-2010 17:14:02 15.6 C 5.45 g/m*3 15.6 C 0 km/h
3206 10-05-2010 17:26:02 16 C 5.31 g/m*3 16 C 0 km/h
3207 10-05-2010 17:38:02 16 C 5.31 g/m*3 16 C 0 km/h
3208 10-05-2010 17:50:01 15.8 C 5.38 g/m*3 15.8 C 0 km/h
3209 10-05-2010 18:02:02 16.4 C 5.02 g/m*3 16.4 C 0 km/h
3210 10-05-2010 18:14:02 17.3 C 5.01 g/m*3 17.3 C 0 km/h
3211 10-05-2010 18:26:02 17.6 C 5.1 g/m*3 17.6 C 0 km/h
3212 10-05-2010 18:38:01 17.1 C 4.66 g/m*3 17.1 C 0 km/h
3213 10-05-2010 18:50:02 15.8 C 4.71 g/m*3 15.8 C 0 km/h
3214 10-05-2010 19:02:01 15.4 C 4.73 g/m*3 15.4 C 0 km/h
3215 10-05-2010 19:14:01 15.6 C 4.92 g/m*3 15.6 C 0 km/h
3216 10-05-2010 19:26:02 14.9 C 4.97 g/m*3 14.9 C 0 km/h
3217 10-05-2010 19:38:01 14.7 C 5.04 g/m*3 14.7 C 0 km/h
3218 10-05-2010 19:50:02 14.5 C 5.1 g/m*3 14.5 C 0 km/h
3219 10-05-2010 20:02:01 14.5 C 4.97 g/m*3 14.5 C 0 km/h
3220 10-05-2010 20:14:01 14.5 C 4.97 g/m*3 14.5 C 0 km/h
3221 10-05-2010 20:26:02 14.3 C 5.04 g/m*3 14.3 C 0 km/h
3222 10-05-2010 20:38:01 13.7 C 5.09 g/m*3 13.7 C 0 km/h
3223 10-05-2010 20:50:02 13.1 C 5.14 g/m*3 13.1 C 0 km/h
3224 10-05-2010 21:02:02 12.8 C 5.38 g/m*3 12.8 C 0 km/h
3225 10-05-2010 21:14:02 12.3 C 5.43 g/m*3 12.3 C 0 km/h
Sensor: Nr:Datum:Temp:Abs-Feuchte:Windchill:Wind:
Aussen-T/F 3226 10-05-2010 21:26:02 11.9 C 5.51 g/m*3 11.9 C 0 km/h
3227 10-05-2010 21:38:02 11.6 C 5.4 g/m*3 11.6 C 0 km/h
3228 10-05-2010 21:50:02 11.5 C 5.58 g/m*3 11.5 C 0 km/h
3229 10-05-2010 22:02:02 11.5 C 5.68 g/m*3 11.5 C 0 km/h
3230 10-05-2010 22:14:02 11.5 C 5.58 g/m*3 11.5 C 0 km/h
3231 10-05-2010 22:27:04 11.2 C 5.57 g/m*3 11.2 C 0 km/h
3232 10-05-2010 22:39:04 11.1 C 5.54 g/m*3 11.1 C 0 km/h
3233 10-05-2010 22:51:04 11.8 C 5.79 g/m*3 11.8 C 0 km/h
3234 10-05-2010 23:03:04 11.6 C 5.92 g/m*3 11.6 C 0 km/h
3235 10-05-2010 23:15:05 11.2 C 5.68 g/m*3 11.2 C 0 km/h
3236 10-05-2010 23:27:05 11.3 C 5.81 g/m*3 11.3 C 0 km/h
3237 10-05-2010 23:39:05 11.4 C 5.85 g/m*3 11.4 C 0 km/h
3238 10-05-2010 23:51:05 11.2 C 5.78 g/m*3 11.2 C 0 km/h
3239 11-05-2010 00:03:05 11 C 5.71 g/m*3 11 C 0 km/h